Provisional Data: Little Chiques Creek near Mount Joy, PA


Please select a monitoring station.
Please select start date.
Please select start date.

<
Toggle Unit: C/F Toggle Unit: C/F
Sample Time Temperature (C) Temperature (F) Specific Conductivity (mS/cm) pH   Turbidity (NTU+) DO (mg/L)
2/4/2021 12:00:00 AM 2.12 35.816 0.375 7.51 4.13 13.06
2/4/2021 12:15:00 AM 2.07 35.726 0.375 7.51 4.54 12.99
2/4/2021 12:30:00 AM 2.04 35.672 0.375 7.51 4.81 13.11
2/4/2021 12:45:00 AM 1.74 35.132 0.326 6.5 3.82 11.36
2/4/2021 1:00:00 AM 1.87 35.366 0.355 7.08 3.82 12.22
2/4/2021 1:15:00 AM 1.94 35.492 0.373 7.44 3.82 12.87
2/4/2021 1:30:00 AM 1.92 35.456 0.376 7.49 3.9 12.92
2/4/2021 1:45:00 AM 1.91 35.438 0.377 7.49 3.86 13.01
2/4/2021 2:00:00 AM 1.62 34.916 0.328 6.49 3.15 11.31
2/4/2021 2:15:00 AM 1.59 34.862 0.328 6.49 3.18 11.3
2/4/2021 2:30:00 AM 1.78 35.204 0.371 7.36 3.75 12.81
2/4/2021 2:45:00 AM 1.78 35.204 0.377 7.47 4.07 12.92
2/4/2021 3:00:00 AM 1.76 35.168 0.378 7.49 3.91 13.02
2/4/2021 3:15:00 AM 1.51 34.718 0.329 6.48 3.18 11.33
2/4/2021 3:30:00 AM 1.69 35.042 0.372 7.35 4.12 12.81
2/4/2021 3:45:00 AM 1.71 35.078 0.378 7.46 4.37 12.99
2/4/2021 4:00:00 AM 1.7 35.06 0.379 7.48 4.59 13.04
2/4/2021 4:15:00 AM 1.68 35.024 0.38 7.48 4.31 13.04
2/4/2021 4:30:00 AM 1.44 34.592 0.331 6.48 3.64 11.31
2/4/2021 4:45:00 AM 1.6 34.88 0.373 7.34 4.02 12.68
2/4/2021 5:00:00 AM 1.6 34.88 0.379 7.46 3.81 12.91
2/4/2021 5:15:00 AM 1.58 34.844 0.38 7.47 3.84 12.99
2/4/2021 5:30:00 AM 1.55 34.79 0.38 7.47 3.99 13.04
2/4/2021 5:45:00 AM 1.52 34.736 0.381 7.47 4.82 13.06
2/4/2021 6:00:00 AM 1.5 34.7 0.381 7.47 4.82 12.99
2/4/2021 6:15:00 AM 1.47 34.646 0.381 7.47 4.87 12.98
2/4/2021 6:30:00 AM 1.44 34.592 0.381 7.47 4.82 13.05
2/4/2021 6:45:00 AM 1.42 34.556 0.381 7.47 4.22 12.97
2/4/2021 7:00:00 AM 1.39 34.502 0.382 7.46 3.92 13.1
2/4/2021 7:15:00 AM 1.36 34.448 0.382 7.46 3.95 13.04
2/4/2021 7:30:00 AM 1.33 34.394 0.382 7.47 3.54 13.07
2/4/2021 7:45:00 AM 1.3 34.34 0.383 7.48 3.64 13.16
2/4/2021 8:00:00 AM 1.27 34.286 0.383 7.49 3.67 13.41
2/4/2021 8:15:00 AM 1.27 34.286 0.383 7.51 4.04 13.63
2/4/2021 8:30:00 AM 1.29 34.322 0.383 7.54 4.48 13.77
2/4/2021 8:45:00 AM 1.33 34.394 0.383 7.57 4.7 14.07
2/4/2021 9:00:00 AM 1.41 34.538 0.383 7.6 6.76 14.22
2/4/2021 9:15:00 AM 1.5 34.7 0.383 7.63 4.55 14.53
2/4/2021 9:30:00 AM 1.41 34.538 0.334 6.63 3.61 12.75
2/4/2021 9:45:00 AM 1.71 35.078 0.377 7.54 4.59 14.58
2/4/2021 10:00:00 AM 1.87 35.366 0.384 7.69 4.38 15.03
2/4/2021 10:15:00 AM 2.04 35.672 0.385 7.74 3.98 15.15
2/4/2021 10:30:00 AM 2.21 35.978 0.386 7.76 4.02 15.27
2/4/2021 10:45:00 AM 2.12 35.816 0.336 6.75 3.09 13.29
2/4/2021 11:00:00 AM 2.58 36.644 0.381 7.66 3.37 15.22
2/4/2021 11:15:00 AM 2.81 37.058 0.387 7.8 3.25 15.43
2/4/2021 11:30:00 AM 3 37.4 0.389 7.83 3.11 15.47
2/4/2021 11:45:00 AM 2.8 37.04 0.339 6.8 2.55 13.45
2/4/2021 12:00:00 PM 3.32 37.976 0.384 7.71 3.02 15.31
2/4/2021 12:15:00 PM 3.11 37.598 0.341 6.82 2.57 13.58
2/4/2021 12:30:00 PM 3.68 38.624 0.385 7.73 2.94 15.2
2/4/2021 12:45:00 PM 3.89 39.002 0.392 7.85 2.95 15.42
2/4/2021 1:00:00 PM 4.03 39.254 0.394 7.87 3.05 15.47
2/4/2021 1:15:00 PM 4.13 39.434 0.394 7.87 3.12 15.41
2/4/2021 1:30:00 PM 4.16 39.488 0.394 7.86 3.22 15.4
2/4/2021 1:45:00 PM 4.13 39.434 0.393 7.87 3.59 15.56
2/4/2021 2:00:00 PM 4.03 39.254 0.39 7.88 3.79 15.58
2/4/2021 2:15:00 PM 3.91 39.038 0.387 7.89 3.63 15.59
2/4/2021 2:30:00 PM 3.77 38.786 0.385 7.91 3.62 15.6
2/4/2021 2:45:00 PM 3.64 38.552 0.382 7.93 3.77 15.64
2/4/2021 3:00:00 PM 3.53 38.354 0.38 7.94 3.76 15.62
2/4/2021 3:15:00 PM 3.43 38.174 0.378 7.94 3.86 15.44
2/4/2021 3:30:00 PM 3.35 38.03 0.377 7.94 3.62 15.53
2/4/2021 3:45:00 PM 3.3 37.94 0.376 7.95 3.82 15.44
2/4/2021 4:00:00 PM 3.26 37.868 0.375 7.94 3.85 15.25
2/4/2021 4:15:00 PM 3.24 37.832 0.375 7.93 3.61 15.26
2/4/2021 4:30:00 PM 2.8 37.04 0.326 6.87 3.06 13.14
2/4/2021 4:45:00 PM 3.16 37.688 0.368 7.75 3.33 14.79
2/4/2021 5:00:00 PM 3.19 37.742 0.373 7.84 3.39 14.75
2/4/2021 5:15:00 PM 3.17 37.706 0.374 7.82 3.42 14.63
2/4/2021 5:30:00 PM 3.14 37.652 0.374 7.78 3.43 14.45
2/4/2021 5:45:00 PM 3.12 37.616 0.374 7.74 3.37 14.17
2/4/2021 6:00:00 PM 3.08 37.544 0.374 7.7 3.44 13.99
2/4/2021 6:15:00 PM 2.63 36.734 0.326 6.65 2.97 12.04
2/4/2021 6:30:00 PM 2.94 37.292 0.368 7.51 3.38 13.45
2/4/2021 6:45:00 PM 2.95 37.31 0.374 7.61 3.93 13.66
2/4/2021 7:00:00 PM 2.92 37.256 0.374 7.62 3.63 13.64
2/4/2021 7:15:00 PM 2.88 37.184 0.375 7.61 3.86 13.64
2/4/2021 7:30:00 PM 2.84 37.112 0.375 7.6 4.56 13.58
2/4/2021 7:45:00 PM 2.8 37.04 0.375 7.59 4.77 13.52
2/4/2021 8:00:00 PM 2.75 36.95 0.375 7.59 5.58 13.49
2/4/2021 8:15:00 PM 2.7 36.86 0.375 7.58 5.72 13.46
2/4/2021 8:30:00 PM 2.66 36.788 0.376 7.58 4.94 13.36
2/4/2021 8:45:00 PM 2.62 36.716 0.376 7.57 5.79 13.38
2/4/2021 9:00:00 PM 2.6 36.68 0.377 7.56 5.56 13.38
2/4/2021 9:15:00 PM 2.22 35.996 0.329 6.55 4.29 11.54
2/4/2021 9:30:00 PM 2.49 36.482 0.371 7.41 4.75 12.96
2/4/2021 9:45:00 PM 2.51 36.518 0.377 7.52 6.14 13.21
2/4/2021 10:00:00 PM 2.5 36.5 0.379 7.53 6.78 13.14
2/4/2021 10:15:00 PM 2.49 36.482 0.379 7.53 6.85 13.19
2/4/2021 10:30:00 PM 2.48 36.464 0.38 7.52 5.45 13.17
2/4/2021 10:45:00 PM 2.15 35.87 0.331 6.52 3.75 11.36
2/4/2021 11:00:00 PM 2.14 35.852 0.33 6.51 3.24 11.34
2/4/2021 11:15:00 PM 2.14 35.852 0.331 6.5 3.45 11.4
2/4/2021 11:30:00 PM 2.14 35.852 0.331 6.5 3.4 11.32
2/4/2021 11:45:00 PM 2.43 36.374 0.374 7.37 3.81 12.78
2/5/2021 12:00:00 AM 2.49 36.482 0.38 7.48 3.88 12.99
2/5/2021 12:15:00 AM 2.51 36.518 0.382 7.49 3.95 12.96
2/5/2021 12:30:00 AM 2.54 36.572 0.382 7.49 3.86 12.87
2/5/2021 12:45:00 AM 2.56 36.608 0.382 7.49 3.94 12.85
2/5/2021 1:00:00 AM 2.57 36.626 0.383 7.49 3.88 12.88
2/5/2021 1:15:00 AM 2.58 36.644 0.383 7.49 3.9 12.89
2/5/2021 1:30:00 AM 2.25 36.05 0.333 6.49 3.35 11.17
2/5/2021 1:45:00 AM 2.55 36.59 0.376 7.34 3.98 12.6
2/5/2021 2:00:00 AM 2.59 36.662 0.382 7.46 4.04 12.73
2/5/2021 2:15:00 AM 2.6 36.68 0.383 7.47 4 12.79
2/5/2021 2:30:00 AM 2.61 36.698 0.384 7.48 3.97 12.79
2/5/2021 2:45:00 AM 2.62 36.716 0.383 7.47 4.13 12.79
2/5/2021 3:00:00 AM 2.63 36.734 0.384 7.47 4.42 12.78
2/5/2021 3:15:00 AM 2.65 36.77 0.384 7.47 4.4 12.66
2/5/2021 3:30:00 AM 2.65 36.77 0.384 7.46 4.15 12.74
2/5/2021 3:45:00 AM 2.67 36.806 0.385 7.46 4.39 12.74
2/5/2021 4:00:00 AM 2.32 36.176 0.335 6.47 3.4 11.05
2/5/2021 4:15:00 AM 2.65 36.77 0.379 7.33 3.85 12.46
2/5/2021 4:30:00 AM 2.33 36.194 0.335 6.46 4.05 11.02
2/5/2021 4:45:00 AM 2.64 36.752 0.379 7.33 4.36 12.46
2/5/2021 5:00:00 AM 2.67 36.806 0.385 7.44 4.16 12.64
2/5/2021 5:15:00 AM 2.31 36.158 0.336 6.47 3.83 10.97
2/5/2021 5:30:00 AM 2.6 36.68 0.379 7.32 4.71 12.44
2/5/2021 5:45:00 AM 2.64 36.752 0.385 7.44 5.21 12.52
2/5/2021 6:00:00 AM 2.57 36.626 0.385 7.45 4.5 12.58
2/5/2021 6:15:00 AM 2.55 36.59 0.385 7.45 3.9 12.61
2/5/2021 6:30:00 AM 2.55 36.59 0.385 7.45 3.92 12.61
2/5/2021 6:45:00 AM 2.22 35.996 0.335 6.46 3.67 10.95
2/5/2021 7:00:00 AM 2.55 36.59 0.378 7.31 163.98 12.3
2/5/2021 7:15:00 AM 2.63 36.734 0.384 7.43 29.94 12.56
2/5/2021 7:30:00 AM 2.66 36.788 0.385 7.45 7.87 12.6
2/5/2021 7:45:00 AM 2.69 36.842 0.385 7.46 4.87 12.65
2/5/2021 8:00:00 AM 2.71 36.878 0.385 7.47 3.81 12.8
2/5/2021 8:15:00 AM 2.39 36.302 0.335 6.49 3.11 11.34
2/5/2021 8:30:00 AM 2.73 36.914 0.379 7.38 3.55 12.98
2/5/2021 8:45:00 AM 2.43 36.374 0.336 6.55 3.12 11.73
2/5/2021 9:00:00 AM 2.79 37.022 0.382 7.45 3.65 13.5
2/5/2021 9:15:00 AM 2.5 36.5 0.34 6.6 3.12 12.19
2/5/2021 9:30:00 AM 2.9 37.22 0.383 7.51 3.68 13.96
2/5/2021 9:45:00 AM 3.02 37.436 0.387 7.67 3.83 14.44
2/5/2021 10:00:00 AM 2.72 36.896 0.335 6.7 3.25 12.67
2/5/2021 10:15:00 AM 3.18 37.724 0.377 7.62 3.62 14.54
2/5/2021 10:30:00 AM 3.36 38.048 0.381 7.77 3.58 14.75
2/5/2021 10:45:00 AM 3.52 38.336 0.381 7.82 3.56 14.94
2/5/2021 11:00:00 AM 3.63 38.534 0.38 7.84 3.82 15.02
2/5/2021 11:15:00 AM 3.28 37.904 0.33 6.83 3.15 13.14
2/5/2021 11:30:00 AM 3.75 38.75 0.372 7.74 3.53 14.92
2/5/2021 11:45:00 AM 3.92 39.056 0.378 7.89 3.65 15.29
2/5/2021 12:00:00 PM 4.01 39.218 0.378 7.94 3.62 15.41
2/5/2021 12:15:00 PM 4.13 39.434 0.378 7.97 3.44 15.43
2/5/2021 12:30:00 PM 4.26 39.668 0.378 7.99 3.52 15.5
2/5/2021 12:45:00 PM 4.35 39.83 0.377 8.01 3.52 15.42
2/5/2021 1:00:00 PM 4.48 40.064 0.377 8.04 3.63 15.63
2/5/2021 1:15:00 PM 4.56 40.208 0.376 8.06 3.4 15.73
2/5/2021 1:30:00 PM 4.65 40.37 0.376 8.07 3.64 15.79
2/5/2021 1:45:00 PM 4.73 40.514 0.376 8.09 3.82 15.67
2/5/2021 2:00:00 PM 4.82 40.676 0.376 8.11 3.52 15.84
2/5/2021 2:15:00 PM 4.86 40.748 0.376 8.12 3.56 15.77
2/5/2021 2:30:00 PM 4.89 40.802 0.375 8.13 3.46 15.81
2/5/2021 2:45:00 PM 4.88 40.784 0.376 8.13 3.49 15.82
2/5/2021 3:00:00 PM 4.86 40.748 0.376 8.13 3.7 15.75
2/5/2021 3:15:00 PM 4.86 40.748 0.376 8.14 3.64 15.78
2/5/2021 3:30:00 PM 4.86 40.748 0.376 8.13 3.48 15.69
2/5/2021 3:45:00 PM 4.89 40.802 0.376 8.14 3.54 15.58
2/5/2021 4:00:00 PM 4.9 40.82 0.377 8.13 3.65 15.49
2/5/2021 4:15:00 PM 4.9 40.82 0.377 8.11 3.56 15.42
2/5/2021 4:30:00 PM 4.88 40.784 0.378 8.08 3.58 15.27
2/5/2021 4:45:00 PM 4.85 40.73 0.378 8.03 3.65 15.01
2/5/2021 5:00:00 PM 4.8 40.64 0.379 7.98 3.76 14.8
2/5/2021 5:15:00 PM 4.75 40.55 0.379 7.93 3.86 14.5
2/5/2021 5:30:00 PM 4.69 40.442 0.379 7.88 3.77 14.29
2/5/2021 5:45:00 PM 4.64 40.352 0.38 7.83 3.77 14.03
2/5/2021 6:00:00 PM 4.58 40.244 0.38 7.78 3.8 13.79
2/5/2021 6:15:00 PM 4.54 40.172 0.38 7.75 3.95 13.66
2/5/2021 6:30:00 PM 4.51 40.118 0.38 7.72 4.01 13.5
2/5/2021 6:45:00 PM 4.49 40.082 0.38 7.7 4.02 13.34
2/5/2021 7:00:00 PM 4.47 40.046 0.38 7.69 4.07 13.25
2/5/2021 7:15:00 PM 4.45 40.01 0.379 7.68 4.52 13.18
2/5/2021 7:30:00 PM 4.43 39.974 0.379 7.67 4.77 13.14
2/5/2021 7:45:00 PM 4.4 39.92 0.379 7.66 4.91 13.04
2/5/2021 8:00:00 PM 4.37 39.866 0.379 7.65 5.39 13.02
2/5/2021 8:15:00 PM 4.32 39.776 0.379 7.65 5.95 13.01
2/5/2021 8:30:00 PM 4.27 39.686 0.379 7.64 6.34 12.92
2/5/2021 8:45:00 PM 4.21 39.578 0.379 7.63 6.09 12.94
2/5/2021 9:00:00 PM 4.15 39.47 0.379 7.62 6.1 12.91
2/5/2021 9:15:00 PM 4.09 39.362 0.379 7.61 5.54 12.87
2/5/2021 9:30:00 PM 4.02 39.236 0.378 7.6 5.06 12.82
2/5/2021 9:45:00 PM 3.43 38.174 0.329 6.58 4.09 11.07
2/5/2021 10:00:00 PM 3.83 38.894 0.372 7.44 5.21 12.51
2/5/2021 10:15:00 PM 3.83 38.894 0.378 7.55 5.18 12.67
2/5/2021 10:30:00 PM 3.79 38.822 0.378 7.56 5.24 12.67
2/5/2021 10:45:00 PM 3.75 38.75 0.379 7.55 5.12 12.67
2/5/2021 11:00:00 PM 3.72 38.696 0.379 7.55 5.27 12.62
2/5/2021 11:15:00 PM 3.7 38.66 0.379 7.54 5.32 12.58
2/5/2021 11:30:00 PM 3.67 38.606 0.38 7.53 5.07 12.6
2/5/2021 11:45:00 PM 3.64 38.552 0.38 7.53 5.08 12.58
2/6/2021 12:00:00 AM 3.6 38.48 0.38 7.52 5.28 12.56
2/6/2021 12:15:00 AM 3.56 38.408 0.381 7.51 5.4 12.56
2/6/2021 12:30:00 AM 3.51 38.318 0.381 7.51 5.15 12.53
2/6/2021 12:45:00 AM 3.45 38.21 0.382 7.5 4.77 12.54
2/6/2021 1:00:00 AM 3.39 38.102 0.382 7.5 5.06 12.47
2/6/2021 1:15:00 AM 3.33 37.994 0.383 7.5 5.19 12.52
2/6/2021 1:30:00 AM 3.27 37.886 0.383 7.5 5.28 12.51
2/6/2021 1:45:00 AM 3.23 37.814 0.381 7.49 5.4 12.52
2/6/2021 2:00:00 AM 3.18 37.724 0.378 7.49 5.59 12.44
2/6/2021 2:15:00 AM 3.15 37.67 0.383 7.49 31.03 12.42
2/6/2021 2:30:00 AM 3.11 37.598 0.384 7.49 10.08 12.51
2/6/2021 2:45:00 AM 3.06 37.508 0.384 7.48 7.18 12.53
2/6/2021 3:00:00 AM 3.02 37.436 0.384 7.48 5.97 12.52
2/6/2021 3:15:00 AM 2.98 37.364 0.385 7.48 6 12.5
2/6/2021 3:30:00 AM 2.94 37.292 0.385 7.48 5.84 12.5
2/6/2021 3:45:00 AM 2.89 37.202 0.385 7.48 6.5 12.5
2/6/2021 4:00:00 AM 2.84 37.112 0.385 7.47 6.13 12.44
2/6/2021 4:15:00 AM 2.8 37.04 0.384 7.47 5.91 12.52
2/6/2021 4:30:00 AM 2.38 36.284 0.334 6.47 5.17 10.85
2/6/2021 4:45:00 AM 2.67 36.806 0.378 7.33 5.54 12.31
2/6/2021 5:00:00 AM 2.66 36.788 0.384 7.44 5.47 12.41
2/6/2021 5:15:00 AM 2.63 36.734 0.384 7.46 5.52 12.53
2/6/2021 5:30:00 AM 2.25 36.05 0.334 6.47 4.44 10.91
2/6/2021 5:45:00 AM 2.21 35.978 0.335 6.46 4.39 10.9
2/6/2021 6:00:00 AM 2.47 36.446 0.378 7.32 5.17 12.35
2/6/2021 6:15:00 AM 2.46 36.428 0.384 7.44 5.33 12.5
2/6/2021 6:30:00 AM 2.41 36.338 0.386 7.45 5.5 12.6
2/6/2021 6:45:00 AM 2.35 36.23 0.386 7.45 5.56 12.54
2/6/2021 7:00:00 AM 2.3 36.14 0.386 7.45 5.84 12.65
2/6/2021 7:15:00 AM 2.25 36.05 0.386 7.45 5.8 12.68
2/6/2021 7:30:00 AM 1.9 35.42 0.336 6.46 6.19 11.08
2/6/2021 7:45:00 AM 2.12 35.816 0.38 7.33 6.24 12.64
2/6/2021 8:00:00 AM 2.13 35.834 0.386 7.46 5.72 13
2/6/2021 8:15:00 AM 2.12 35.816 0.386 7.49 5.96 13.26
2/6/2021 8:30:00 AM 1.86 35.348 0.336 6.52 4.52 11.72
2/6/2021 8:45:00 AM 2.13 35.834 0.379 7.42 5.4 13.39
2/6/2021 9:00:00 AM 1.94 35.492 0.336 6.57 4.91 12.19
2/6/2021 9:15:00 AM 2.28 36.104 0.38 7.48 5.43 13.97
2/6/2021 9:30:00 AM 2.42 36.356 0.386 7.63 5.08 14.33
2/6/2021 9:45:00 AM 2.56 36.608 0.386 7.69 5.11 14.58
2/6/2021 10:00:00 AM 2.69 36.842 0.386 7.72 5.82 14.73
2/6/2021 10:15:00 AM 2.47 36.446 0.336 6.72 5.24 12.87
2/6/2021 10:30:00 AM 2.9 37.22 0.379 7.63 6.04 14.7
2/6/2021 10:45:00 AM 2.72 36.896 0.335 6.77 4.97 13.18
2/6/2021 11:00:00 AM 2.85 37.13 0.335 6.79 4.8 13.16
2/6/2021 11:15:00 AM 3.02 37.436 0.335 6.82 4.97 13.29
2/6/2021 11:30:00 AM 3.6 38.48 0.377 7.74 6.14 15.13
2/6/2021 11:45:00 AM 3.81 38.858 0.382 7.89 6.13 15.5
2/6/2021 12:00:00 PM 4.01 39.218 0.381 7.94 6.03 15.59
2/6/2021 12:15:00 PM 4.18 39.524 0.38 7.97 6.56 15.52
2/6/2021 12:30:00 PM 4.35 39.83 0.379 8.01 5.52 15.78
2/6/2021 12:45:00 PM 4.5 40.1 0.378 8.04 5.54 15.87
2/6/2021 1:00:00 PM 4.49 40.082 0.378 8.04 5.67 15.88
2/6/2021 1:15:00 PM 3.87 38.966 0.329 6.98 4.8 13.77
2/6/2021 1:30:00 PM 4.27 39.686 0.371 7.91 5.48 15.38
2/6/2021 1:45:00 PM 4.24 39.632 0.377 8.04 5.33 15.73
2/6/2021 2:00:00 PM 4.21 39.578 0.378 8.07 5.19 15.79
2/6/2021 2:15:00 PM 4.2 39.56 0.379 8.08 4.91 15.77
2/6/2021 2:30:00 PM 4.2 39.56 0.379 8.09 4.74 15.78
2/6/2021 2:45:00 PM 4.2 39.56 0.379 8.09 4.51 15.79
2/6/2021 3:00:00 PM 4.23 39.614 0.379 8.09 4.29 15.75
2/6/2021 3:15:00 PM 4.28 39.704 0.379 8.1 4.26 15.72
2/6/2021 3:30:00 PM 4.33 39.794 0.38 8.1 4.21 15.77
2/6/2021 3:45:00 PM 4.35 39.83 0.38 8.09 4.18 15.64
2/6/2021 4:00:00 PM 4.36 39.848 0.38 8.09 4.41 15.6
2/6/2021 4:15:00 PM 4.37 39.866 0.38 8.08 4.32 15.4
2/6/2021 4:30:00 PM 4.36 39.848 0.381 8.07 4.45 15.44
2/6/2021 4:45:00 PM 4.34 39.812 0.381 8.05 4.4 15.39
2/6/2021 5:00:00 PM 4.3 39.74 0.382 8.01 4.32 15.25
2/6/2021 5:15:00 PM 4.26 39.668 0.383 7.96 4.31 14.95
2/6/2021 5:30:00 PM 4.23 39.614 0.383 7.9 4.34 14.66
2/6/2021 5:45:00 PM 4.19 39.542 0.384 7.84 4.18 14.38
2/6/2021 6:00:00 PM 4.15 39.47 0.385 7.79 4.26 14.12
2/6/2021 6:15:00 PM 4.11 39.398 0.386 7.75 4.53 13.93
2/6/2021 6:30:00 PM 4.07 39.326 0.386 7.72 4.36 13.8
2/6/2021 6:45:00 PM 4.02 39.236 0.387 7.69 4.39 13.68
2/6/2021 7:00:00 PM 3.98 39.164 0.387 7.67 4.29 13.58
2/6/2021 7:15:00 PM 3.94 39.092 0.388 7.66 4.22 13.54
2/6/2021 7:30:00 PM 3.89 39.002 0.389 7.65 4.57 13.49
2/6/2021 7:45:00 PM 3.85 38.93 0.389 7.64 4.76 13.43
2/6/2021 8:00:00 PM 3.81 38.858 0.39 7.64 5.12 13.41
2/6/2021 8:15:00 PM 3.76 38.768 0.39 7.63 4.83 13.26
2/6/2021 8:30:00 PM 3.73 38.714 0.39 7.62 4.85 13.32
2/6/2021 8:45:00 PM 3.69 38.642 0.391 7.61 5.27 13.29
2/6/2021 9:00:00 PM 3.66 38.588 0.391 7.6 4.94 13.23
2/6/2021 9:15:00 PM 3.63 38.534 0.392 7.59 4.77 13.12
2/6/2021 9:30:00 PM 3.59 38.462 0.392 7.59 5.43 13.15
2/6/2021 9:45:00 PM 3.55 38.39 0.393 7.57 4.88 13.12
2/6/2021 10:00:00 PM 3.51 38.318 0.393 7.56 4.38 13.05
2/6/2021 10:15:00 PM 3.47 38.246 0.393 7.56 4.36 13.05
2/6/2021 10:30:00 PM 3.43 38.174 0.393 7.55 4.76 12.89
2/6/2021 10:45:00 PM 3.4 38.12 0.394 7.54 4.62 12.84
2/6/2021 11:00:00 PM 3.36 38.048 0.394 7.53 5.02 12.89
2/6/2021 11:15:00 PM 3.32 37.976 0.395 7.52 4.91 12.77
2/6/2021 11:30:00 PM 3.29 37.922 0.395 7.52 5.04 12.77
2/6/2021 11:45:00 PM 2.82 37.076 0.344 6.51 3.82 11.11
2/7/2021 12:00:00 AM 3.17 37.706 0.389 7.37 4.95 12.58
2/7/2021 12:15:00 AM 3.2 37.76 0.395 7.48 4.45 12.77
2/7/2021 12:30:00 AM 2.76 36.968 0.344 6.49 3.8 11.09
2/7/2021 12:45:00 AM 3.1 37.58 0.389 7.35 4.64 12.57
2/7/2021 1:00:00 AM 3.13 37.634 0.396 7.46 4.73 12.59
2/7/2021 1:15:00 AM 3.11 37.598 0.397 7.48 4.22 12.73
2/7/2021 1:30:00 AM 3.09 37.562 0.397 7.48 4.14 12.72
2/7/2021 1:45:00 AM 2.67 36.806 0.345 6.48 3.47 11.07
2/7/2021 2:00:00 AM 2.65 36.77 0.346 6.48 3.43 10.97
2/7/2021 2:15:00 AM 2.99 37.382 0.391 7.34 3.98 12.43
2/7/2021 2:30:00 AM 3.03 37.454 0.397 7.45 4.56 12.64
2/7/2021 2:45:00 AM 3.03 37.454 0.398 7.46 4.59 12.63
2/7/2021 3:00:00 AM 3.02 37.436 0.398 7.46 4.39 12.65
2/7/2021 3:15:00 AM 3.02 37.436 0.398 7.46 4.14 12.59
2/7/2021 3:30:00 AM 3.02 37.436 0.398 7.45 4.17 12.52
2/7/2021 3:45:00 AM 3.02 37.436 0.399 7.46 4.16 12.63
2/7/2021 4:00:00 AM 3.02 37.436 0.399 7.46 4.12 12.63
2/7/2021 4:15:00 AM 3.03 37.454 0.399 7.46 4.13 12.57
2/7/2021 4:30:00 AM 3.04 37.472 0.399 7.45 4.12 12.5
2/7/2021 4:45:00 AM 3.04 37.472 0.399 7.45 4.12 12.58
2/7/2021 5:00:00 AM 2.64 36.752 0.347 6.46 3.91 10.89
2/7/2021 5:15:00 AM 2.99 37.382 0.392 7.31 4.66 12.32
2/7/2021 5:30:00 AM 3.04 37.472 0.398 7.43 4.72 12.47
2/7/2021 5:45:00 AM 3.04 37.472 0.4 7.44 4.33 12.48
2/7/2021 6:00:00 AM 2.6 36.68 0.348 6.45 3.49 10.92
2/7/2021 6:15:00 AM 2.9 37.22 0.393 7.31 3.93 12.34
2/7/2021 6:30:00 AM 2.9 37.22 0.399 7.42 4.02 12.52
2/7/2021 6:45:00 AM 2.87 37.166 0.4 7.44 4.39 12.56
2/7/2021 7:00:00 AM 2.44 36.392 0.348 6.45 4.29 10.87
2/7/2021 7:15:00 AM 2.7 36.86 0.393 7.31 5.12 12.25
2/7/2021 7:30:00 AM 2.64 36.752 0.399 7.42 5.82 12.55
2/7/2021 7:45:00 AM 2.54 36.572 0.399 7.45 5.1 12.55
2/7/2021 8:00:00 AM 2.48 36.464 0.399 7.46 4.94 12.72
2/7/2021 8:15:00 AM 2.1 35.78 0.347 6.48 3.99 11.19
2/7/2021 8:30:00 AM 2.12 35.816 0.347 6.51 3.9 11.4
2/7/2021 8:45:00 AM 2.42 36.356 0.392 7.38 4.49 13.04
2/7/2021 9:00:00 AM 2.46 36.428 0.398 7.52 4.71 13.44
2/7/2021 9:15:00 AM 2.49 36.482 0.399 7.57 4.35 13.72
2/7/2021 9:30:00 AM 2.57 36.626 0.399 7.62 4.61 14.13
2/7/2021 9:45:00 AM 2.32 36.176 0.347 6.65 3.97 12.52
2/7/2021 10:00:00 AM 2.72 36.896 0.391 7.57 4.72 14.38
2/7/2021 10:15:00 AM 2.85 37.13 0.397 7.71 5.24 14.7
2/7/2021 10:30:00 AM 2.91 37.238 0.398 7.75 4.74 14.66
2/7/2021 10:45:00 AM 2.93 37.274 0.398 7.76 4.47 14.83
2/7/2021 11:00:00 AM 2.92 37.256 0.399 7.77 4.57 14.83
2/7/2021 11:15:00 AM 2.92 37.256 0.4 7.79 4.38 15.02
2/7/2021 11:30:00 AM 2.94 37.292 0.4 7.82 4.32 15.07
2/7/2021 11:45:00 AM 2.97 37.346 0.403 7.85 4.07 15.21
2/7/2021 12:00:00 PM 3.03 37.454 0.407 7.87 4.02 15.22
2/7/2021 12:15:00 PM 2.7 36.86 0.358 6.86 3.39 13.46
2/7/2021 12:30:00 PM 3.13 37.634 0.407 7.8 4.25 15.39
2/7/2021 12:45:00 PM 3.27 37.886 0.412 7.95 4.41 15.74
2/7/2021 1:00:00 PM 3.39 38.102 0.409 8 4.5 15.83
2/7/2021 1:15:00 PM 3 37.4 0.352 6.96 3.53 13.81
2/7/2021 1:30:00 PM 3.44 38.192 0.396 7.9 4.6 15.45
2/7/2021 1:45:00 PM 3.54 38.372 0.4 8.04 4.61 15.93
2/7/2021 2:00:00 PM 3.59 38.462 0.399 8.08 4.66 15.92
2/7/2021 2:15:00 PM 3.64 38.552 0.397 8.1 4.36 16.05
2/7/2021 2:30:00 PM 3.66 38.588 0.396 8.1 4.57 16.03
2/7/2021 2:45:00 PM 3.17 37.706 0.344 7.02 3.94 13.82
2/7/2021 3:00:00 PM 3.59 38.462 0.388 7.96 4.91 15.51
2/7/2021 3:15:00 PM 3.69 38.642 0.393 8.1 4.9 15.81
2/7/2021 3:30:00 PM 3.74 38.732 0.394 8.13 4.69 16
2/7/2021 3:45:00 PM 3.81 38.858 0.393 8.15 4.65 16.05
2/7/2021 4:00:00 PM 3.81 38.858 0.393 8.14 4.53 15.97
2/7/2021 4:15:00 PM 3.29 37.922 0.342 7.04 3.95 13.72
2/7/2021 4:30:00 PM 3.7 38.66 0.387 7.95 3.95 15.42
2/7/2021 4:45:00 PM 3.74 38.732 0.393 8.06 3.75 15.56
2/7/2021 5:00:00 PM 3.69 38.642 0.394 8.04 3.75 15.27
2/7/2021 5:15:00 PM 3.63 38.534 0.395 7.99 2.83 15.11
2/7/2021 5:30:00 PM 3.57 38.426 0.396 7.93 2.99 14.72
2/7/2021 5:45:00 PM 3.51 38.318 0.397 7.88 3 14.59
2/7/2021 6:00:00 PM 3.46 38.228 0.397 7.83 3.2 14.23
2/7/2021 6:15:00 PM 3.4 38.12 0.398 7.79 2.54 14.12
2/7/2021 6:30:00 PM 3.36 38.048 0.399 7.75 2.57 13.94
2/7/2021 6:45:00 PM 3.32 37.976 0.399 7.73 2.28 13.92
2/7/2021 7:00:00 PM 3.29 37.922 0.4 7.71 2.27 13.73
2/7/2021 7:15:00 PM 3.26 37.868 0.4 7.7 2.82 13.71
2/7/2021 7:30:00 PM 3.22 37.796 0.4 7.69 3.1 13.66
2/7/2021 7:45:00 PM 3.18 37.724 0.401 7.68 3.42 13.61
2/7/2021 8:00:00 PM 3.13 37.634 0.402 7.68 3.45 13.51
2/7/2021 8:15:00 PM 2.67 36.806 0.35 6.65 2.64 11.75
2/7/2021 8:30:00 PM 2.61 36.698 0.35 6.63 2.62 11.75
2/7/2021 8:45:00 PM 2.91 37.238 0.396 7.51 3.03 13.2
2/7/2021 9:00:00 PM 2.52 36.536 0.352 6.63 2.58 11.66
2/7/2021 9:15:00 PM 2.81 37.058 0.398 7.49 2.9 13.12
2/7/2021 9:30:00 PM 2.8 37.04 0.405 7.6 3 13.24
2/7/2021 9:45:00 PM 2.76 36.968 0.406 7.6 2.95 13.29
2/7/2021 10:00:00 PM 2.7 36.86 0.407 7.59 3.17 13.29
2/7/2021 10:15:00 PM 2.64 36.752 0.408 7.58 3.88 13.25
2/7/2021 10:30:00 PM 2.24 36.032 0.356 6.57 3.18 11.48
2/7/2021 10:45:00 PM 2.49 36.482 0.403 7.43 3.48 12.97
2/7/2021 11:00:00 PM 2.15 35.87 0.358 6.55 2.54 11.41
2/7/2021 11:15:00 PM 2.11 35.798 0.359 6.55 2.57 11.41
2/7/2021 11:30:00 PM 2.35 36.23 0.406 7.41 3.02 12.9
2/7/2021 11:45:00 PM 2.33 36.194 0.413 7.51 3.08 13
2/8/2021 12:00:00 AM 2.28 36.104 0.414 7.52 3.3 13.09
2/8/2021 12:15:00 AM 2.23 36.014 0.416 7.52 3.14 13.07
2/8/2021 12:30:00 AM 2.17 35.906 0.417 7.51 2.98 13.07
2/8/2021 12:45:00 AM 2.11 35.798 0.418 7.51 2.82 13
2/8/2021 1:00:00 AM 2.06 35.708 0.419 7.5 2.82 13.07
2/8/2021 1:15:00 AM 2.01 35.618 0.42 7.5 2.98 13.06
2/8/2021 1:30:00 AM 1.98 35.564 0.421 7.5 3.05 13.07
2/8/2021 1:45:00 AM 1.95 35.51 0.422 7.49 2.79 13.07
2/8/2021 2:00:00 AM 1.91 35.438 0.423 7.49 2.75 13.08
2/8/2021 2:15:00 AM 1.87 35.366 0.425 7.49 2.71 13.06
2/8/2021 2:30:00 AM 1.59 34.862 0.371 6.49 2.19 11.32
2/8/2021 2:45:00 AM 1.55 34.79 0.372 6.49 2.26 11.34
2/8/2021 3:00:00 AM 1.72 35.096 0.424 7.37 2.29 11.28
2/8/2021 3:15:00 AM 1.7 35.06 0.429 7.46 2.53 12.88
2/8/2021 3:30:00 AM 1.43 34.574 0.377 6.51 2.16 11.46
2/8/2021 3:45:00 AM 1.58 34.844 0.425 7.34 2.53 12.92
2/8/2021 4:00:00 AM 1.56 34.808 0.433 7.45 2.59 13
2/8/2021 4:15:00 AM 1.52 34.736 0.435 7.46 2.71 13.06
2/8/2021 4:30:00 AM 1.49 34.682 0.436 7.47 2.86 13.16
2/8/2021 4:45:00 AM 1.46 34.628 0.437 7.46 2.88 13.16
2/8/2021 5:00:00 AM 1.42 34.556 0.438 7.46 2.84 13.05
2/8/2021 5:15:00 AM 1.41 34.538 0.439 7.46 2.65 13.15
2/8/2021 5:30:00 AM 1.2 34.16 0.383 6.46 2.07 11.38
2/8/2021 5:45:00 AM 1.35 34.43 0.434 7.32 2.43 12.93
2/8/2021 6:00:00 AM 1.19 34.142 0.385 6.47 2.09 11.41
2/8/2021 6:15:00 AM 1.34 34.412 0.436 7.32 2.42 12.91
2/8/2021 6:30:00 AM 1.36 34.448 0.444 7.43 2.48 13.15
2/8/2021 6:45:00 AM 1.36 34.448 0.445 7.44 2.53 13.04
2/8/2021 7:00:00 AM 1.36 34.448 0.447 7.44 2.63 13.05
2/8/2021 7:15:00 AM 1.34 34.412 0.448 7.44 2.46 13.16
2/8/2021 7:30:00 AM 1.31 34.358 0.448 7.45 3.54 13.26
2/8/2021 7:45:00 AM 1.11 33.998 0.39 6.47 3.15 11.57
2/8/2021 8:00:00 AM 1.24 34.232 0.441 7.34 4.59 13.25
2/8/2021 8:15:00 AM 1.13 34.034 0.391 6.51 5.82 12.16
2/8/2021 8:30:00 AM 1.28 34.304 0.443 7.41 5.64 13.97
2/8/2021 8:45:00 AM 1.34 34.412 0.449 7.56 4.82 14.53
2/8/2021 9:00:00 AM -99999.99 -179968 -99999.99 -99999.99 -99999.99 -99999.99
2/8/2021 9:30:00 AM 1.61 34.898 0.449 7.86 2.56 15.3
2/8/2021 9:45:00 AM 1.72 35.096 0.451 7.79 2.6 15.58
2/8/2021 10:00:00 AM 1.86 35.348 0.452 7.8 3.3 15.64
2/8/2021 10:15:00 AM 2.05 35.69 0.454 7.83 2.61 15.87
2/8/2021 10:30:00 AM 2.23 36.014 0.454 7.85 2.31 15.79
2/8/2021 10:45:00 AM 2.42 36.356 0.455 7.88 2.48 16.02
2/8/2021 11:00:00 AM 2.52 36.536 0.437 7.57 2.69 15.45
2/8/2021 11:15:00 AM 2.78 37.004 0.453 7.86 2.87 16.15
2/8/2021 11:30:00 AM 2.99 37.382 0.456 7.92 2.9 16.17
2/8/2021 11:45:00 AM 2.77 36.986 0.398 6.88 2.28 14.13
2/8/2021 12:00:00 PM 3.29 37.922 0.45 7.8 2.58 15.92
2/8/2021 12:15:00 PM 3.51 38.318 0.457 7.92 2.49 15.98
2/8/2021 12:30:00 PM 3.66 38.588 0.458 7.94 2.43 16.2
2/8/2021 12:45:00 PM 3.76 38.768 0.458 7.94 2.47 16.26
2/8/2021 1:00:00 PM 3.33 37.994 0.397 6.89 2.19 14.02
2/8/2021 1:15:00 PM 3.77 38.786 0.447 7.8 2.71 16
2/8/2021 1:30:00 PM 3.75 38.75 0.45 7.93 2.94 16.23
2/8/2021 1:45:00 PM 3.64 38.552 0.447 7.96 3.22 16.12
2/8/2021 2:00:00 PM 3.49 38.282 0.443 7.98 3.2 16.26
2/8/2021 2:15:00 PM 3.34 38.012 0.439 8.01 3.21 16.31
2/8/2021 2:30:00 PM 3.21 37.778 0.437 8.03 3.03 16.35
2/8/2021 2:45:00 PM 3.1 37.58 0.435 8.05 2.9 16.29
2/8/2021 3:00:00 PM -99999.99 -179968 -99999.99 -99999.99 -99999.99 -99999.99
2/8/2021 3:15:00 PM 2.97 37.346 0.434 8.08 3.09 16.26
2/8/2021 3:30:00 PM 2.55 36.59 0.378 7.02 2.4 14.04
2/8/2021 3:45:00 PM 2.89 37.202 0.427 7.94 2.66 15.84
2/8/2021 4:00:00 PM 2.93 37.274 0.434 8.07 2.63 16.02
2/8/2021 4:15:00 PM 2.92 37.256 0.435 8.06 2.72 15.89
2/8/2021 4:30:00 PM 2.9 37.22 0.435 8.05 2.72 15.83
2/8/2021 4:45:00 PM 2.76 36.968 0.42 7.72 2.37 15.12
2/8/2021 5:00:00 PM 2.81 37.058 0.434 7.95 2.61 15.43
2/8/2021 5:15:00 PM 2.78 37.004 0.436 7.94 2.59 15.42
2/8/2021 5:30:00 PM 2.74 36.932 0.436 7.9 2.56 15.15
2/8/2021 5:45:00 PM 2.69 36.842 0.437 7.84 2.66 14.94
2/8/2021 6:00:00 PM 2.29 36.122 0.38 6.75 2.2 12.72
2/8/2021 6:15:00 PM 2.55 36.59 0.429 7.62 2.78 14.26
2/8/2021 6:30:00 PM 2.55 36.59 0.436 7.71 3.04 14.31
2/8/2021 6:45:00 PM 2.17 35.906 0.38 6.68 2.58 12.32
2/8/2021 7:00:00 PM 2.42 36.356 0.429 7.54 2.92 13.82
2/8/2021 7:15:00 PM 2.41 36.338 0.436 7.66 2.8 14.1
2/8/2021 7:30:00 PM 2.05 35.69 0.38 6.64 2.26 12.27
2/8/2021 7:45:00 PM 2.28 36.104 0.43 7.52 2.62 13.78
2/8/2021 8:00:00 PM 1.97 35.546 0.381 6.63 2.25 12.16
2/8/2021 8:15:00 PM 2.2 35.96 0.431 7.5 2.66 13.71
2/8/2021 8:30:00 PM 1.9 35.42 0.382 6.61 2.4 12.07
2/8/2021 8:45:00 PM 2.11 35.798 0.432 7.49 2.67 13.65
2/8/2021 9:00:00 PM 2.1 35.78 0.439 7.6 2.62 13.83
2/8/2021 9:15:00 PM 1.78 35.204 0.383 6.59 2.27 12
2/8/2021 9:30:00 PM 1.97 35.546 0.434 7.46 2.61 13.54
2/8/2021 9:45:00 PM 1.7 35.06 0.384 6.57 2.31 11.89
2/8/2021 10:00:00 PM 1.89 35.402 0.435 7.44 2.77 13.41
2/8/2021 10:15:00 PM 1.87 35.366 0.442 7.55 2.85 13.6
2/8/2021 10:30:00 PM 1.83 35.294 0.443 7.56 3 13.56
2/8/2021 10:45:00 PM 1.55 34.79 0.385 6.54 2.55 11.83
2/8/2021 11:00:00 PM 1.72 35.096 0.435 7.41 2.88 13.33
2/8/2021 11:15:00 PM 1.72 35.096 0.442 7.52 2.92 13.49
2/8/2021 11:30:00 PM 1.7 35.06 0.443 7.52 2.95 13.52
2/8/2021 11:45:00 PM 1.68 35.024 0.444 7.52 3.08 13.45
2/9/2021 12:00:00 AM 1.66 34.988 0.444 7.51 2.99 13.48
2/9/2021 12:15:00 AM 1.44 34.592 0.386 6.5 2.49 11.64
2/9/2021 12:30:00 AM 1.58 34.844 0.427 7.2 2.72 12.87
2/9/2021 12:45:00 AM 1.65 34.97 0.443 7.46 2.94 13.26
2/9/2021 1:00:00 AM 1.66 34.988 0.445 7.49 2.79 13.32
2/9/2021 1:15:00 AM 1.59 34.862 0.426 7.14 2.63 12.76
2/9/2021 1:30:00 AM 1.47 34.646 0.388 6.48 2.42 11.58
2/9/2021 1:45:00 AM 1.49 34.682 0.39 6.49 2.46 11.53
2/9/2021 2:00:00 AM 1.71 35.078 0.441 7.34 2.8 13
2/9/2021 2:15:00 AM 1.53 34.754 0.39 6.47 2.29 11.42
2/9/2021 2:30:00 AM 1.54 34.772 0.391 6.47 2.56 11.47
2/9/2021 2:45:00 AM 1.77 35.186 0.442 7.33 3.03 12.91
2/9/2021 3:00:00 AM 1.81 35.258 0.449 7.44 2.93 13.12
2/9/2021 3:15:00 AM 1.83 35.294 0.451 7.45 2.82 13.13
2/9/2021 3:30:00 AM 1.83 35.294 0.452 7.45 2.94 13.09
2/9/2021 3:45:00 AM 1.83 35.294 0.452 7.45 2.89 13.09
2/9/2021 4:00:00 AM 1.83 35.294 0.452 7.45 2.72 13.06
2/9/2021 4:15:00 AM 1.82 35.276 0.453 7.45 2.76 13.11
2/9/2021 4:30:00 AM 1.81 35.258 0.453 7.45 2.81 13.07
2/9/2021 4:45:00 AM 1.81 35.258 0.453 7.44 2.77 13.07
2/9/2021 5:00:00 AM 1.81 35.258 0.453 7.44 2.61 13.04
2/9/2021 5:15:00 AM 1.8 35.24 0.452 7.44 2.49 13.07
2/9/2021 5:30:00 AM 1.71 35.078 0.428 7.08 2.61 12.41
2/9/2021 5:45:00 AM 1.78 35.204 0.449 7.39 2.59 12.99
2/9/2021 6:00:00 AM 1.55 34.79 0.393 6.44 2.17 11.37
2/9/2021 6:15:00 AM 1.75 35.15 0.443 7.3 2.54 12.82
2/9/2021 6:30:00 AM 1.77 35.186 0.45 7.42 2.67 13.04
2/9/2021 6:45:00 AM 1.53 34.754 0.392 6.44 2.38 11.34
2/9/2021 7:00:00 AM 1.74 35.132 0.443 7.3 2.92 12.82
2/9/2021 7:15:00 AM 1.54 34.772 0.392 6.44 2.16 11.32
2/9/2021 7:30:00 AM 1.75 35.15 0.442 7.3 2.62 12.9
2/9/2021 7:45:00 AM 1.72 35.096 0.43 7.1 3.13 12.53
2/9/2021 8:00:00 AM 1.58 34.844 0.391 6.46 3.77 11.58
2/9/2021 8:15:00 AM 1.83 35.294 0.442 7.34 5.93 13.31
2/9/2021 8:30:00 AM 1.9 35.42 0.449 7.49 3.94 13.63
2/9/2021 8:45:00 AM 1.96 35.528 0.449 7.53 4.44 14.05
2/9/2021 9:00:00 AM 2.01 35.618 0.449 7.57 3.57 14.37
2/9/2021 9:15:00 AM 2.08 35.744 0.449 7.61 2.94 14.6
2/9/2021 9:30:00 AM 1.87 35.366 0.39 6.65 2.08 12.91
2/9/2021 9:45:00 AM 2.2 35.96 0.44 7.56 3.83 14.9
2/9/2021 10:00:00 AM 2.3 36.14 0.446 7.72 5.81 15.29
2/9/2021 10:15:00 AM 2.37 36.266 0.447 7.76 7.26 15.5
2/9/2021 10:30:00 AM 2.43 36.374 0.446 7.79 4.13 15.53
2/9/2021 10:45:00 AM 2.46 36.428 0.445 7.82 4.25 15.54
2/9/2021 11:00:00 AM 2.47 36.446 0.445 7.83 3.9 15.73
2/9/2021 11:15:00 AM 2.46 36.428 0.444 7.84 3.66 15.68
2/9/2021 11:30:00 AM 2.47 36.446 0.444 7.87 2.94 15.78
2/9/2021 11:45:00 AM 2.18 35.924 0.386 6.85 2.41 13.74
2/9/2021 12:00:00 PM 2.53 36.554 0.435 7.77 3.74 15.78
2/9/2021 12:15:00 PM 2.62 36.716 0.441 7.92 3.84 16.04
2/9/2021 12:30:00 PM 2.71 36.878 0.442 7.96 3.08 16.15
2/9/2021 12:45:00 PM 2.41 36.338 0.384 6.92 3.91 14.13
2/9/2021 1:00:00 PM 2.79 37.022 0.433 7.86 3.3 16
2/9/2021 1:15:00 PM 2.87 37.166 0.44 8.01 2.38 16.33
2/9/2021 1:30:00 PM 2.94 37.292 0.44 8.04 2.46 16.43
2/9/2021 1:45:00 PM -99999.99 -179968 -99999.99 -99999.99 -99999.99 -99999.99
2/9/2021 2:00:00 PM -99999.99 -179968 -99999.99 -99999.99 -99999.99 -99999.99
2/9/2021 2:15:00 PM -99999.99 -179968 -99999.99 -99999.99 -99999.99 -99999.99
2/9/2021 2:30:00 PM -99999.99 -179968 -99999.99 -99999.99 -99999.99 -99999.99
2/9/2021 2:45:00 PM -99999.99 -179968 -99999.99 -99999.99 -99999.99 -99999.99
2/9/2021 3:00:00 PM -99999.99 -179968 -99999.99 -99999.99 -99999.99 -99999.99
2/9/2021 3:15:00 PM -99999.99 -179968 -99999.99 -99999.99 -99999.99 -99999.99
2/9/2021 3:30:00 PM -99999.99 -179968 -99999.99 -99999.99 -99999.99 -99999.99
2/9/2021 3:45:00 PM -99999.99 -179968 -99999.99 -99999.99 -99999.99 -99999.99
2/9/2021 4:00:00 PM -99999.99 -179968 -99999.99 -99999.99 -99999.99 -99999.99
2/9/2021 4:15:00 PM -99999.99 -179968 -99999.99 -99999.99 -99999.99 -99999.99
2/9/2021 4:30:00 PM -99999.99 -179968 -99999.99 -99999.99 -99999.99 -99999.99
2/9/2021 4:45:00 PM -99999.99 -179968 -99999.99 -99999.99 -99999.99 -99999.99
2/9/2021 5:00:00 PM -99999.99 -179968 -99999.99 -99999.99 -99999.99 -99999.99
2/9/2021 5:15:00 PM -99999.99 -179968 -99999.99 -99999.99 -99999.99 -99999.99
2/9/2021 5:30:00 PM -99999.99 -179968 -99999.99 -99999.99 -99999.99 -99999.99
2/9/2021 5:45:00 PM -99999.99 -179968 -99999.99 -99999.99 -99999.99 -99999.99
2/9/2021 6:00:00 PM -99999.99 -179968 -99999.99 -99999.99 -99999.99 -99999.99
2/9/2021 6:15:00 PM -99999.99 -179968 -99999.99 -99999.99 -99999.99 -99999.99
2/9/2021 6:30:00 PM -99999.99 -179968 -99999.99 -99999.99 -99999.99 -99999.99
2/9/2021 6:45:00 PM -99999.99 -179968 -99999.99 -99999.99 -99999.99 -99999.99
2/9/2021 7:00:00 PM -99999.99 -179968 -99999.99 -99999.99 -99999.99 -99999.99
2/9/2021 7:15:00 PM -99999.99 -179968 -99999.99 -99999.99 -99999.99 -99999.99
2/9/2021 7:30:00 PM -99999.99 -179968 -99999.99 -99999.99 -99999.99 -99999.99
2/9/2021 7:45:00 PM -99999.99 -179968 -99999.99 -99999.99 -99999.99 -99999.99
2/9/2021 8:00:00 PM -99999.99 -179968 -99999.99 -99999.99 -99999.99 -99999.99
2/9/2021 8:15:00 PM -99999.99 -179968 -99999.99 -99999.99 -99999.99 -99999.99
2/9/2021 8:30:00 PM -99999.99 -179968 -99999.99 -99999.99 -99999.99 -99999.99
2/9/2021 8:45:00 PM -99999.99 -179968 -99999.99 -99999.99 -99999.99 -99999.99
2/9/2021 9:00:00 PM -99999.99 -179968 -99999.99 -99999.99 -99999.99 -99999.99
2/9/2021 9:15:00 PM -99999.99 -179968 -99999.99 -99999.99 -99999.99 -99999.99
2/9/2021 9:30:00 PM -99999.99 -179968 -99999.99 -99999.99 -99999.99 -99999.99
2/9/2021 9:45:00 PM -99999.99 -179968 -99999.99 -99999.99 -99999.99 -99999.99
2/9/2021 10:00:00 PM -99999.99 -179968 -99999.99 -99999.99 -99999.99 -99999.99
2/9/2021 10:15:00 PM -99999.99 -179968 -99999.99 -99999.99 -99999.99 -99999.99
2/9/2021 10:30:00 PM -99999.99 -179968 -99999.99 -99999.99 -99999.99 -99999.99
2/9/2021 10:45:00 PM -99999.99 -179968 -99999.99 -99999.99 -99999.99 -99999.99
2/9/2021 11:00:00 PM -99999.99 -179968 -99999.99 -99999.99 -99999.99 -99999.99
2/9/2021 11:15:00 PM -99999.99 -179968 -99999.99 -99999.99 -99999.99 -99999.99
2/9/2021 11:30:00 PM -99999.99 -179968 -99999.99 -99999.99 -99999.99 -99999.99
2/9/2021 11:45:00 PM -99999.99 -179968 -99999.99 -99999.99 -99999.99 -99999.99
2/10/2021 12:00:00 AM -99999.99 -179968 -99999.99 -99999.99 -99999.99 -99999.99
2/10/2021 12:15:00 AM -99999.99 -179968 -99999.99 -99999.99 -99999.99 -99999.99
2/10/2021 12:30:00 AM -99999.99 -179968 -99999.99 -99999.99 -99999.99 -99999.99
2/10/2021 12:45:00 AM -99999.99 -179968 -99999.99 -99999.99 -99999.99 -99999.99
2/10/2021 1:00:00 AM -99999.99 -179968 -99999.99 -99999.99 -99999.99 -99999.99
2/10/2021 1:15:00 AM -99999.99 -179968 -99999.99 -99999.99 -99999.99 -99999.99
2/10/2021 1:30:00 AM -99999.99 -179968 -99999.99 -99999.99 -99999.99 -99999.99
2/10/2021 1:45:00 AM -99999.99 -179968 -99999.99 -99999.99 -99999.99 -99999.99
2/10/2021 2:00:00 AM -99999.99 -179968 -99999.99 -99999.99 -99999.99 -99999.99
2/10/2021 2:15:00 AM -99999.99 -179968 -99999.99 -99999.99 -99999.99 -99999.99
2/10/2021 2:30:00 AM -99999.99 -179968 -99999.99 -99999.99 -99999.99 -99999.99
2/10/2021 2:45:00 AM -99999.99 -179968 -99999.99 -99999.99 -99999.99 -99999.99
2/10/2021 3:00:00 AM -99999.99 -179968 -99999.99 -99999.99 -99999.99 -99999.99
2/10/2021 3:15:00 AM -99999.99 -179968 -99999.99 -99999.99 -99999.99 -99999.99
2/10/2021 3:30:00 AM -99999.99 -179968 -99999.99 -99999.99 -99999.99 -99999.99
2/10/2021 3:45:00 AM -99999.99 -179968 -99999.99 -99999.99 -99999.99 -99999.99
2/10/2021 4:00:00 AM -99999.99 -179968 -99999.99 -99999.99 -99999.99 -99999.99
2/10/2021 4:15:00 AM -99999.99 -179968 -99999.99 -99999.99 -99999.99 -99999.99
2/10/2021 4:30:00 AM -99999.99 -179968 -99999.99 -99999.99 -99999.99 -99999.99
2/10/2021 4:45:00 AM -99999.99 -179968 -99999.99 -99999.99 -99999.99 -99999.99
2/10/2021 5:00:00 AM -99999.99 -179968 -99999.99 -99999.99 -99999.99 -99999.99
2/10/2021 5:15:00 AM -99999.99 -179968 -99999.99 -99999.99 -99999.99 -99999.99
2/10/2021 5:30:00 AM -99999.99 -179968 -99999.99 -99999.99 -99999.99 -99999.99
2/10/2021 5:45:00 AM -99999.99 -179968 -99999.99 -99999.99 -99999.99 -99999.99
2/10/2021 6:00:00 AM -99999.99 -179968 -99999.99 -99999.99 -99999.99 -99999.99
2/10/2021 6:15:00 AM -99999.99 -179968 -99999.99 -99999.99 -99999.99 -99999.99
2/10/2021 6:30:00 AM -99999.99 -179968 -99999.99 -99999.99 -99999.99 -99999.99
2/10/2021 6:45:00 AM -99999.99 -179968 -99999.99 -99999.99 -99999.99 -99999.99
2/10/2021 7:00:00 AM -99999.99 -179968 -99999.99 -99999.99 -99999.99 -99999.99
2/10/2021 7:15:00 AM -99999.99 -179968 -99999.99 -99999.99 -99999.99 -99999.99
2/10/2021 7:30:00 AM -99999.99 -179968 -99999.99 -99999.99 -99999.99 -99999.99
2/10/2021 7:45:00 AM -99999.99 -179968 -99999.99 -99999.99 -99999.99 -99999.99
2/10/2021 8:00:00 AM -99999.99 -179968 -99999.99 -99999.99 -99999.99 -99999.99
2/10/2021 8:15:00 AM -99999.99 -179968 -99999.99 -99999.99 -99999.99 -99999.99
2/10/2021 8:30:00 AM -99999.99 -179968 -99999.99 -99999.99 -99999.99 -99999.99
2/10/2021 8:45:00 AM -99999.99 -179968 -99999.99 -99999.99 -99999.99 -99999.99
2/10/2021 9:00:00 AM -99999.99 -179968 -99999.99 -99999.99 -99999.99 -99999.99
2/10/2021 9:15:00 AM -99999.99 -179968 -99999.99 -99999.99 -99999.99 -99999.99
2/10/2021 9:30:00 AM -99999.99 -179968 -99999.99 -99999.99 -99999.99 -99999.99
2/10/2021 9:45:00 AM -99999.99 -179968 -99999.99 -99999.99 -99999.99 -99999.99
2/10/2021 10:00:00 AM -99999.99 -179968 -99999.99 -99999.99 -99999.99 -99999.99
2/10/2021 10:15:00 AM -99999.99 -179968 -99999.99 -99999.99 -99999.99 -99999.99
2/10/2021 10:30:00 AM -99999.99 -179968 -99999.99 -99999.99 -99999.99 -99999.99
2/10/2021 10:45:00 AM -99999.99 -179968 -99999.99 -99999.99 -99999.99 -99999.99
2/10/2021 11:00:00 AM -99999.99 -179968 -99999.99 -99999.99 -99999.99 -99999.99
2/10/2021 11:15:00 AM -99999.99 -179968 -99999.99 -99999.99 -99999.99 -99999.99
2/10/2021 11:30:00 AM -99999.99 -179968 -99999.99 -99999.99 -99999.99 -99999.99
2/10/2021 11:45:00 AM -99999.99 -179968 -99999.99 -99999.99 -99999.99 -99999.99
2/10/2021 12:00:00 PM -99999.99 -179968 -99999.99 -99999.99 -99999.99 -99999.99
2/10/2021 12:15:00 PM -99999.99 -179968 -99999.99 -99999.99 -99999.99 -99999.99
2/10/2021 12:30:00 PM -99999.99 -179968 -99999.99 -99999.99 -99999.99 -99999.99
2/10/2021 12:45:00 PM -99999.99 -179968 -99999.99 -99999.99 -99999.99 -99999.99
2/10/2021 1:00:00 PM -99999.99 -179968 -99999.99 -99999.99 -99999.99 -99999.99
2/10/2021 1:15:00 PM -99999.99 -179968 -99999.99 -99999.99 -99999.99 -99999.99
2/10/2021 1:30:00 PM -99999.99 -179968 -99999.99 -99999.99 -99999.99 -99999.99
2/10/2021 1:45:00 PM -99999.99 -179968 -99999.99 -99999.99 -99999.99 -99999.99
2/10/2021 2:00:00 PM -99999.99 -179968 -99999.99 -99999.99 -99999.99 -99999.99
2/10/2021 2:15:00 PM 3.49 38.282 0.406 7.95 192.63 15.82
2/10/2021 2:30:00 PM 3.82 38.876 0.442 8.13 30.28 16.79
2/10/2021 2:45:00 PM 3.87 38.966 0.453 8.19 7.35 16.98
2/10/2021 3:00:00 PM 3.88 38.984 0.454 8.23 3.81 16.92
2/10/2021 3:15:00 PM 3.89 39.002 0.453 8.25 3.57 16.97
2/10/2021 3:30:00 PM 3.89 39.002 0.451 8.29 3.14 17.01
2/10/2021 3:45:00 PM 3.87 38.966 0.45 8.31 3.1 16.97
2/10/2021 4:00:00 PM 3.85 38.93 0.449 8.34 3.13 16.89
2/10/2021 4:15:00 PM 3.82 38.876 0.448 8.36 3.42 16.64
2/10/2021 4:30:00 PM 3.79 38.822 0.448 8.35 4.03 16.68
2/10/2021 4:45:00 PM 3.77 38.786 0.448 8.34 3.52 16.53
2/10/2021 5:00:00 PM 3.75 38.75 0.449 8.31 3.2 16.27
2/10/2021 5:15:00 PM 3.73 38.714 0.449 8.27 3.19 15.86
2/10/2021 5:30:00 PM 3.72 38.696 0.449 8.21 3.14 15.73
2/10/2021 5:45:00 PM 3.71 38.678 0.45 8.15 3.11 15.48
2/10/2021 6:00:00 PM 3.7 38.66 0.45 8.08 3.07 15.14
2/10/2021 6:15:00 PM 3.7 38.66 0.45 8.02 3 14.88
2/10/2021 6:30:00 PM 3.7 38.66 0.45 7.97 3.18 14.6
2/10/2021 6:45:00 PM 3.69 38.642 0.45 7.94 3.1 14.47
2/10/2021 7:00:00 PM 3.68 38.624 0.448 7.92 2.94 14.3
2/10/2021 7:15:00 PM 3.68 38.624 0.448 7.9 3.17 14.23
2/10/2021 7:30:00 PM 3.67 38.606 0.447 7.9 3.34 14.17
2/10/2021 7:45:00 PM 3.18 37.724 0.389 6.83 2.71 12.22
2/10/2021 8:00:00 PM 3.6 38.48 0.438 7.74 3.49 13.81
2/10/2021 8:15:00 PM 3.65 38.57 0.445 7.86 3.58 13.97
2/10/2021 8:30:00 PM 3.16 37.688 0.388 6.83 2.75 12.04
2/10/2021 8:45:00 PM 3.57 38.426 0.437 7.73 3.5 13.63
2/10/2021 9:00:00 PM 3.61 38.498 0.444 7.84 3.82 13.78
2/10/2021 9:15:00 PM 3.6 38.48 0.445 7.85 3.31 13.7
2/10/2021 9:30:00 PM 3.59 38.462 0.444 7.83 3.13 13.67
2/10/2021 9:45:00 PM 3.56 38.408 0.444 7.81 3.08 13.62
2/10/2021 10:00:00 PM 3.52 38.336 0.444 7.8 3.26 13.54
2/10/2021 10:15:00 PM 3.48 38.264 0.443 7.79 3.28 13.49
2/10/2021 10:30:00 PM 3.41 38.138 0.443 7.78 3.2 13.35
2/10/2021 10:45:00 PM 3.31 37.958 0.443 7.77 3.2 13.4
2/10/2021 11:00:00 PM 3.2 37.76 0.442 7.77 3.01 13.35
2/10/2021 11:15:00 PM 3.07 37.526 0.441 7.77 3 13.33
2/10/2021 11:30:00 PM 2.54 36.572 0.382 6.72 2.5 11.55
2/10/2021 11:45:00 PM 2.78 37.004 0.431 7.61 4.06 13.09
2/11/2021 12:00:00 AM 2.75 36.95 0.438 7.71 3.28 13.26
2/11/2021 12:15:00 AM 2.63 36.734 0.437 7.73 3.11 13.26
2/11/2021 12:30:00 AM 2.6 36.68 0.431 7.72 3.07 13.26
2/11/2021 12:45:00 AM 2.59 36.662 0.435 7.73 3.34 13.26
2/11/2021 1:00:00 AM 2.61 36.698 0.436 7.72 3.28 13.19
2/11/2021 1:15:00 AM 2.61 36.698 0.436 7.71 3.29 13.17
2/11/2021 1:30:00 AM 2.3 36.14 0.38 6.68 2.75 11.4
2/11/2021 1:45:00 AM 2.6 36.68 0.429 7.56 3.11 12.87
2/11/2021 2:00:00 AM 2.63 36.734 0.435 7.68 3.24 13.06
2/11/2021 2:15:00 AM 2.62 36.716 0.436 7.69 3.31 13.06
2/11/2021 2:30:00 AM 2.6 36.68 0.435 7.68 3.46 13.09
2/11/2021 2:45:00 AM 2.57 36.626 0.435 7.67 3.37 13.09
2/11/2021 3:00:00 AM 2.55 36.59 0.434 7.68 3.28 13.06
2/11/2021 3:15:00 AM 2.53 36.554 0.434 7.68 3.3 13.03
2/11/2021 3:30:00 AM 2.51 36.518 0.434 7.68 3.31 13.02
2/11/2021 3:45:00 AM 2.5 36.5 0.433 7.69 3.28 13.05
2/11/2021 4:00:00 AM 2.49 36.482 0.432 7.69 3.28 13.02
2/11/2021 4:15:00 AM 2.48 36.464 0.433 7.68 3.29 13.04
2/11/2021 4:30:00 AM 2.48 36.464 0.432 7.67 3.18 13.04
2/11/2021 4:45:00 AM 2.47 36.446 0.432 7.67 3.19 13.07
2/11/2021 5:00:00 AM 2.47 36.446 0.431 7.67 3.11 13.05
2/11/2021 5:15:00 AM 2.45 36.41 0.431 7.67 3.09 13.03
2/11/2021 5:30:00 AM 2.44 36.392 0.43 7.67 3.2 13.08
2/11/2021 5:45:00 AM 2.43 36.374 0.43 7.67 3.15 12.98
2/11/2021 6:00:00 AM 2.43 36.374 0.429 7.67 3.03 13.04
2/11/2021 6:15:00 AM 2.42 36.356 0.429 7.66 3.14 13.01
2/11/2021 6:30:00 AM 2.4 36.32 0.428 7.65 3.26 12.94
2/11/2021 6:45:00 AM 2.39 36.302 0.428 7.65 3.12 13.02
2/11/2021 7:00:00 AM 2.39 36.302 0.427 7.65 3.33 13.06
2/11/2021 7:15:00 AM 2.38 36.284 0.426 7.66 3.19 13.08
2/11/2021 7:30:00 AM 2.38 36.284 0.425 7.66 3.39 13.1
2/11/2021 7:45:00 AM 2.39 36.302 0.425 7.68 3.98 13.27
2/11/2021 8:00:00 AM 2.41 36.338 0.424 7.7 3.97 13.44
2/11/2021 8:15:00 AM 2.11 35.798 0.369 6.71 3.73 11.9
2/11/2021 8:30:00 AM 2.42 36.356 0.416 7.63 3.56 13.7
2/11/2021 8:45:00 AM 2.48 36.464 0.421 7.79 3.38 14.15
2/11/2021 9:00:00 AM 2.51 36.518 0.422 7.85 3.33 14.38
2/11/2021 9:15:00 AM 2.53 36.554 0.421 7.88 3.21 14.61
2/11/2021 9:30:00 AM 2.55 36.59 0.421 7.92 3.21 14.79
2/11/2021 9:45:00 AM 2.24 36.032 0.366 6.9 2.82 13.06
2/11/2021 10:00:00 AM 2.56 36.608 0.413 7.85 3.48 14.88
2/11/2021 10:15:00 AM 2.62 36.716 0.419 8.01 3.42 15.23
2/11/2021 10:30:00 AM 2.65 36.77 0.419 8.06 3.22 15.34
2/11/2021 10:45:00 AM 2.7 36.86 0.418 8.1 3.55 15.58
2/11/2021 11:00:00 AM 2.76 36.968 0.417 8.16 3.56 15.74
2/11/2021 11:15:00 AM 2.83 37.094 0.417 8.19 3.23 15.85
2/11/2021 11:30:00 AM 2.92 37.256 0.417 8.23 3.27 16.03
2/11/2021 11:45:00 AM 3.03 37.454 0.416 8.27 3.19 16.23
2/11/2021 12:00:00 PM 3.13 37.634 0.415 8.32 3.04 16.23
2/11/2021 12:15:00 PM 3.23 37.814 0.415 8.35 3.68 16.5
2/11/2021 12:30:00 PM 3.3 37.94 0.414 8.37 3.37 16.53
2/11/2021 12:45:00 PM 3.34 38.012 0.414 8.4 3.35 16.38
2/11/2021 1:00:00 PM 3.37 38.066 0.413 8.41 3.35 16.54
2/11/2021 1:15:00 PM 3.4 38.12 0.413 8.44 3.68 16.41
2/11/2021 1:30:00 PM 3.44 38.192 0.413 8.47 3.21 16.66
2/11/2021 1:45:00 PM 3.03 37.454 0.359 7.35 2.4 14.56
2/11/2021 2:00:00 PM 3.47 38.246 0.405 8.36 2.94 16.52
2/11/2021 2:15:00 PM 3.56 38.408 0.411 8.5 3 16.82
2/11/2021 2:30:00 PM 3.61 38.498 0.411 8.55 3.24 16.86
2/11/2021 2:45:00 PM 3.64 38.552 0.411 8.56 3.45 16.91
2/11/2021 3:00:00 PM 3.68 38.624 0.411 8.58 3.64 16.85
2/11/2021 3:15:00 PM 3.72 38.696 0.411 8.58 3.4 16.83
2/11/2021 3:30:00 PM 3.73 38.714 0.412 8.59 2.98 14.52
2/11/2021 3:45:00 PM 3.73 38.714 0.41 8.59 3.21 16.51
2/11/2021 4:00:00 PM 3.73 38.714 0.41 8.59 2.99 16.72
2/11/2021 4:15:00 PM 3.72 38.696 0.41 8.59 3.02 16.72
2/11/2021 4:30:00 PM 3.7 38.66 0.41 8.56 3.03 16.57
2/11/2021 4:45:00 PM 3.67 38.606 0.41 8.53 3.44 16.4
2/11/2021 5:00:00 PM 3.64 38.552 0.41 8.49 3.7 16.17
2/11/2021 5:15:00 PM 3.61 38.498 0.411 8.45 4.85 15.91
2/11/2021 5:30:00 PM 3.58 38.444 0.411 8.38 4.02 15.66
2/11/2021 5:45:00 PM 3.56 38.408 0.411 8.3 3.53 15.42
2/11/2021 6:00:00 PM 3.54 38.372 0.412 8.22 3.44 15.13
2/11/2021 6:15:00 PM 3.53 38.354 0.412 8.15 3.15 14.85
2/11/2021 6:30:00 PM 3.5 38.3 0.412 8.1 3.16 14.61
2/11/2021 6:45:00 PM 3.49 38.282 0.412 8.06 3.08 14.33
2/11/2021 7:00:00 PM 3.47 38.246 0.412 8.04 3.17 14.32
2/11/2021 7:15:00 PM 3.46 38.228 0.412 8.01 3.13 14.28
2/11/2021 7:30:00 PM 3.46 38.228 0.412 8 3.14 14.14
2/11/2021 7:45:00 PM 3.45 38.21 0.411 7.99 3.41 14.03
2/11/2021 8:00:00 PM 3.45 38.21 0.411 7.98 3.34 14.01
2/11/2021 8:15:00 PM 3.44 38.192 0.411 7.97 2.99 14.03
2/11/2021 8:30:00 PM 3.42 38.156 0.411 7.96 3.22 13.96
2/11/2021 8:45:00 PM 3.41 38.138 0.411 7.95 3.24 13.89
2/11/2021 9:00:00 PM 3.39 38.102 0.411 7.94 3.22 13.84
2/11/2021 9:15:00 PM 3.38 38.084 0.411 7.93 3.17 13.74
2/11/2021 9:30:00 PM 3.36 38.048 0.411 7.91 3.42 13.73
2/11/2021 9:45:00 PM 2.89 37.202 0.358 6.85 2.79 11.84
2/11/2021 10:00:00 PM 3.24 37.832 0.404 7.75 3.23 13.38
2/11/2021 10:15:00 PM 3.25 37.85 0.41 7.85 3.19 13.54
2/11/2021 10:30:00 PM 3.23 37.814 0.411 7.86 3.29 13.54
2/11/2021 10:45:00 PM 3.2 37.76 0.412 7.85 3.14 13.47
2/11/2021 11:00:00 PM 3.16 37.688 0.412 7.83 3.24 13.38
2/11/2021 11:15:00 PM 3.12 37.616 0.412 7.83 3.18 13.35
2/11/2021 11:30:00 PM 3.08 37.544 0.412 7.81 3.15 13.28
2/11/2021 11:45:00 PM 2.63 36.734 0.359 6.77 2.65 11.52
2/12/2021 12:00:00 AM 2.96 37.328 0.405 7.65 3.16 12.98
2/12/2021 12:15:00 AM 2.96 37.328 0.412 7.76 3.22 13.19
2/12/2021 12:30:00 AM 2.93 37.274 0.413 7.76 3.1 13.16
2/12/2021 12:45:00 AM 2.89 37.202 0.413 7.77 3.07 13.19
2/12/2021 1:00:00 AM 2.86 37.148 0.413 7.75 3.03 13.2
2/12/2021 1:15:00 AM 2.84 37.112 0.413 7.75 3.1 13.21
2/12/2021 1:30:00 AM 2.82 37.076 0.413 7.74 3.04 13.17
2/12/2021 1:45:00 AM 2.79 37.022 0.413 7.73 3.11 13.12
2/12/2021 2:00:00 AM 2.77 36.986 0.413 7.72 3.02 13.03
2/12/2021 2:15:00 AM 2.75 36.95 0.413 7.72 3.49 13.1
2/12/2021 2:30:00 AM 2.74 36.932 0.413 7.72 3.35 13.05
2/12/2021 2:45:00 AM 2.72 36.896 0.413 7.71 3.25 12.97
2/12/2021 3:00:00 AM 2.7 36.86 0.413 7.71 3.19 13.06
2/12/2021 3:15:00 AM 2.68 36.824 0.414 7.72 3.53 13.04
2/12/2021 3:30:00 AM 2.66 36.788 0.414 7.71 3.31 13.04
2/12/2021 3:45:00 AM 2.64 36.752 0.414 7.7 3.26 13.07
2/12/2021 4:00:00 AM 2.61 36.698 0.414 7.7 3.31 13
2/12/2021 4:15:00 AM 2.58 36.644 0.414 7.7 3.25 13.05
2/12/2021 4:30:00 AM 2.54 36.572 0.414 7.7 3.37 13.1
2/12/2021 4:45:00 AM 2.51 36.518 0.414 7.69 3.31 12.99
2/12/2021 5:00:00 AM 2.48 36.464 0.414 7.69 3.33 13.1
2/12/2021 5:15:00 AM 2.47 36.446 0.415 7.69 3.23 13.05
2/12/2021 5:30:00 AM 2.44 36.392 0.415 7.69 3.28 13.05
2/12/2021 5:45:00 AM 2.4 36.32 0.415 7.7 3.43 13.1
2/12/2021 6:00:00 AM 2.37 36.266 0.415 7.69 3.35 13.08
2/12/2021 6:15:00 AM 2.03 35.654 0.361 6.66 2.81 11.33
2/12/2021 6:30:00 AM 2.28 36.104 0.408 7.56 3.14 12.87
2/12/2021 6:45:00 AM 2.3 36.14 0.415 7.67 3.86 13.03
2/12/2021 7:00:00 AM 2.29 36.122 0.415 7.69 3.89 13.11
2/12/2021 7:15:00 AM 2.27 36.086 0.416 7.7 3.25 13.11
2/12/2021 7:30:00 AM 2.26 36.068 0.416 7.7 3.19 13.2
2/12/2021 7:45:00 AM 2.25 36.05 0.416 7.71 3.44 13.29
2/12/2021 8:00:00 AM 2.25 36.05 0.416 7.74 3.74 13.57
2/12/2021 8:15:00 AM 2.26 36.068 0.416 7.77 3.76 13.86
2/12/2021 8:30:00 AM 2.28 36.104 0.415 7.82 3.75 14.17
2/12/2021 8:45:00 AM 2 35.6 0.361 6.83 3.38 12.69
2/12/2021 9:00:00 AM 2.29 36.122 0.407 7.8 4.27 14.6
2/12/2021 9:15:00 AM 2.35 36.23 0.413 7.98 3.46 15.06
2/12/2021 9:30:00 AM 2.39 36.302 0.414 8.04 3.71 15.32
2/12/2021 9:45:00 AM 2.42 36.356 0.414 8.1 4.42 15.57
2/12/2021 10:00:00 AM 2.47 36.446 0.413 8.15 4.78 15.84
2/12/2021 10:15:00 AM 2.52 36.536 0.413 8.2 3.66 15.96
2/12/2021 10:30:00 AM 2.27 36.086 0.359 7.16 2.58 14
2/12/2021 10:45:00 AM 2.64 36.752 0.405 8.14 2.99 15.94
2/12/2021 11:00:00 AM 2.42 36.356 0.359 7.22 2.64 14.24
2/12/2021 11:15:00 AM 2.82 37.076 0.405 8.21 3.19 16.18
2/12/2021 11:30:00 AM 2.95 37.31 0.411 8.37 3.46 16.38
2/12/2021 11:45:00 AM 3.03 37.454 0.411 8.4 3.45 16.59
2/12/2021 12:00:00 PM 3.1 37.58 0.411 8.43 3.4 16.65
2/12/2021 12:15:00 PM 3.18 37.724 0.411 8.45 3.34 16.66
2/12/2021 12:30:00 PM 3.24 37.832 0.41 8.48 3.37 16.72
2/12/2021 12:45:00 PM 3.29 37.922 0.409 8.5 3.2 16.69
2/12/2021 1:00:00 PM 3.33 37.994 0.409 8.53 3.24 16.86
2/12/2021 1:15:00 PM 3.36 38.048 0.409 8.54 3.19 16.89
2/12/2021 1:30:00 PM 3.41 38.138 0.408 8.56 3.18 16.85
2/12/2021 1:45:00 PM 3.46 38.228 0.408 8.59 3.18 17.04
2/12/2021 2:00:00 PM 3.52 38.336 0.408 8.61 3.07 17.07
2/12/2021 2:15:00 PM 3.59 38.462 0.407 8.63 3.16 17.12
2/12/2021 2:30:00 PM 3.66 38.588 0.407 8.65 3.86 16.99
2/12/2021 2:45:00 PM 3.71 38.678 0.407 8.66 3.73 17.09
2/12/2021 3:00:00 PM 3.74 38.732 0.406 8.67 3.96 17.03
2/12/2021 3:15:00 PM 3.76 38.768 0.406 8.68 3.49 17.09
2/12/2021 3:30:00 PM 3.76 38.768 0.405 8.68 3.36 16.82
2/12/2021 3:45:00 PM 3.72 38.696 0.406 8.67 3.13 16.86
2/12/2021 4:00:00 PM 3.67 38.606 0.406 8.66 3.35 16.73
2/12/2021 4:15:00 PM 3.64 38.552 0.406 8.63 5.66 16.66
2/12/2021 4:30:00 PM 3.59 38.462 0.406 8.6 4.74 16.31
2/12/2021 4:45:00 PM 3.55 38.39 0.406 8.56 3.21 16.16
2/12/2021 5:00:00 PM 3.52 38.336 0.407 8.52 2.95 16.16
2/12/2021 5:15:00 PM 3.49 38.282 0.407 8.46 2.74 15.86
2/12/2021 5:30:00 PM 3.46 38.228 0.407 8.4 2.85 15.58
2/12/2021 5:45:00 PM 3.44 38.192 0.408 8.33 2.99 15.42
2/12/2021 6:00:00 PM 3.43 38.174 0.408 8.27 2.99 15.08
2/12/2021 6:15:00 PM 3.43 38.174 0.409 8.21 2.93 14.94
2/12/2021 6:30:00 PM 3.42 38.156 0.41 8.16 2.81 14.68
2/12/2021 6:45:00 PM 3.42 38.156 0.41 8.12 2.97 14.54
2/12/2021 7:00:00 PM 2.97 37.346 0.356 7.01 2.47 12.48
2/12/2021 7:15:00 PM 3.36 38.048 0.403 7.92 2.82 14.05
2/12/2021 7:30:00 PM 3.41 38.138 0.409 8.04 2.85 14.15
2/12/2021 7:45:00 PM 3.41 38.138 0.41 8.04 2.96 14.14
2/12/2021 8:00:00 PM 3.4 38.12 0.41 8.03 2.94 14.08
2/12/2021 8:15:00 PM 2.94 37.292 0.358 6.95 2.55 12.1
2/12/2021 8:30:00 PM 3.32 37.976 0.404 7.87 3.2 13.7
2/12/2021 8:45:00 PM 3.35 38.03 0.41 7.97 3.12 13.88
2/12/2021 9:00:00 PM 3.34 38.012 0.411 7.99 3.1 13.75
2/12/2021 9:15:00 PM 3.32 37.976 0.411 7.97 3.14 13.83
2/12/2021 9:30:00 PM 3.3 37.94 0.412 7.97 3.18 13.67
2/12/2021 9:45:00 PM 3.28 37.904 0.412 7.95 2.97 13.62
2/12/2021 10:00:00 PM 3.25 37.85 0.412 7.94 3.06 13.64
2/12/2021 10:15:00 PM 3.23 37.814 0.412 7.92 3.25 13.6
2/12/2021 10:30:00 PM 3.21 37.778 0.413 7.9 3.6 13.53
2/12/2021 10:45:00 PM 3.18 37.724 0.413 7.89 3.33 13.41
2/12/2021 11:00:00 PM 3.16 37.688 0.413 7.88 3.32 13.4
2/12/2021 11:15:00 PM 3.13 37.634 0.413 7.86 3.1 13.37
2/12/2021 11:30:00 PM 3.11 37.598 0.413 7.85 3.28 13.35
2/12/2021 11:45:00 PM 3.08 37.544 0.413 7.84 3.33 13.33
2/13/2021 12:00:00 AM 3.06 37.508 0.414 7.83 3.42 13.29
2/13/2021 12:15:00 AM 3.03 37.454 0.414 7.82 3.5 13.25
2/13/2021 12:30:00 AM 2.61 36.698 0.36 6.77 2.59 11.5
2/13/2021 12:45:00 AM 2.94 37.292 0.407 7.67 3.06 12.88
2/13/2021 1:00:00 AM 2.97 37.346 0.414 7.78 3.08 13.13
2/13/2021 1:15:00 AM 2.96 37.328 0.414 7.79 3.19 13.12
2/13/2021 1:30:00 AM 2.94 37.292 0.415 7.78 3.23 13.08
2/13/2021 1:45:00 AM 2.92 37.256 0.415 7.77 3.21 13.06
2/13/2021 2:00:00 AM 2.52 36.536 0.361 6.73 2.65 11.32
2/13/2021 2:15:00 AM 2.84 37.112 0.408 7.63 3.12 12.8
2/13/2021 2:30:00 AM 2.5 36.5 0.362 6.73 2.8 11.31
2/13/2021 2:45:00 AM 2.82 37.076 0.409 7.63 3.32 12.76
2/13/2021 3:00:00 AM 2.85 37.13 0.415 7.74 3.25 12.99
2/13/2021 3:15:00 AM 2.84 37.112 0.417 7.74 3.16 12.99
2/13/2021 3:30:00 AM 2.83 37.094 0.417 7.74 3.18 12.95
2/13/2021 3:45:00 AM 2.81 37.058 0.417 7.74 3.41 12.96
2/13/2021 4:00:00 AM 2.8 37.04 0.417 7.74 3.3 12.95
2/13/2021 4:15:00 AM 2.79 37.022 0.418 7.74 3.28 12.96
2/13/2021 4:30:00 AM 2.78 37.004 0.418 7.73 3.22 12.88
2/13/2021 4:45:00 AM 2.77 36.986 0.418 7.72 3.22 12.82
2/13/2021 5:00:00 AM 2.76 36.968 0.418 7.72 3.32 12.94
2/13/2021 5:15:00 AM 2.76 36.968 0.418 7.72 3.46 12.94
2/13/2021 5:30:00 AM 2.75 36.95 0.419 7.72 3.48 12.82
2/13/2021 5:45:00 AM 2.74 36.932 0.419 7.72 3.35 12.87
2/13/2021 6:00:00 AM 2.73 36.914 0.419 7.72 3.11 12.88
2/13/2021 6:15:00 AM 2.72 36.896 0.419 7.71 3.09 12.93
2/13/2021 6:30:00 AM 2.71 36.878 0.419 7.71 3.06 12.88
2/13/2021 6:45:00 AM 2.71 36.878 0.419 7.71 3.2 12.9
2/13/2021 7:00:00 AM 2.69 36.842 0.42 7.71 3.72 12.88
2/13/2021 7:15:00 AM 2.69 36.842 0.42 7.7 3.37 12.93
2/13/2021 7:30:00 AM 2.68 36.824 0.42 7.71 3.65 12.98
2/13/2021 7:45:00 AM 2.67 36.806 0.42 7.72 3.71 13.1
2/13/2021 8:00:00 AM 2.68 36.824 0.419 7.74 4.6 13.26
2/13/2021 8:15:00 AM 2.68 36.824 0.419 7.77 3.73 13.47
2/13/2021 8:30:00 AM 2.7 36.86 0.42 7.82 3.31 13.77
2/13/2021 8:45:00 AM 2.71 36.878 0.419 7.86 3.31 14.12
2/13/2021 9:00:00 AM 2.71 36.878 0.419 7.91 3.11 14.38
2/13/2021 9:15:00 AM 2.73 36.914 0.418 7.96 3.53 14.66
2/13/2021 9:30:00 AM 2.75 36.95 0.418 8.02 3.41 14.93
2/13/2021 9:45:00 AM 2.79 37.022 0.418 8.08 4.56 15.19
2/13/2021 10:00:00 AM 2.46 36.428 0.363 7.07 2.57 13.4
2/13/2021 10:15:00 AM 2.82 37.076 0.41 8.05 2.93 15.31
2/13/2021 10:30:00 AM 2.9 37.22 0.416 8.22 2.8 15.64
2/13/2021 10:45:00 AM 2.56 36.608 0.362 7.18 2.51 13.78
2/13/2021 11:00:00 AM 2.92 37.256 0.409 8.16 3.54 15.62
2/13/2021 11:15:00 AM 2.99 37.382 0.415 8.31 3.45 15.97
2/13/2021 11:30:00 AM 3.03 37.454 0.416 8.35 3.21 16.04
2/13/2021 11:45:00 AM 3.06 37.508 0.41 8.38 2.74 16.17
2/13/2021 12:00:00 PM 3.09 37.562 0.414 8.4 2.81 16.37
2/13/2021 12:15:00 PM 3.13 37.634 0.415 8.43 2.75 16.42
2/13/2021 12:30:00 PM 2.73 36.914 0.361 7.32 2.19 14.31
2/13/2021 12:45:00 PM 3.1 37.58 0.407 8.32 2.5 16.2
2/13/2021 1:00:00 PM 3.15 37.67 0.414 8.46 2.72 16.52
2/13/2021 1:15:00 PM 3.16 37.688 0.414 8.5 3.13 16.55
2/13/2021 1:30:00 PM 3.16 37.688 0.414 8.52 2.74 16.57
2/13/2021 1:45:00 PM 3.17 37.706 0.414 8.54 2.6 16.53
2/13/2021 2:00:00 PM 3.18 37.724 0.414 8.55 2.5 16.61
2/13/2021 2:15:00 PM 3.17 37.706 0.413 8.57 2.78 16.72
2/13/2021 2:30:00 PM 3.18 37.724 0.413 8.58 3.16 16.72
2/13/2021 2:45:00 PM 3.18 37.724 0.412 8.58 3.17 16.6
2/13/2021 3:00:00 PM 3.18 37.724 0.412 8.59 3.1 16.57
2/13/2021 3:15:00 PM 3.19 37.742 0.412 8.6 3.03 16.65
2/13/2021 3:30:00 PM 3.19 37.742 0.412 8.59 3.25 16.61
2/13/2021 3:45:00 PM 3.19 37.742 0.412 8.59 3.02 16.46
2/13/2021 4:00:00 PM 3.18 37.724 0.412 8.58 3.29 16.38
2/13/2021 4:15:00 PM 3.18 37.724 0.412 8.56 4.13 16.36
2/13/2021 4:30:00 PM 2.75 36.95 0.359 7.38 2.98 14.05
2/13/2021 4:45:00 PM 3.11 37.598 0.406 8.34 2.85 15.83
2/13/2021 5:00:00 PM 3.14 37.652 0.412 8.43 2.86 15.85
2/13/2021 5:15:00 PM 3.13 37.634 0.413 8.4 2.95 15.73
2/13/2021 5:30:00 PM 3.11 37.598 0.414 8.36 4.4 15.39
2/13/2021 5:45:00 PM 3.09 37.562 0.414 8.3 3.21 15.26
2/13/2021 6:00:00 PM 3.06 37.508 0.415 8.24 2.93 15.02
2/13/2021 6:15:00 PM 2.64 36.752 0.361 7.09 2.67 12.81
2/13/2021 6:30:00 PM 2.98 37.364 0.408 8 2.74 14.39
2/13/2021 6:45:00 PM 3.01 37.418 0.414 8.1 2.82 14.48
2/13/2021 7:00:00 PM 3.01 37.418 0.415 8.09 2.88 14.36
2/13/2021 7:15:00 PM 3 37.4 0.415 8.07 2.85 14.28
2/13/2021 7:30:00 PM 2.99 37.382 0.415 8.05 2.98 14.14
2/13/2021 7:45:00 PM 2.98 37.364 0.416 8.04 3 14.15
2/13/2021 8:00:00 PM 2.97 37.346 0.416 8.04 3.01 14.07
2/13/2021 8:15:00 PM 2.97 37.346 0.416 8.03 3.01 14.08
2/13/2021 8:30:00 PM 2.95 37.31 0.416 8.02 3.09 14.02
2/13/2021 8:45:00 PM 2.95 37.31 0.416 8 3.13 13.98
2/13/2021 9:00:00 PM 2.94 37.292 0.416 7.99 2.97 13.91
2/13/2021 9:15:00 PM 2.93 37.274 0.416 7.97 3.27 13.87
2/13/2021 9:30:00 PM 2.91 37.238 0.416 7.96 3.2 13.82
2/13/2021 9:45:00 PM 2.9 37.22 0.416 7.95 3.07 13.77
2/13/2021 10:00:00 PM 2.88 37.184 0.416 7.94 3.13 13.73
2/13/2021 10:15:00 PM 2.87 37.166 0.416 7.92 3.06 13.65
2/13/2021 10:30:00 PM 2.85 37.13 0.417 7.91 3.07 13.61
2/13/2021 10:45:00 PM 2.84 37.112 0.417 7.9 2.98 13.52
2/13/2021 11:00:00 PM 2.82 37.076 0.417 7.89 3.11 13.42
2/13/2021 11:15:00 PM 2.8 37.04 0.417 7.88 3.15 13.47
2/13/2021 11:30:00 PM 2.78 37.004 0.417 7.87 2.98 13.4
2/13/2021 11:45:00 PM 2.77 36.986 0.417 7.86 3.11 13.37
2/14/2021 12:00:00 AM 2.75 36.95 0.417 7.85 3.1 13.25
2/14/2021 12:15:00 AM 2.73 36.914 0.417 7.83 3.25 13.32
2/14/2021 12:30:00 AM 2.36 36.248 0.363 6.79 2.7 11.54
2/14/2021 12:45:00 AM 2.67 36.806 0.41 7.68 3.13 13.01
2/14/2021 1:00:00 AM 2.7 36.86 0.417 7.79 3.08 13.2
2/14/2021 1:15:00 AM 2.69 36.842 0.417 7.8 3.16 13.18
2/14/2021 1:30:00 AM 2.68 36.824 0.418 7.8 3.05 13.15
2/14/2021 1:45:00 AM 2.67 36.806 0.417 7.79 3.05 13.08
2/14/2021 2:00:00 AM 2.65 36.77 0.417 7.79 3.01 13.1
2/14/2021 2:15:00 AM 2.63 36.734 0.417 7.78 3.25 13.1
2/14/2021 2:30:00 AM 2.62 36.716 0.417 7.78 3.23 13.08
2/14/2021 2:45:00 AM 2.61 36.698 0.417 7.78 3.35 13.03
2/14/2021 3:00:00 AM 2.6 36.68 0.417 7.77 3.26 13.02
2/14/2021 3:15:00 AM 2.59 36.662 0.417 7.76 3.11 13.02
2/14/2021 3:30:00 AM 2.57 36.626 0.417 7.76 3.19 12.96
2/14/2021 3:45:00 AM 2.56 36.608 0.417 7.75 3.18 13.03
2/14/2021 4:00:00 AM 2.55 36.59 0.417 7.75 3.33 13.04
2/14/2021 4:15:00 AM 2.53 36.554 0.418 7.75 3.44 13.06
2/14/2021 4:30:00 AM 2.51 36.518 0.417 7.75 3.35 12.99
2/14/2021 4:45:00 AM 2.5 36.5 0.417 7.74 3.24 13.01
2/14/2021 5:00:00 AM 2.49 36.482 0.417 7.74 3.24 13.02
2/14/2021 5:15:00 AM 2.47 36.446 0.417 7.75 3.36 13.03
2/14/2021 5:30:00 AM 2.46 36.428 0.417 7.74 3.36 13.01
2/14/2021 5:45:00 AM 2.44 36.392 0.417 7.74 3.24 12.99
2/14/2021 6:00:00 AM 2.11 35.798 0.363 6.71 2.61 11.33
2/14/2021 6:15:00 AM 2.38 36.284 0.41 7.6 3.09 12.77
2/14/2021 6:30:00 AM 2.41 36.338 0.416 7.71 3.08 12.99
2/14/2021 6:45:00 AM 2.4 36.32 0.417 7.72 3.11 12.91
2/14/2021 7:00:00 AM 2.39 36.302 0.417 7.73 3.79 12.89
2/14/2021 7:15:00 AM 2.39 36.302 0.417 7.73 3.33 12.93
2/14/2021 7:30:00 AM 2.38 36.284 0.417 7.74 3.17 13.07
2/14/2021 7:45:00 AM 2.38 36.284 0.417 7.75 3.07 13.13
2/14/2021 8:00:00 AM 2.38 36.284 0.417 7.77 3.07 13.34
2/14/2021 8:15:00 AM 2.39 36.302 0.417 7.78 3.14 13.52
2/14/2021 8:30:00 AM 2.41 36.338 0.417 7.82 3.03 13.78
2/14/2021 8:45:00 AM 2.43 36.374 0.416 7.87 3.08 14.06
2/14/2021 9:00:00 AM 2.46 36.428 0.416 7.92 2.98 14.4
2/14/2021 9:15:00 AM 2.51 36.518 0.416 8 2.95 14.74
2/14/2021 9:30:00 AM 2.22 35.996 0.361 6.99 2.54 13.14
2/14/2021 9:45:00 AM 2.58 36.644 0.407 7.98 2.83 15.12
2/14/2021 10:00:00 AM 2.7 36.86 0.413 8.17 2.83 15.65
2/14/2021 10:15:00 AM 2.79 37.022 0.414 8.26 2.84 15.94
2/14/2021 10:30:00 AM 2.52 36.536 0.36 7.22 2.33 13.93
2/14/2021 10:45:00 AM 2.95 37.31 0.405 8.21 2.74 15.81
2/14/2021 11:00:00 AM 3.13 37.634 0.411 8.39 2.8 16.27
2/14/2021 11:15:00 AM 3.28 37.904 0.412 8.44 2.78 16.43
2/14/2021 11:30:00 AM 3.42 38.156 0.411 8.47 2.88 16.45
2/14/2021 11:45:00 AM 3.54 38.372 0.411 8.51 2.87 16.56
2/14/2021 12:00:00 PM 3.65 38.57 0.411 8.54 2.8 16.56
2/14/2021 12:15:00 PM 3.75 38.75 0.411 8.55 2.97 16.7
2/14/2021 12:30:00 PM 3.82 38.876 0.41 8.57 3.07 16.62
2/14/2021 12:45:00 PM 3.9 39.02 0.41 8.59 3.24 16.66
2/14/2021 1:00:00 PM 3.97 39.146 0.41 8.61 3.64 16.68
2/14/2021 1:15:00 PM 4.03 39.254 0.409 8.63 2.96 16.86
2/14/2021 1:30:00 PM 4.08 39.344 0.409 8.65 3.18 16.91
2/14/2021 1:45:00 PM 4.12 39.416 0.409 8.68 3.63 16.77
2/14/2021 2:00:00 PM 4.16 39.488 0.409 8.69 3.04 16.8
2/14/2021 2:15:00 PM 4.19 39.542 0.408 8.71 2.95 16.9
2/14/2021 2:30:00 PM 4.2 39.56 0.409 8.72 2.88 16.92
2/14/2021 2:45:00 PM 4.24 39.632 0.408 8.73 2.75 16.96
2/14/2021 3:00:00 PM 4.25 39.65 0.408 8.74 2.76 16.84
2/14/2021 3:15:00 PM 4.28 39.704 0.408 8.75 2.89 16.94
2/14/2021 3:30:00 PM 4.3 39.74 0.408 8.76 2.82 16.77
2/14/2021 3:45:00 PM 4.34 39.812 0.408 8.78 2.94 16.92
2/14/2021 4:00:00 PM 4.35 39.83 0.408 8.77 2.88 16.82
2/14/2021 4:15:00 PM 4.36 39.848 0.408 8.75 2.95 16.69
2/14/2021 4:30:00 PM 4.38 39.884 0.409 8.74 3.06 16.52
2/14/2021 4:45:00 PM 4.38 39.884 0.409 8.7 3 16.34
2/14/2021 5:00:00 PM 4.37 39.866 0.409 8.67 2.78 16.17
2/14/2021 5:15:00 PM 4.36 39.848 0.41 8.61 2.89 15.78
2/14/2021 5:30:00 PM 4.34 39.812 0.411 8.54 2.93 15.67
2/14/2021 5:45:00 PM 3.75 38.75 0.358 7.33 2.49 13.34
2/14/2021 6:00:00 PM 4.22 39.596 0.405 8.24 2.82 14.83
2/14/2021 6:15:00 PM 4.28 39.704 0.411 8.31 2.93 14.66
2/14/2021 6:30:00 PM 4.27 39.686 0.413 8.26 2.89 14.49
2/14/2021 6:45:00 PM 4.27 39.686 0.413 8.22 2.8 14.29
2/14/2021 7:00:00 PM 4.26 39.668 0.413 8.17 2.87 14.07
2/14/2021 7:15:00 PM 4.26 39.668 0.413 8.15 2.83 14.09
2/14/2021 7:30:00 PM 4.26 39.668 0.414 8.12 2.87 13.91
2/14/2021 7:45:00 PM 4.26 39.668 0.414 8.11 2.99 13.8
2/14/2021 8:00:00 PM 4.27 39.686 0.414 8.1 3.22 13.8
2/14/2021 8:15:00 PM 4.27 39.686 0.414 8.09 3.1 13.79
2/14/2021 8:30:00 PM 4.28 39.704 0.414 8.08 3.07 13.71
2/14/2021 8:45:00 PM 4.28 39.704 0.414 8.07 3.17 13.63
2/14/2021 9:00:00 PM 4.27 39.686 0.415 8.06 3.22 13.54
2/14/2021 9:15:00 PM 4.27 39.686 0.414 8.05 3.57 13.47
2/14/2021 9:30:00 PM 4.26 39.668 0.415 8.03 3.3 13.42
2/14/2021 9:45:00 PM 4.24 39.632 0.415 8.02 3.39 13.39
2/14/2021 10:00:00 PM 4.23 39.614 0.415 7.99 3.6 13.17
2/14/2021 10:15:00 PM 4.22 39.596 0.415 7.98 3.37 13.2
2/14/2021 10:30:00 PM 4.2 39.56 0.415 7.96 3.43 13.1
2/14/2021 10:45:00 PM 4.19 39.542 0.415 7.94 3.51 13.12
2/14/2021 11:00:00 PM 4.17 39.506 0.415 7.93 3.33 13.02
2/14/2021 11:15:00 PM 4.16 39.488 0.416 7.92 3.22 13
2/14/2021 11:30:00 PM 4.14 39.452 0.416 7.9 3.27 12.98
2/14/2021 11:45:00 PM 4.13 39.434 0.416 7.89 3.3 12.9
2/15/2021 12:00:00 AM 4.11 39.398 0.416 7.87 3.4 12.89
2/15/2021 12:15:00 AM 4.1 39.38 0.416 7.86 3.27 12.83
2/15/2021 12:30:00 AM 4.08 39.344 0.416 7.84 3.36 12.77
2/15/2021 12:45:00 AM 3.52 38.336 0.362 6.79 2.9 10.95
2/15/2021 1:00:00 AM 3.97 39.146 0.409 7.69 3.5 12.35
2/15/2021 1:15:00 AM 4.03 39.254 0.415 7.8 3.47 12.6
2/15/2021 1:30:00 AM 4.02 39.236 0.416 7.8 3.42 12.57
2/15/2021 1:45:00 AM 4.01 39.218 0.416 7.8 3.34 12.55
2/15/2021 2:00:00 AM 4.01 39.218 0.416 7.79 3.43 12.54
2/15/2021 2:15:00 AM 3.99 39.182 0.416 7.79 3.49 12.51
2/15/2021 2:30:00 AM 3.98 39.164 0.416 7.78 3.38 12.49
2/15/2021 2:45:00 AM 3.98 39.164 0.416 7.78 3.45 12.47
2/15/2021 3:00:00 AM 3.98 39.164 0.416 7.77 3.45 12.42
2/15/2021 3:15:00 AM 3.97 39.146 0.417 7.77 3.42 12.39
2/15/2021 3:30:00 AM 3.97 39.146 0.416 7.76 3.49 12.4
2/15/2021 3:45:00 AM 3.96 39.128 0.416 7.75 3.56 12.41
2/15/2021 4:00:00 AM 3.95 39.11 0.416 7.74 3.41 12.33
2/15/2021 4:15:00 AM 3.95 39.11 0.416 7.75 3.61 12.37
2/15/2021 4:30:00 AM 3.94 39.092 0.416 7.74 3.5 12.38
2/15/2021 4:45:00 AM 3.94 39.092 0.416 7.74 3.51 12.34
2/15/2021 5:00:00 AM 3.93 39.074 0.416 7.73 3.38 12.31
2/15/2021 5:15:00 AM 3.92 39.056 0.416 7.73 3.51 12.34
2/15/2021 5:30:00 AM 3.91 39.038 0.416 7.73 3.49 12.28
2/15/2021 5:45:00 AM 3.91 39.038 0.416 7.72 3.52 12.23
2/15/2021 6:00:00 AM 3.91 39.038 0.415 7.72 3.71 12.28
2/15/2021 6:15:00 AM 3.91 39.038 0.415 7.72 3.63 12.29
2/15/2021 6:30:00 AM 3.9 39.02 0.415 7.72 3.65 12.25
2/15/2021 6:45:00 AM 3.89 39.002 0.415 7.72 3.67 12.22
2/15/2021 7:00:00 AM 3.88 38.984 0.415 7.72 4.04 12.27
2/15/2021 7:15:00 AM 3.88 38.984 0.415 7.72 3.49 12.22
2/15/2021 7:30:00 AM 3.88 38.984 0.414 7.73 3.2 12.3
2/15/2021 7:45:00 AM 3.89 39.002 0.414 7.75 3.5 12.62
2/15/2021 8:00:00 AM 3.91 39.038 0.414 7.79 3.42 12.89
2/15/2021 8:15:00 AM 3.92 39.056 0.414 7.83 3.48 13.14
2/15/2021 8:30:00 AM 3.94 39.092 0.413 7.87 3.42 13.3
2/15/2021 8:45:00 AM 3.95 39.11 0.413 7.92 3.22 13.61
2/15/2021 9:00:00 AM 3.97 39.146 0.413 7.96 3.25 13.87
2/15/2021 9:15:00 AM 4.02 39.236 0.412 8.02 3.17 14.26
2/15/2021 9:30:00 AM 4.05 39.29 0.412 8.08 3.32 14.54
2/15/2021 9:45:00 AM 4.12 39.416 0.411 8.16 3.22 14.64
2/15/2021 10:00:00 AM 4.19 39.542 0.41 8.24 3.14 15.09
2/15/2021 10:15:00 AM 4.27 39.686 0.41 8.31 3.02 15.3
2/15/2021 10:30:00 AM 4.34 39.812 0.41 8.36 3.03 15.46
2/15/2021 10:45:00 AM 4.4 39.92 0.409 8.41 3.06 15.55
2/15/2021 11:00:00 AM 4.47 40.046 0.409 8.46 2.94 15.72
2/15/2021 11:15:00 AM 4.52 40.136 0.408 8.49 2.86 15.83
2/15/2021 11:30:00 AM 4.57 40.226 0.408 8.52 2.94 15.78
2/15/2021 11:45:00 AM 3.99 39.182 0.354 7.41 2.78 13.84
2/15/2021 12:00:00 PM 4.54 40.172 0.4 8.42 3.05 15.51
2/15/2021 12:15:00 PM 4.65 40.37 0.405 8.58 2.83 16.03
2/15/2021 12:30:00 PM 4.69 40.442 0.406 8.62 2.89 16.14
2/15/2021 12:45:00 PM 4.76 40.568 0.405 8.66 2.8 16.28
2/15/2021 1:00:00 PM 4.86 40.748 0.404 8.69 3.11 16.35
2/15/2021 1:15:00 PM 4.96 40.928 0.404 8.72 3.41 16.49
2/15/2021 1:30:00 PM 5.04 41.072 0.403 8.75 3.37 16.51
2/15/2021 1:45:00 PM 5.08 41.144 0.403 8.77 3.11 16.36
2/15/2021 2:00:00 PM 5.09 41.162 0.402 8.77 3 16.37
2/15/2021 2:15:00 PM 5.09 41.162 0.402 8.78 2.89 16.37
2/15/2021 2:30:00 PM 5.08 41.144 0.402 8.78 3.02 16.38
2/15/2021 2:45:00 PM 5.07 41.126 0.402 8.78 3.01 16.41
2/15/2021 3:00:00 PM 5.04 41.072 0.402 8.78 3.1 16.32
2/15/2021 3:15:00 PM 5.01 41.018 0.402 8.78 3.38 16.24
2/15/2021 3:30:00 PM 4.99 40.982 0.401 8.76 3.18 16.13
2/15/2021 3:45:00 PM 4.97 40.946 0.401 8.74 3.12 16.01
2/15/2021 4:00:00 PM 4.94 40.892 0.401 8.7 2.97 15.87
2/15/2021 4:15:00 PM 4.93 40.874 0.402 8.66 3.04 15.65
2/15/2021 4:30:00 PM 4.92 40.856 0.402 8.6 3.53 15.41
2/15/2021 4:45:00 PM 4.92 40.856 0.403 8.54 3.36 15.1
2/15/2021 5:00:00 PM 4.91 40.838 0.403 8.48 3.16 14.85
2/15/2021 5:15:00 PM 4.91 40.838 0.403 8.43 3.01 14.69
2/15/2021 5:30:00 PM 4.91 40.838 0.403 8.37 2.97 14.45
2/15/2021 5:45:00 PM 4.91 40.838 0.403 8.33 3.01 14.24
2/15/2021 6:00:00 PM 4.9 40.82 0.403 8.29 3.16 14.08
2/15/2021 6:15:00 PM 4.89 40.802 0.404 8.25 3.08 13.98
2/15/2021 6:30:00 PM 4.89 40.802 0.404 8.21 3.05 13.81
2/15/2021 6:45:00 PM 4.88 40.784 0.404 8.19 3.14 13.67
2/15/2021 7:00:00 PM 4.87 40.766 0.404 8.16 3.24 13.51
2/15/2021 7:15:00 PM 4.85 40.73 0.404 8.14 3.42 13.47
2/15/2021 7:30:00 PM 4.84 40.712 0.404 8.13 3.35 13.42
2/15/2021 7:45:00 PM 4.82 40.676 0.404 8.13 3.35 13.36
2/15/2021 8:00:00 PM 4.8 40.64 0.404 8.11 3.23 13.29
2/15/2021 8:15:00 PM 4.15 39.47 0.352 7.02 2.9 11.46
2/15/2021 8:30:00 PM 4.68 40.424 0.397 7.93 3.31 12.99
2/15/2021 8:45:00 PM 4.73 40.514 0.403 8.04 3.66 13.12
2/15/2021 9:00:00 PM 4.72 40.496 0.403 8.03 3.53 12.96
2/15/2021 9:15:00 PM 4.7 40.46 0.403 8.02 3.54 12.94
2/15/2021 9:30:00 PM 4.68 40.424 0.403 8 3.56 12.89
2/15/2021 9:45:00 PM 4.65 40.37 0.403 7.99 3.55 12.83
2/15/2021 10:00:00 PM 4.64 40.352 0.403 7.97 3.5 12.82
2/15/2021 10:15:00 PM 4.61 40.298 0.403 7.96 3.53 12.77
2/15/2021 10:30:00 PM 4.58 40.244 0.402 7.95 3.93 12.74
2/15/2021 10:45:00 PM 4.55 40.19 0.401 7.92 3.96 12.64
2/15/2021 11:00:00 PM 4.51 40.118 0.4 7.91 4.21 12.6
2/15/2021 11:15:00 PM 4.48 40.064 0.398 7.9 4.71 12.52
2/15/2021 11:30:00 PM 4.43 39.974 0.395 7.89 5.52 12.51
2/15/2021 11:45:00 PM 4.39 39.902 0.392 7.88 6.86 12.5
2/16/2021 12:00:00 AM 4.34 39.812 0.389 7.87 8.65 12.54
2/16/2021 12:15:00 AM 4.32 39.776 0.387 7.86 10.28 12.53
2/16/2021 12:30:00 AM 4.3 39.74 0.387 7.85 9.67 12.41
2/16/2021 12:45:00 AM 4.3 39.74 0.388 7.84 10.65 12.39
2/16/2021 1:00:00 AM 4.29 39.722 0.388 7.82 10.25 12.32
2/16/2021 1:15:00 AM 4.28 39.704 0.389 7.81 8.91 12.37
2/16/2021 1:30:00 AM 4.27 39.686 0.39 7.8 7.85 12.33
2/16/2021 1:45:00 AM 4.25 39.65 0.389 7.79 7.75 12.33
2/16/2021 2:00:00 AM 3.67 38.606 0.339 6.76 6.34 10.61
2/16/2021 2:15:00 AM 4.11 39.398 0.379 7.64 8.02 12.04
2/16/2021 2:30:00 AM 4.15 39.47 0.383 7.76 9.14 12.25
2/16/2021 2:45:00 AM 4.12 39.416 0.381 7.77 11 12.33
2/16/2021 3:00:00 AM 4.1 39.38 0.38 7.76 11.66 12.31
2/16/2021 3:15:00 AM 4.05 39.29 0.377 7.76 13.1 12.36
2/16/2021 3:30:00 AM 4 39.2 0.375 7.75 14.29 12.24
2/16/2021 3:45:00 AM 3.94 39.092 0.372 7.75 16.95 12.34
2/16/2021 4:00:00 AM 3.87 38.966 0.368 7.75 18.24 12.39
2/16/2021 4:15:00 AM 3.28 37.904 0.317 6.68 30.53 10.81
2/16/2021 4:30:00 AM 3.64 38.552 0.356 7.59 26.8 12.18
2/16/2021 4:45:00 AM 3.61 38.498 0.361 7.7 27.95 12.49
2/16/2021 5:00:00 AM 3.04 37.472 0.315 6.69 28.35 10.9
2/16/2021 5:15:00 AM 3.28 37.904 0.348 7.44 40.73 12.16
2/16/2021 5:30:00 AM 3.27 37.886 0.356 7.67 46.03 12.66
2/16/2021 5:45:00 AM 3.2 37.76 0.357 7.7 52.34 12.78
2/16/2021 6:00:00 AM 3.15 37.67 0.358 7.7 53.88 12.8
2/16/2021 6:15:00 AM 3.11 37.598 0.357 7.69 57.95 12.84
2/16/2021 6:30:00 AM 3.05 37.49 0.354 7.68 58.98 12.87
2/16/2021 6:45:00 AM 3.01 37.418 0.351 7.68 65.93 12.83
2/16/2021 7:00:00 AM 2.93 37.274 0.349 7.68 65.94 12.89
2/16/2021 7:15:00 AM 2.84 37.112 0.348 7.67 72.23 12.93
2/16/2021 7:30:00 AM 2.77 36.986 0.348 7.67 73.25 12.93
2/16/2021 7:45:00 AM 2.71 36.878 0.347 7.67 77.14 13.04
2/16/2021 8:00:00 AM 2.65 36.77 0.345 7.67 83.23 13.01
2/16/2021 8:15:00 AM 2.6 36.68 0.341 7.67 82.26 13.07
2/16/2021 8:30:00 AM 2.55 36.59 0.336 7.66 85.44 13.14
2/16/2021 8:45:00 AM 2.52 36.536 0.332 7.65 88.75 13.17
2/16/2021 9:00:00 AM 2.51 36.518 0.328 7.65 89.58 13.28
2/16/2021 9:15:00 AM 2.51 36.518 0.326 7.64 91.94 13.29
2/16/2021 9:30:00 AM 2.51 36.518 0.322 7.63 92.01 13.29
2/16/2021 9:45:00 AM 2.19 35.942 0.278 6.61 82.23 11.57
2/16/2021 10:00:00 AM 2.49 36.482 0.313 7.48 92.61 13.05
2/16/2021 10:15:00 AM 2.57 36.626 0.32 7.6 91.11 13.29
2/16/2021 10:30:00 AM 2.66 36.788 0.324 7.61 89.91 13.3
2/16/2021 10:45:00 AM 2.75 36.95 0.327 7.61 86.52 13.35
2/16/2021 11:00:00 AM 2.84 37.112 0.33 7.61 85.78 13.3
2/16/2021 11:15:00 AM 2.55 36.59 0.289 6.6 74.59 11.57
2/16/2021 11:30:00 AM 2.99 37.382 0.327 7.48 79.92 13.13
2/16/2021 11:45:00 AM 3.14 37.652 0.333 7.59 79.29 13.34
2/16/2021 12:00:00 PM 3.26 37.868 0.333 7.61 76.05 13.34
2/16/2021 12:15:00 PM 3.37 38.066 0.332 7.61 74.04 13.33
2/16/2021 12:30:00 PM 3.49 38.282 0.329 7.62 72.15 13.31
2/16/2021 12:45:00 PM 3.6 38.48 0.326 7.62 67.56 13.28
2/16/2021 1:00:00 PM 3.25 37.85 0.28 6.6 57.73 11.52
2/16/2021 1:15:00 PM 3.76 38.768 0.315 7.49 61.97 13.02
2/16/2021 1:30:00 PM 3.87 38.966 0.319 7.6 63.27 13.2
2/16/2021 1:45:00 PM 3.4 38.12 0.278 6.6 51.67 11.49
2/16/2021 2:00:00 PM 3.91 39.038 0.314 7.49 57.46 12.96
2/16/2021 2:15:00 PM 4.05 39.29 0.319 7.61 57.21 13.13
2/16/2021 2:30:00 PM 4.15 39.47 0.32 7.63 57.27 13.17
2/16/2021 2:45:00 PM 4.28 39.704 0.32 7.63 54.31 13.14
2/16/2021 3:00:00 PM 4.36 39.848 0.321 7.62 53.7 13.11
2/16/2021 3:15:00 PM 4.39 39.902 0.323 7.62 51.41 13.09
2/16/2021 3:30:00 PM 4.4 39.92 0.325 7.62 50.34 13.06
2/16/2021 3:45:00 PM 4.23 39.614 0.314 7.3 48.73 12.39
2/16/2021 4:00:00 PM 4.41 39.938 0.328 7.58 51.67 12.92
2/16/2021 4:15:00 PM 4.49 40.082 0.333 7.61 52.25 12.89
2/16/2021 4:30:00 PM 4.56 40.208 0.335 7.62 51.78 12.96
2/16/2021 4:45:00 PM 4.57 40.226 0.337 7.63 51.33 12.93
2/16/2021 5:00:00 PM 4.57 40.226 0.34 7.62 48.65 12.92
2/16/2021 5:15:00 PM 4.56 40.208 0.343 7.62 49.22 12.86
2/16/2021 5:30:00 PM 4.56 40.208 0.347 7.61 51.04 12.86
2/16/2021 5:45:00 PM 4.57 40.226 0.351 7.61 52.95 12.81
2/16/2021 6:00:00 PM 4.57 40.226 0.354 7.6 55.87 12.8
2/16/2021 6:15:00 PM 4.55 40.19 0.356 7.6 57.24 12.8
2/16/2021 6:30:00 PM 4.52 40.136 0.356 7.6 58.41 12.78
2/16/2021 6:45:00 PM 4.51 40.118 0.355 7.59 61.31 12.74
2/16/2021 7:00:00 PM 4.5 40.1 0.353 7.59 63.3 12.73
2/16/2021 7:15:00 PM 4.45 40.01 0.351 7.58 66.47 12.74
2/16/2021 7:30:00 PM 4.38 39.884 0.347 7.58 71.06 12.72
2/16/2021 7:45:00 PM 4.33 39.794 0.344 7.58 70.89 12.74
2/16/2021 8:00:00 PM 4.27 39.686 0.341 7.58 75.25 12.75
2/16/2021 8:15:00 PM 4.21 39.578 0.337 7.57 76 12.78
2/16/2021 8:30:00 PM 4.14 39.452 0.334 7.57 81.34 12.79
2/16/2021 8:45:00 PM 4.07 39.326 0.33 7.56 81.1 12.78
2/16/2021 9:00:00 PM 4 39.2 0.326 7.55 80.8 12.71
2/16/2021 9:15:00 PM 3.92 39.056 0.323 7.55 80.07 12.8
2/16/2021 9:30:00 PM 3.84 38.912 0.32 7.55 79.7 12.82
2/16/2021 9:45:00 PM 3.74 38.732 0.318 7.54 79.39 12.83
2/16/2021 10:00:00 PM 3.65 38.57 0.315 7.53 77.69 12.85
2/16/2021 10:15:00 PM 3.56 38.408 0.313 7.53 75.76 12.9
2/16/2021 10:30:00 PM 3.47 38.246 0.311 7.52 74.66 12.87
2/16/2021 10:45:00 PM 3.36 38.048 0.31 7.52 70.69 12.94
2/16/2021 11:00:00 PM 3.26 37.868 0.309 7.51 73.09 13.02
2/16/2021 11:15:00 PM 3.17 37.706 0.308 7.51 69.89 13.02
2/16/2021 11:30:00 PM 3.08 37.544 0.307 7.51 65.4 13.06
2/16/2021 11:45:00 PM 3 37.4 0.307 7.5 63.16 13.08
2/17/2021 12:00:00 AM 2.92 37.256 0.306 7.5 61.38 13.13
2/17/2021 12:15:00 AM 2.84 37.112 0.306 7.5 58.93 13.19
2/17/2021 12:30:00 AM 2.75 36.95 0.306 7.5 57.18 13.21
2/17/2021 12:45:00 AM 2.67 36.806 0.306 7.49 53.09 13.18
2/17/2021 1:00:00 AM 2.58 36.644 0.305 7.49 53.43 13.23
2/17/2021 1:15:00 AM 2.15 35.87 0.265 6.48 43.65 11.56
2/17/2021 1:30:00 AM 2.35 36.23 0.3 7.34 47.84 13.06
2/17/2021 1:45:00 AM 2.31 36.158 0.304 7.46 48.24 13.29
2/17/2021 2:00:00 AM 2.25 36.05 0.305 7.47 47.97 13.33
2/17/2021 2:15:00 AM 2.17 35.906 0.305 7.48 45.47 13.47
2/17/2021 2:30:00 AM 2.09 35.762 0.305 7.48 43.33 13.41
2/17/2021 2:45:00 AM 2.02 35.636 0.306 7.48 42.07 13.46
2/17/2021 3:00:00 AM 1.96 35.528 0.306 7.48 41.47 13.56
2/17/2021 3:15:00 AM 1.9 35.42 0.306 7.48 40.18 13.56
2/17/2021 3:30:00 AM 1.84 35.312 0.308 7.48 38.3 13.56
2/17/2021 3:45:00 AM 1.77 35.186 0.308 7.49 36.74 13.55
2/17/2021 4:00:00 AM 1.72 35.096 0.309 7.49 35.82 13.67
2/17/2021 4:15:00 AM 1.44 34.592 0.269 6.49 29.07 11.9
2/17/2021 4:30:00 AM 1.59 34.862 0.305 7.35 32.97 13.42
2/17/2021 4:45:00 AM 1.57 34.826 0.31 7.46 32.48 13.72
2/17/2021 5:00:00 AM 1.54 34.772 0.311 7.49 31.21 13.67
2/17/2021 5:15:00 AM 1.5 34.7 0.312 7.49 31.14 13.71
2/17/2021 5:30:00 AM 1.46 34.628 0.313 7.49 29.9 13.82
2/17/2021 5:45:00 AM 1.41 34.538 0.314 7.48 29.02 13.76
2/17/2021 6:00:00 AM 1.37 34.466 0.314 7.49 27.58 13.86
2/17/2021 6:15:00 AM 1.33 34.394 0.316 7.49 27.66 13.82
2/17/2021 6:30:00 AM 1.12 34.016 0.276 6.49 23.27 12.06
2/17/2021 6:45:00 AM 1.24 34.232 0.312 7.36 25.18 13.66
2/17/2021 7:00:00 AM 1.07 33.926 0.278 6.5 22.01 12.08
2/17/2021 7:15:00 AM 1.19 34.142 0.315 7.36 26.54 13.69
2/17/2021 7:30:00 AM 1.19 34.142 0.321 7.48 25.28 13.93
2/17/2021 7:45:00 AM 1.18 34.124 0.322 7.5 24.14 13.89
2/17/2021 8:00:00 AM 1.02 33.836 0.282 6.51 19.49 12.16
2/17/2021 8:15:00 AM 1.15 34.07 0.319 7.38 21.69 13.79
2/17/2021 8:30:00 AM 1.12 34.016 0.312 7.18 20.27 13.36
2/17/2021 8:45:00 AM 1.19 34.142 0.325 7.48 21.45 14.08
2/17/2021 9:00:00 AM 1.23 34.214 0.328 7.52 20.57 14.19
2/17/2021 9:15:00 AM 1.26 34.268 0.329 7.54 20.66 14.27
2/17/2021 9:30:00 AM 1.29 34.322 0.33 7.55 20.57 14.18
2/17/2021 9:45:00 AM 1.33 34.394 0.332 7.55 19.71 14.31
2/17/2021 10:00:00 AM 1.39 34.502 0.333 7.56 19.4 14.36
2/17/2021 10:15:00 AM 1.49 34.682 0.334 7.57 31.81 14.38
2/17/2021 10:30:00 AM 1.58 34.844 0.335 7.58 19.11 14.42
2/17/2021 10:45:00 AM 1.65 34.97 0.336 7.58 17.09 14.49
2/17/2021 11:00:00 AM 1.71 35.078 0.337 7.59 18.6 14.5
2/17/2021 11:15:00 AM 1.81 35.258 0.338 7.6 16.82 14.53
2/17/2021 11:30:00 AM 1.97 35.546 0.338 7.61 16.48 14.45
2/17/2021 11:45:00 AM 2.1 35.78 0.339 7.62 16.88 14.51
2/17/2021 12:00:00 PM 2.21 35.978 0.34 7.63 15.99 14.51
2/17/2021 12:15:00 PM 2.28 36.104 0.341 7.64 16.4 14.5
2/17/2021 12:30:00 PM 2.34 36.212 0.342 7.65 16.31 14.52
2/17/2021 12:45:00 PM 2.39 36.302 0.342 7.65 15.67 14.52
2/17/2021 1:00:00 PM 2.45 36.41 0.343 7.65 14.76 14.52
2/17/2021 1:15:00 PM 2.53 36.554 0.344 7.66 14.2 14.52
2/17/2021 1:30:00 PM 2.61 36.698 0.344 7.67 14.42 14.5
2/17/2021 1:45:00 PM 2.69 36.842 0.345 7.67 14.36 14.41
2/17/2021 2:00:00 PM 2.76 36.968 0.346 7.68 14.17 14.44
2/17/2021 2:15:00 PM 2.86 37.148 0.346 7.69 13.92 14.46
2/17/2021 2:30:00 PM 2.95 37.31 0.347 7.69 13.43 14.44
2/17/2021 2:45:00 PM 3.02 37.436 0.347 7.7 13.53 14.41
2/17/2021 3:00:00 PM 3.05 37.49 0.347 7.71 13.55 14.3
2/17/2021 3:15:00 PM 3.08 37.544 0.348 7.71 13.52 14.36
2/17/2021 3:30:00 PM 3.1 37.58 0.348 7.71 13.37 14.35
2/17/2021 3:45:00 PM 3.12 37.616 0.349 7.71 13.5 14.31
2/17/2021 4:00:00 PM 3.15 37.67 0.349 7.71 12.98 14.26
2/17/2021 4:15:00 PM 2.74 36.932 0.304 6.69 11.3 12.31
2/17/2021 4:30:00 PM 3.12 37.616 0.344 7.57 12.35 13.94
2/17/2021 4:45:00 PM 3.18 37.724 0.35 7.68 12.58 14.04
2/17/2021 5:00:00 PM 3.2 37.76 0.351 7.7 12.92 13.93
2/17/2021 5:15:00 PM 3.21 37.778 0.351 7.69 12.82 13.92
2/17/2021 5:30:00 PM 3.21 37.778 0.352 7.69 12.8 13.9
2/17/2021 5:45:00 PM 3.2 37.76 0.352 7.68 12.84 13.81
2/17/2021 6:00:00 PM 3.19 37.742 0.352 7.67 12.69 13.78
2/17/2021 6:15:00 PM 3.17 37.706 0.353 7.66 12.91 13.74
2/17/2021 6:30:00 PM 3.15 37.67 0.353 7.66 12.85 13.64
2/17/2021 6:45:00 PM 3.14 37.652 0.353 7.65 12.48 13.67
2/17/2021 7:00:00 PM 3.12 37.616 0.353 7.64 13.04 13.63
2/17/2021 7:15:00 PM 3.1 37.58 0.354 7.64 12.84 13.51
2/17/2021 7:30:00 PM 3.1 37.58 0.354 7.64 12.87 13.55
2/17/2021 7:45:00 PM 2.97 37.346 0.339 7.3 12.06 12.89
2/17/2021 8:00:00 PM 3.09 37.562 0.353 7.58 12.5 13.31
2/17/2021 8:15:00 PM 3.12 37.616 0.355 7.62 12.49 13.4
2/17/2021 8:30:00 PM 3.13 37.634 0.355 7.62 12.53 13.31
2/17/2021 8:45:00 PM 3.14 37.652 0.355 7.62 14.36 13.33
2/17/2021 9:00:00 PM 3.14 37.652 0.355 7.61 12.57 13.28
2/17/2021 9:15:00 PM 3.13 37.634 0.356 7.6 12.35 13.34
2/17/2021 9:30:00 PM 3.13 37.634 0.356 7.6 12.52 13.29
2/17/2021 9:45:00 PM 3.12 37.616 0.356 7.59 12.28 13.32
2/17/2021 10:00:00 PM 3.11 37.598 0.356 7.6 12 13.26
2/17/2021 10:15:00 PM 3.1 37.58 0.356 7.59 12.73 13.29
2/17/2021 10:30:00 PM 3.09 37.562 0.356 7.59 11.9 13.24
2/17/2021 10:45:00 PM 2.67 36.806 0.31 6.58 10.32 11.46
2/17/2021 11:00:00 PM 3 37.4 0.35 7.46 11.36 12.99
2/17/2021 11:15:00 PM 2.63 36.734 0.31 6.58 9.9 11.45
2/17/2021 11:30:00 PM 2.96 37.328 0.351 7.46 11.35 13.01
2/17/2021 11:45:00 PM 2.98 37.364 0.356 7.57 11.88 13.1
2/18/2021 12:00:00 AM 2.97 37.346 0.357 7.58 11.55 13.18
2/18/2021 12:15:00 AM 2.96 37.328 0.357 7.59 11.33 13.18
2/18/2021 12:30:00 AM 2.96 37.328 0.358 7.59 11.23 13.2
2/18/2021 12:45:00 AM 2.56 36.608 0.311 6.58 9.69 11.45
2/18/2021 1:00:00 AM 2.89 37.202 0.352 7.45 11.13 13.01
2/18/2021 1:15:00 AM 2.92 37.256 0.358 7.57 11.23 13.17
2/18/2021 1:30:00 AM 2.91 37.238 0.359 7.58 10.99 13.13
2/18/2021 1:45:00 AM 2.76 36.968 0.344 7.25 9.93 12.58
2/18/2021 2:00:00 AM 2.85 37.13 0.357 7.54 10.79 13.07
2/18/2021 2:15:00 AM 2.85 37.13 0.359 7.57 10.83 13.18
2/18/2021 2:30:00 AM 2.72 36.896 0.345 7.26 10.27 12.66
2/18/2021 2:45:00 AM 2.81 37.058 0.358 7.53 10.14 13.14
2/18/2021 3:00:00 AM 2.81 37.058 0.36 7.57 10.24 13.16
2/18/2021 3:15:00 AM 2.8 37.04 0.36 7.58 10.21 13.21
2/18/2021 3:30:00 AM 2.79 37.022 0.361 7.58 10.16 13.22
2/18/2021 3:45:00 AM 2.41 36.338 0.314 6.56 8.72 11.5
2/18/2021 4:00:00 AM 2.72 36.896 0.355 7.44 10.02 13
2/18/2021 4:15:00 AM 2.75 36.95 0.361 7.56 10.25 13.19
2/18/2021 4:30:00 AM 2.75 36.95 0.362 7.58 10.3 13.24
2/18/2021 4:45:00 AM 2.74 36.932 0.362 7.58 10.07 13.28
2/18/2021 5:00:00 AM 2.73 36.914 0.362 7.58 10.25 13.26
2/18/2021 5:15:00 AM 2.71 36.878 0.363 7.57 9.74 13.23
2/18/2021 5:30:00 AM 2.67 36.806 0.363 7.58 9.52 13.24
2/18/2021 5:45:00 AM 2.57 36.626 0.363 7.58 9.96 13.27
2/18/2021 6:00:00 AM 2.42 36.356 0.363 7.58 9.88 13.29
2/18/2021 6:15:00 AM 2.16 35.888 0.348 7.27 9.13 12.79
2/18/2021 6:30:00 AM 2.19 35.942 0.361 7.54 9.46 13.27
2/18/2021 6:45:00 AM 2.2 35.96 0.363 7.58 9.4 13.35
2/18/2021 7:00:00 AM 1.94 35.492 0.315 6.58 8.07 11.59
2/18/2021 7:15:00 AM 2.22 35.996 0.357 7.46 9.91 13.13
2/18/2021 7:30:00 AM 1.93 35.474 0.316 6.58 10.24 11.61
2/18/2021 7:45:00 AM 2.11 35.798 0.357 7.46 9.4 13.11
2/18/2021 8:00:00 AM 2.05 35.69 0.362 7.58 8.91 13.36
2/18/2021 8:15:00 AM 1.97 35.546 0.363 7.6 8.57 13.63
2/18/2021 8:30:00 AM 1.91 35.438 0.363 7.6 8.9 13.64
2/18/2021 8:45:00 AM 1.81 35.258 0.363 7.61 8.86 13.65
2/18/2021 9:00:00 AM 1.75 35.15 0.363 7.61 8.69 13.77
2/18/2021 9:15:00 AM 1.41 34.538 0.315 6.6 7.06 11.97
2/18/2021 9:30:00 AM 1.53 34.754 0.356 7.5 8.16 13.67
2/18/2021 9:45:00 AM 1.19 34.142 0.315 6.64 7.26 12.13
2/18/2021 10:00:00 AM 1.26 34.268 0.355 7.52 8.13 13.86
2/18/2021 10:15:00 AM 1.24 34.232 0.36 7.65 8.02 14.13
2/18/2021 10:30:00 AM 1.18 34.124 0.36 7.67 8.09 14.24
2/18/2021 10:45:00 AM 1.02 33.836 0.313 6.66 7.19 12.41
2/18/2021 11:00:00 AM 1.18 34.124 0.354 7.55 7.96 14.07
2/18/2021 11:15:00 AM 0.96 33.728 0.313 6.67 6.91 12.52
2/18/2021 11:30:00 AM 0.89 33.602 0.312 6.68 7.21 12.6
2/18/2021 11:45:00 AM 0.96 33.728 0.352 7.58 7.89 14.38
2/18/2021 12:00:00 PM 1.01 33.818 0.357 7.71 7.53 14.51
2/18/2021 12:15:00 PM 1.08 33.944 0.358 7.73 7.85 14.55
2/18/2021 12:30:00 PM 1.14 34.052 0.359 7.74 7.59 14.74
2/18/2021 12:45:00 PM 1.15 34.07 0.344 7.4 6.95 14.06
2/18/2021 1:00:00 PM 1.22 34.196 0.357 7.7 7.27 14.72
2/18/2021 1:15:00 PM 1.24 34.232 0.359 7.74 7.32 14.8
2/18/2021 1:30:00 PM 1.09 33.962 0.313 6.72 6.24 12.93
2/18/2021 1:45:00 PM 1.26 34.268 0.353 7.62 6.95 14.59
2/18/2021 2:00:00 PM 1.3 34.34 0.359 7.75 7.06 14.88
2/18/2021 2:15:00 PM 1.18 34.124 0.314 6.74 6.21 12.9
2/18/2021 2:30:00 PM 1.37 34.466 0.355 7.64 6.94 14.61
2/18/2021 2:45:00 PM 1.44 34.592 0.359 7.76 7.05 14.91
2/18/2021 3:00:00 PM 1.49 34.682 0.36 7.78 7 14.81
2/18/2021 3:15:00 PM 1.54 34.772 0.359 7.8 6.93 14.91
2/18/2021 3:30:00 PM 1.52 34.736 0.344 7.46 6.51 14.3
2/18/2021 3:45:00 PM 1.62 34.916 0.357 7.75 6.72 14.82
2/18/2021 4:00:00 PM 1.44 34.592 0.313 6.76 5.6 12.9
2/18/2021 4:15:00 PM 1.64 34.952 0.354 7.66 6.71 14.58
2/18/2021 4:30:00 PM 1.47 34.646 0.313 6.76 5.72 12.92
2/18/2021 4:45:00 PM 1.67 35.006 0.352 7.65 6.58 14.51
2/18/2021 5:00:00 PM 1.71 35.078 0.357 7.77 6.79 14.62
2/18/2021 5:15:00 PM 1.72 35.096 0.357 7.78 6.8 14.72
2/18/2021 5:30:00 PM 1.72 35.096 0.357 7.77 6.64 14.66
2/18/2021 5:45:00 PM 1.72 35.096 0.357 7.76 6.63 14.54
2/18/2021 6:00:00 PM 1.5 34.7 0.311 6.72 5.66 12.57
2/18/2021 6:15:00 PM 1.69 35.042 0.351 7.6 6.57 14.11
2/18/2021 6:30:00 PM 1.71 35.078 0.356 7.72 6.85 14.39
2/18/2021 6:45:00 PM 1.71 35.078 0.357 7.73 6.75 14.39
2/18/2021 7:00:00 PM 1.72 35.096 0.358 7.72 6.85 14.31
2/18/2021 7:15:00 PM 1.49 34.682 0.312 6.7 5.7 12.37
2/18/2021 7:30:00 PM 1.69 35.042 0.352 7.57 6.76 14.01
2/18/2021 7:45:00 PM 1.71 35.078 0.358 7.68 6.82 14.09
2/18/2021 8:00:00 PM 1.72 35.096 0.359 7.69 7.07 14.16
2/18/2021 8:15:00 PM 1.73 35.114 0.36 7.68 6.93 14.13
2/18/2021 8:30:00 PM 1.66 34.988 0.343 7.31 6.67 13.39
2/18/2021 8:45:00 PM 1.74 35.132 0.358 7.61 6.92 13.95
2/18/2021 9:00:00 PM 1.69 35.042 0.347 7.37 6.54 13.46
2/18/2021 9:15:00 PM 1.76 35.168 0.359 7.61 6.76 13.9
2/18/2021 9:30:00 PM 1.78 35.204 0.36 7.65 6.82 13.81
2/18/2021 9:45:00 PM 1.79 35.222 0.361 7.64 6.81 13.89
2/18/2021 10:00:00 PM 1.57 34.826 0.315 6.63 6.42 12.03
2/18/2021 10:15:00 PM 1.79 35.222 0.355 7.5 6.55 13.58
2/18/2021 10:30:00 PM 1.83 35.294 0.361 7.62 6.75 13.69
2/18/2021 10:45:00 PM 1.85 35.33 0.361 7.63 7.02 13.68
2/18/2021 11:00:00 PM 1.86 35.348 0.361 7.63 6.89 13.7
2/18/2021 11:15:00 PM 1.63 34.934 0.315 6.61 5.87 11.95
2/18/2021 11:30:00 PM 1.85 35.33 0.355 7.49 6.75 13.43
2/18/2021 11:45:00 PM 1.89 35.402 0.361 7.61 6.86 13.69
2/19/2021 12:00:00 AM 1.89 35.402 0.362 7.63 6.95 13.65
2/19/2021 12:15:00 AM 1.89 35.402 0.362 7.62 6.84 13.74
2/19/2021 12:30:00 AM 1.89 35.402 0.362 7.62 6.81 13.63
2/19/2021 12:45:00 AM 1.9 35.42 0.362 7.63 6.7 13.69
2/19/2021 1:00:00 AM 1.9 35.42 0.362 7.62 6.76 13.64
2/19/2021 1:15:00 AM 1.9 35.42 0.362 7.62 6.77 13.69
2/19/2021 1:30:00 AM 1.65 34.97 0.315 6.6 5.76 11.87
2/19/2021 1:45:00 AM 1.85 35.33 0.35 7.35 6.72 13.18
2/19/2021 2:00:00 AM 1.91 35.438 0.361 7.58 6.9 13.57
2/19/2021 2:15:00 AM 1.92 35.456 0.363 7.61 7.29 13.65
2/19/2021 2:30:00 AM 1.93 35.474 0.363 7.61 6.77 13.61
2/19/2021 2:45:00 AM 1.68 35.024 0.317 6.61 5.96 11.76
2/19/2021 3:00:00 AM 1.91 35.438 0.358 7.48 6.59 13.38
2/19/2021 3:15:00 AM 1.94 35.492 0.364 7.59 6.66 13.55
2/19/2021 3:30:00 AM 1.95 35.51 0.365 7.61 6.68 13.58
2/19/2021 3:45:00 AM 1.96 35.528 0.366 7.61 6.46 13.51
2/19/2021 4:00:00 AM 1.71 35.078 0.32 6.61 5.4 11.71
2/19/2021 4:15:00 AM 1.94 35.492 0.361 7.48 6.08 13.31
2/19/2021 4:30:00 AM 1.71 35.078 0.32 6.6 5.2 11.7
2/19/2021 4:45:00 AM 1.95 35.51 0.362 7.48 6.93 13.3
2/19/2021 5:00:00 AM 1.97 35.546 0.368 7.6 6.47 13.51
2/19/2021 5:15:00 AM 1.98 35.564 0.369 7.61 6.24 13.48
2/19/2021 5:30:00 AM 1.96 35.528 0.369 7.61 6.39 13.49
2/19/2021 5:45:00 AM 1.69 35.042 0.32 6.59 5.26 11.73
2/19/2021 6:00:00 AM 1.91 35.438 0.362 7.47 6.19 13.15
2/19/2021 6:15:00 AM 1.94 35.492 0.368 7.59 6.24 13.37
2/19/2021 6:30:00 AM 1.95 35.51 0.368 7.61 6.01 13.4
2/19/2021 6:45:00 AM 1.95 35.51 0.368 7.62 5.88 13.46
2/19/2021 7:00:00 AM 1.96 35.528 0.368 7.62 6.2 13.49
2/19/2021 7:15:00 AM 1.96 35.528 0.368 7.62 6.16 13.5
2/19/2021 7:30:00 AM 1.96 35.528 0.368 7.62 6.29 13.51
2/19/2021 7:45:00 AM 1.96 35.528 0.368 7.62 5.75 13.51
2/19/2021 8:00:00 AM 1.96 35.528 0.368 7.63 5.5 13.53
2/19/2021 8:15:00 AM 1.96 35.528 0.369 7.64 5.39 13.57
2/19/2021 8:30:00 AM 1.88 35.384 0.356 7.37 4.87 13.14
2/19/2021 8:45:00 AM 1.9 35.42 0.367 7.61 5.09 13.61
2/19/2021 9:00:00 AM 1.87 35.366 0.368 7.65 5.09 13.73
2/19/2021 9:15:00 AM 1.86 35.348 0.369 7.68 5.27 13.84
2/19/2021 9:30:00 AM 1.87 35.366 0.368 7.69 5.06 13.97
2/19/2021 9:45:00 AM 1.86 35.348 0.353 7.38 4.9 13.33
2/19/2021 10:00:00 AM 2.01 35.618 0.366 7.67 5.16 13.91
2/19/2021 10:15:00 AM 2.02 35.636 0.354 7.42 4.77 13.63
2/19/2021 10:30:00 AM 1.87 35.366 0.321 6.73 4.39 12.38
2/19/2021 10:45:00 AM 2.13 35.834 0.362 7.62 4.92 14
2/19/2021 11:00:00 AM 2.18 35.924 0.368 7.75 4.85 14.29
2/19/2021 11:15:00 AM 2.22 35.996 0.368 7.78 4.88 14.38
2/19/2021 11:30:00 AM 2.29 36.122 0.368 7.8 5.06 14.39
2/19/2021 11:45:00 AM 2.35 36.23 0.368 7.81 5.14 14.41
2/19/2021 12:00:00 PM 2.4 36.32 0.368 7.82 4.94 14.43
2/19/2021 12:15:00 PM 2.46 36.428 0.368 7.84 4.85 14.53
2/19/2021 12:30:00 PM 2.54 36.572 0.368 7.85 4.92 14.55
2/19/2021 12:45:00 PM 2.63 36.734 0.368 7.86 4.9 14.46
2/19/2021 1:00:00 PM 2.72 36.896 0.368 7.86 5.14 14.46
2/19/2021 1:15:00 PM 2.79 37.022 0.368 7.88 5.01 14.56
2/19/2021 1:30:00 PM 2.86 37.148 0.369 7.89 4.94 14.58
2/19/2021 1:45:00 PM 2.95 37.31 0.37 7.9 4.89 14.48
2/19/2021 2:00:00 PM 3.03 37.454 0.37 7.91 4.84 14.58
2/19/2021 2:15:00 PM 3.12 37.616 0.371 7.92 4.9 14.63
2/19/2021 2:30:00 PM 3.23 37.814 0.372 7.92 4.88 14.59
2/19/2021 2:45:00 PM 3.31 37.958 0.372 7.92 4.87 14.55
2/19/2021 3:00:00 PM 3.39 38.102 0.373 7.93 4.9 14.55
2/19/2021 3:15:00 PM 3.47 38.246 0.373 7.93 4.81 14.65
2/19/2021 3:30:00 PM 3.53 38.354 0.373 7.94 4.96 14.54
2/19/2021 3:45:00 PM 3.55 38.39 0.373 7.93 5.07 14.49
2/19/2021 4:00:00 PM 3.57 38.426 0.372 7.94 5.02 14.48
2/19/2021 4:15:00 PM 3.6 38.48 0.372 7.93 4.93 14.43
2/19/2021 4:30:00 PM 3.64 38.552 0.372 7.93 5.09 14.33
2/19/2021 4:45:00 PM 3.67 38.606 0.372 7.93 5.03 14.32
2/19/2021 5:00:00 PM 3.69 38.642 0.373 7.92 5.19 14.23
2/19/2021 5:15:00 PM 3.72 38.696 0.373 7.89 5.1 14.23
2/19/2021 5:30:00 PM 3.73 38.714 0.374 7.87 5.3 14.06
2/19/2021 5:45:00 PM 3.74 38.732 0.374 7.85 5.39 13.94
2/19/2021 6:00:00 PM 3.75 38.75 0.375 7.84 5.62 13.75
2/19/2021 6:15:00 PM 3.74 38.732 0.376 7.82 5.8 13.71
2/19/2021 6:30:00 PM 3.74 38.732 0.376 7.8 5.52 13.63
2/19/2021 6:45:00 PM 3.74 38.732 0.376 7.79 5.55 13.49
2/19/2021 7:00:00 PM 3.75 38.75 0.376 7.79 5.71 13.49
2/19/2021 7:15:00 PM 3.74 38.732 0.377 7.77 5.55 13.46
2/19/2021 7:30:00 PM 3.74 38.732 0.377 7.76 6.03 13.4
2/19/2021 7:45:00 PM 3.73 38.714 0.377 7.75 6.26 13.32
2/19/2021 8:00:00 PM 3.72 38.696 0.378 7.75 5.94 13.28
2/19/2021 8:15:00 PM 3.71 38.678 0.378 7.74 5.97 13.27
2/19/2021 8:30:00 PM 3.7 38.66 0.379 7.73 5.88 13.19
2/19/2021 8:45:00 PM 3.7 38.66 0.38 7.72 6.08 13.15
2/19/2021 9:00:00 PM 3.69 38.642 0.38 7.72 6.06 13.01
2/19/2021 9:15:00 PM 3.68 38.624 0.381 7.71 6.19 13.02
2/19/2021 9:30:00 PM 3.67 38.606 0.382 7.7 6.26 12.97
2/19/2021 9:45:00 PM 3.65 38.57 0.383 7.69 6.13 12.97
2/19/2021 10:00:00 PM 3.63 38.534 0.384 7.68 6.2 12.95
2/19/2021 10:15:00 PM 3.61 38.498 0.386 7.67 6.53 12.95
2/19/2021 10:30:00 PM 3.6 38.48 0.387 7.66 6.42 12.98
2/19/2021 10:45:00 PM 3.59 38.462 0.388 7.67 5.97 12.97
2/19/2021 11:00:00 PM 3.58 38.444 0.389 7.67 6.06 12.86
2/19/2021 11:15:00 PM 3.57 38.426 0.39 7.66 6.32 12.89
2/19/2021 11:30:00 PM 3.55 38.39 0.39 7.66 6.33 12.75
2/19/2021 11:45:00 PM 3.51 38.318 0.392 7.66 6.32 12.91
2/20/2021 12:00:00 AM 3.48 38.264 0.393 7.65 6.21 12.81
2/20/2021 12:15:00 AM 2.98 37.364 0.342 6.64 5.21 11.19
2/20/2021 12:30:00 AM 3.36 38.048 0.387 7.52 5.88 12.5
2/20/2021 12:45:00 AM 3.39 38.102 0.394 7.63 6.56 12.84
2/20/2021 1:00:00 AM 3.39 38.102 0.395 7.64 6.65 12.8
2/20/2021 1:15:00 AM 3.37 38.066 0.395 7.64 6.01 12.88
2/20/2021 1:30:00 AM 3.34 38.012 0.396 7.64 6.41 12.88
2/20/2021 1:45:00 AM 3.3 37.94 0.396 7.64 6.15 12.85
2/20/2021 2:00:00 AM 3.28 37.904 0.396 7.64 6.09 12.84
2/20/2021 2:15:00 AM 3.27 37.886 0.396 7.64 6 12.84
2/20/2021 2:30:00 AM 3.26 37.868 0.396 7.64 6.06 12.86
2/20/2021 2:45:00 AM 3.24 37.832 0.396 7.63 6.15 12.81
2/20/2021 3:00:00 AM 3.21 37.778 0.397 7.63 5.92 12.85
2/20/2021 3:15:00 AM 3.17 37.706 0.396 7.62 5.84 12.85
2/20/2021 3:30:00 AM 3.12 37.616 0.396 7.62 6.32 12.81
2/20/2021 3:45:00 AM 3.1 37.58 0.396 7.62 6.01 12.84
2/20/2021 4:00:00 AM 2.66 36.788 0.345 6.6 5.05 11.13
2/20/2021 4:15:00 AM 2.98 37.364 0.389 7.48 5.79 12.65
2/20/2021 4:30:00 AM 3 37.4 0.395 7.6 5.98 12.86
2/20/2021 4:45:00 AM 2.96 37.328 0.395 7.63 5.84 12.89
2/20/2021 5:00:00 AM 2.91 37.238 0.395 7.62 5.82 12.94
2/20/2021 5:15:00 AM 2.86 37.148 0.395 7.62 5.95 12.89
2/20/2021 5:30:00 AM 2.43 36.374 0.335 6.6 5.07 11.23
2/20/2021 5:45:00 AM 2.72 36.896 0.388 7.49 5.7 12.73
2/20/2021 6:00:00 AM 2.73 36.914 0.395 7.6 5.84 12.98
2/20/2021 6:15:00 AM 2.69 36.842 0.397 7.62 6.45 12.96
2/20/2021 6:30:00 AM 2.65 36.77 0.397 7.62 6.64 12.94
2/20/2021 6:45:00 AM 2.61 36.698 0.398 7.62 6.06 12.99
2/20/2021 7:00:00 AM 2.57 36.626 0.398 7.62 6.09 13.07
2/20/2021 7:15:00 AM 2.18 35.924 0.347 6.61 4.77 11.37
2/20/2021 7:30:00 AM 2.14 35.852 0.348 6.61 5.3 11.45
2/20/2021 7:45:00 AM 2.4 36.32 0.393 7.5 6.41 13.02
2/20/2021 8:00:00 AM 2.42 36.356 0.4 7.63 7.15 13.35
2/20/2021 8:15:00 AM 2.42 36.356 0.401 7.66 5.94 13.52
2/20/2021 8:30:00 AM 2.31 36.158 0.385 7.35 6.4 13.1
2/20/2021 8:45:00 AM 2.41 36.338 0.4 7.65 5.75 13.67
2/20/2021 9:00:00 AM 2.44 36.392 0.402 7.7 5.48 13.79
2/20/2021 9:15:00 AM 2.48 36.464 0.403 7.72 5.59 13.91
2/20/2021 9:30:00 AM 2.53 36.554 0.403 7.73 5.88 13.92
2/20/2021 9:45:00 AM 2.6 36.68 0.403 7.74 5.65 13.94
2/20/2021 10:00:00 AM 2.66 36.788 0.403 7.76 5.56 14.09
2/20/2021 10:15:00 AM 2.69 36.842 0.403 7.76 5.45 14.19
2/20/2021 10:30:00 AM 2.72 36.896 0.404 7.78 4.93 14.24
2/20/2021 10:45:00 AM 2.43 36.374 0.352 6.76 4.59 12.44
2/20/2021 11:00:00 AM 2.78 37.004 0.397 7.67 4.51 14.13
2/20/2021 11:15:00 AM 2.89 37.202 0.403 7.81 4.55 14.42
2/20/2021 11:30:00 AM 2.97 37.346 0.405 7.83 5.06 14.43
2/20/2021 11:45:00 AM 3.1 37.58 0.405 7.86 5.03 14.54
2/20/2021 12:00:00 PM 2.89 37.202 0.352 6.83 4.82 12.57
2/20/2021 12:15:00 PM 3.4 38.12 0.398 7.75 4.78 14.31
2/20/2021 12:30:00 PM 3.4 38.12 0.39 7.6 4.74 14.11
2/20/2021 12:45:00 PM 3.54 38.372 0.403 7.88 4.74 14.51
2/20/2021 1:00:00 PM 3.59 38.462 0.405 7.93 5.02 14.6
2/20/2021 1:15:00 PM 3.15 37.67 0.353 6.9 3.84 12.75
2/20/2021 1:30:00 PM 3.62 38.516 0.399 7.82 4.44 14.45
2/20/2021 1:45:00 PM 3.69 38.642 0.405 7.95 4.48 14.59
2/20/2021 2:00:00 PM 3.71 38.678 0.406 7.97 4.57 14.55
2/20/2021 2:15:00 PM 3.29 37.922 0.353 6.94 3.86 12.81
2/20/2021 2:30:00 PM 3.79 38.822 0.399 7.86 4.53 14.51
2/20/2021 2:45:00 PM 3.89 39.002 0.405 7.99 4.88 14.61
2/20/2021 3:00:00 PM 3.88 38.984 0.405 8.01 4.84 14.63
2/20/2021 3:15:00 PM 3.87 38.966 0.405 8.01 4.88 14.69
2/20/2021 3:30:00 PM 3.35 38.03 0.353 6.96 3.88 12.75
2/20/2021 3:45:00 PM 3.81 38.858 0.398 7.88 5.6 14.46
2/20/2021 4:00:00 PM 3.9 39.02 0.404 8.02 6.24 14.6
2/20/2021 4:15:00 PM 3.42 38.156 0.352 6.97 5.46 12.65
2/20/2021 4:30:00 PM 3.84 38.912 0.397 7.89 5.32 14.35
2/20/2021 4:45:00 PM 3.85 38.93 0.403 8 4.83 14.46
2/20/2021 5:00:00 PM 3.78 38.804 0.404 8 4.95 14.26
2/20/2021 5:15:00 PM 3.7 38.66 0.405 7.98 5.65 14.32
2/20/2021 5:30:00 PM 3.63 38.534 0.405 7.96 4.88 14.2
2/20/2021 5:45:00 PM 3.59 38.462 0.405 7.93 4.73 13.97
2/20/2021 6:00:00 PM 3.54 38.372 0.404 7.91 4.86 13.91
2/20/2021 6:15:00 PM 3.5 38.3 0.404 7.88 4.77 13.85
2/20/2021 6:30:00 PM 3.45 38.21 0.405 7.87 4.83 13.78
2/20/2021 6:45:00 PM 3.4 38.12 0.405 7.85 4.98 13.68
2/20/2021 7:00:00 PM 3.34 38.012 0.405 7.83 4.83 13.71
2/20/2021 7:15:00 PM 3.28 37.904 0.405 7.82 4.93 13.74
2/20/2021 7:30:00 PM 3.23 37.814 0.405 7.81 4.96 13.61
2/20/2021 7:45:00 PM 3.18 37.724 0.405 7.81 5.12 13.54
2/20/2021 8:00:00 PM 3.14 37.652 0.405 7.79 5.83 13.55
2/20/2021 8:15:00 PM 3.09 37.562 0.405 7.77 5.18 13.53
2/20/2021 8:30:00 PM 3.04 37.472 0.406 7.77 5.08 13.49
2/20/2021 8:45:00 PM 2.59 36.662 0.353 6.72 4.72 11.67
2/20/2021 9:00:00 PM 2.9 37.22 0.398 7.61 5.06 13.2
2/20/2021 9:15:00 PM 2.92 37.256 0.405 7.72 5.27 13.35
2/20/2021 9:30:00 PM 2.89 37.202 0.406 7.72 5.93 13.33
2/20/2021 9:45:00 PM 2.85 37.13 0.406 7.72 5.27 13.35
2/20/2021 10:00:00 PM 2.8 37.04 0.406 7.71 5.19 13.32
2/20/2021 10:15:00 PM 2.76 36.968 0.406 7.7 5.26 13.29
2/20/2021 10:30:00 PM 2.58 36.644 0.388 7.33 5.15 12.64
2/20/2021 10:45:00 PM 2.64 36.752 0.404 7.65 5.38 13.18
2/20/2021 11:00:00 PM 2.62 36.716 0.406 7.69 5.56 13.29
2/20/2021 11:15:00 PM 2.57 36.626 0.407 7.69 5.81 13.3
2/20/2021 11:30:00 PM 2.52 36.536 0.408 7.69 5.55 13.34
2/20/2021 11:45:00 PM 2.14 35.852 0.355 6.66 4.55 11.52
2/21/2021 12:00:00 AM 2.39 36.302 0.401 7.54 5.34 13.11
2/21/2021 12:15:00 AM 2.38 36.284 0.407 7.65 5.13 13.32
2/21/2021 12:30:00 AM 2.34 36.212 0.408 7.66 5.28 13.36
2/21/2021 12:45:00 AM 2.3 36.14 0.408 7.67 5.32 13.39
2/21/2021 1:00:00 AM 2.26 36.068 0.408 7.67 5.21 13.36
2/21/2021 1:15:00 AM 2.23 36.014 0.409 7.66 5.1 13.38
2/21/2021 1:30:00 AM 2.19 35.942 0.409 7.65 5.24 13.43
2/21/2021 1:45:00 AM 2.14 35.852 0.41 7.65 5.3 13.37
2/21/2021 2:00:00 AM 2.1 35.78 0.41 7.65 5.33 13.4
2/21/2021 2:15:00 AM 2.04 35.672 0.411 7.64 5.18 13.43
2/21/2021 2:30:00 AM 1.89 35.402 0.393 7.3 4.71 12.77
2/21/2021 2:45:00 AM 1.93 35.474 0.41 7.6 5.11 13.39
2/21/2021 3:00:00 AM 1.64 34.952 0.36 6.64 4.34 11.69
2/21/2021 3:15:00 AM 1.82 35.276 0.407 7.52 5.01 13.22
2/21/2021 3:30:00 AM 1.82 35.276 0.414 7.63 5.03 13.45
2/21/2021 3:45:00 AM 1.79 35.222 0.416 7.65 5.43 13.52
2/21/2021 4:00:00 AM 1.76 35.168 0.417 7.65 5.09 13.53
2/21/2021 4:15:00 AM 1.72 35.096 0.418 7.64 5.06 13.52
2/21/2021 4:30:00 AM 1.68 35.024 0.419 7.66 4.92 13.55
2/21/2021 4:45:00 AM 1.64 34.952 0.421 7.66 4.92 13.5
2/21/2021 5:00:00 AM 1.6 34.88 0.422 7.65 5.23 13.51
2/21/2021 5:15:00 AM 1.55 34.79 0.423 7.65 4.97 13.53
2/21/2021 5:30:00 AM 1.5 34.7 0.424 7.65 4.97 13.57
2/21/2021 5:45:00 AM 1.46 34.628 0.425 7.64 4.9 13.55
2/21/2021 6:00:00 AM 1.23 34.214 0.371 6.63 4.13 11.81
2/21/2021 6:15:00 AM 1.36 34.448 0.42 7.5 5 13.38
2/21/2021 6:30:00 AM 1.33 34.394 0.428 7.62 6.07 13.68
2/21/2021 6:45:00 AM 1.29 34.322 0.43 7.64 5.35 13.67
2/21/2021 7:00:00 AM 1.25 34.25 0.431 7.64 6.27 13.7
2/21/2021 7:15:00 AM 1.2 34.16 0.432 7.65 5.83 13.79
2/21/2021 7:30:00 AM 1.12 34.016 0.417 7.36 4.62 13.24
2/21/2021 7:45:00 AM 1.14 34.052 0.432 7.63 4.7 13.85
2/21/2021 8:00:00 AM 1.14 34.052 0.435 7.67 5.45 14.05
2/21/2021 8:15:00 AM 1.17 34.106 0.436 7.68 5.02 14.18
2/21/2021 8:30:00 AM 1.24 34.232 0.438 7.7 4.96 14.29
2/21/2021 8:45:00 AM 1.33 34.394 0.439 7.71 4.99 14.27
2/21/2021 9:00:00 AM 1.44 34.592 0.44 7.73 5.17 14.36
2/21/2021 9:15:00 AM 1.57 34.826 0.442 7.74 4.66 14.43
2/21/2021 9:30:00 AM 1.51 34.718 0.387 6.73 3.62 12.62
2/21/2021 9:45:00 AM 1.8 35.24 0.427 7.42 5.82 13.89
2/21/2021 10:00:00 AM 2.03 35.654 0.444 7.73 5.27 14.47
2/21/2021 10:15:00 AM 2.21 35.978 0.447 7.78 4.76 14.57
2/21/2021 10:30:00 AM 2.38 36.284 0.448 7.8 4.35 14.71
2/21/2021 10:45:00 AM 2.55 36.59 0.448 7.8 4.3 14.77
2/21/2021 11:00:00 AM 2.36 36.248 0.39 6.77 4.77 12.85
2/21/2021 11:15:00 AM 2.8 37.04 0.44 7.68 4.66 14.61
2/21/2021 11:30:00 AM 2.59 36.662 0.389 6.79 3.7 12.94
2/21/2021 11:45:00 AM 3 37.4 0.438 7.7 4.07 14.61
2/21/2021 12:00:00 PM 3.11 37.598 0.442 7.83 5.14 14.95
2/21/2021 12:15:00 PM 3.15 37.67 0.44 7.86 5.84 14.95
2/21/2021 12:30:00 PM 3.18 37.724 0.437 7.89 5.02 15.01
2/21/2021 12:45:00 PM 3.2 37.76 0.434 7.92 5.58 15.06
2/21/2021 1:00:00 PM 3.22 37.796 0.431 7.94 5.95 15.11
2/21/2021 1:15:00 PM 2.83 37.094 0.373 6.9 5.69 13.15
2/21/2021 1:30:00 PM 3.25 37.85 0.421 7.84 6.25 14.89
2/21/2021 1:45:00 PM 3.37 38.066 0.428 7.98 6.18 15.05
2/21/2021 2:00:00 PM 3.46 38.228 0.429 8.02 5.73 14.96
2/21/2021 2:15:00 PM 3.53 38.354 0.429 8.02 5.63 14.97
2/21/2021 2:30:00 PM 3.58 38.444 0.43 8.02 5.58 15.03
2/21/2021 2:45:00 PM 3.61 38.498 0.43 8.02 5.43 14.97
2/21/2021 3:00:00 PM 3.63 38.534 0.43 8.01 5.41 14.98
2/21/2021 3:15:00 PM 3.62 38.516 0.429 8.02 5.42 15.05
2/21/2021 3:30:00 PM 3.6 38.48 0.429 8.01 5.49 15.01
2/21/2021 3:45:00 PM 3.09 37.562 0.372 6.95 4.5 12.95
2/21/2021 4:00:00 PM 3.39 38.102 0.411 7.7 4.75 14.31
2/21/2021 4:15:00 PM 3.47 38.246 0.424 7.96 4.89 14.84
2/21/2021 4:30:00 PM 3.43 38.174 0.425 7.99 4.92 14.83
2/21/2021 4:45:00 PM 3.39 38.102 0.424 7.98 4.88 14.6
2/21/2021 5:00:00 PM 3.35 38.03 0.423 7.96 5.15 14.51
2/21/2021 5:15:00 PM 3.32 37.976 0.423 7.95 5.08 14.44
2/21/2021 5:30:00 PM 3.28 37.904 0.422 7.92 4.97 14.43
2/21/2021 5:45:00 PM 3.25 37.85 0.421 7.91 5.01 14.38
2/21/2021 6:00:00 PM 3.21 37.778 0.42 7.89 5.07 14.16
2/21/2021 6:15:00 PM 3.18 37.724 0.42 7.87 5.27 14.12
2/21/2021 6:30:00 PM 3.15 37.67 0.419 7.86 5.45 14.08
2/21/2021 6:45:00 PM 3.12 37.616 0.418 7.84 5.57 14.03
2/21/2021 7:00:00 PM 3.1 37.58 0.417 7.82 5.46 13.91
2/21/2021 7:15:00 PM 3.08 37.544 0.416 7.8 5.5 13.9
2/21/2021 7:30:00 PM 3.05 37.49 0.415 7.8 5.57 13.8
2/21/2021 7:45:00 PM 2.63 36.734 0.36 6.75 4.57 11.88
2/21/2021 8:00:00 PM 2.61 36.698 0.36 6.74 4.88 11.83
2/21/2021 8:15:00 PM 2.94 37.292 0.406 7.62 5.44 13.38
2/21/2021 8:30:00 PM 2.98 37.364 0.412 7.73 5.37 13.57
2/21/2021 8:45:00 PM 2.58 36.644 0.359 6.7 4.58 11.78
2/21/2021 9:00:00 PM 2.91 37.238 0.405 7.59 5.22 13.27
2/21/2021 9:15:00 PM 2.97 37.346 0.412 7.7 5.08 13.34
2/21/2021 9:30:00 PM 2.97 37.346 0.413 7.71 5.18 13.34
2/21/2021 9:45:00 PM 2.97 37.346 0.413 7.71 5.25 13.27
2/21/2021 10:00:00 PM 2.96 37.328 0.412 7.7 5.27 13.37
2/21/2021 10:15:00 PM 2.95 37.31 0.412 7.7 5.1 13.32
2/21/2021 10:30:00 PM 2.94 37.292 0.412 7.69 5.01 13.29
2/21/2021 10:45:00 PM 2.93 37.274 0.411 7.69 5.16 13.21
2/21/2021 11:00:00 PM 2.92 37.256 0.411 7.69 5.07 13.24
2/21/2021 11:15:00 PM 2.91 37.238 0.411 7.69 5 13.21
2/21/2021 11:30:00 PM 2.9 37.22 0.411 7.68 5.18 13.19
2/21/2021 11:45:00 PM 2.89 37.202 0.41 7.68 5.53 13.19
2/22/2021 12:00:00 AM 2.5 36.5 0.356 6.65 4.33 11.45
2/22/2021 12:15:00 AM 2.83 37.094 0.403 7.53 5.02 12.94
2/22/2021 12:30:00 AM 2.87 37.166 0.409 7.65 5.1 13.14
2/22/2021 12:45:00 AM 2.87 37.166 0.41 7.66 5.25 13.17
2/22/2021 1:00:00 AM 2.87 37.166 0.41 7.66 5.22 13.11
2/22/2021 1:15:00 AM 2.86 37.148 0.41 7.65 5.1 13.2
2/22/2021 1:30:00 AM 2.85 37.13 0.41 7.65 5.04 13.09
2/22/2021 1:45:00 AM 2.84 37.112 0.41 7.65 4.99 13.17
2/22/2021 2:00:00 AM 2.82 37.076 0.411 7.65 4.88 13.12
2/22/2021 2:15:00 AM 2.8 37.04 0.411 7.65 5.14 13.13
2/22/2021 2:30:00 AM 2.78 37.004 0.411 7.64 6.22 13.13
2/22/2021 2:45:00 AM 2.75 36.95 0.411 7.64 5.09 13.14
2/22/2021 3:00:00 AM 2.74 36.932 0.41 7.65 5.24 13.12
2/22/2021 3:15:00 AM 2.73 36.914 0.41 7.64 5.3 13.09
2/22/2021 3:30:00 AM 2.71 36.878 0.41 7.64 5.26 13.05
2/22/2021 3:45:00 AM 2.7 36.86 0.41 7.63 4.93 13.09
2/22/2021 4:00:00 AM 2.33 36.194 0.357 6.62 4.14 11.35
2/22/2021 4:15:00 AM 2.62 36.716 0.403 7.49 4.68 12.86
2/22/2021 4:30:00 AM 2.65 36.77 0.409 7.61 4.86 13.07
2/22/2021 4:45:00 AM 2.64 36.752 0.41 7.62 5.07 13
2/22/2021 5:00:00 AM 2.63 36.734 0.41 7.63 5.05 12.96
2/22/2021 5:15:00 AM 2.63 36.734 0.41 7.63 4.96 13.02
2/22/2021 5:30:00 AM 2.53 36.554 0.395 7.34 4.63 12.48
2/22/2021 5:45:00 AM 2.61 36.698 0.407 7.59 5.03 12.91
2/22/2021 6:00:00 AM 2.62 36.716 0.409 7.62 5 13.01
2/22/2021 6:15:00 AM 2.51 36.518 0.394 7.35 4.51 12.6
2/22/2021 6:30:00 AM 2.6 36.68 0.407 7.59 5.36 13.03
2/22/2021 6:45:00 AM 2.61 36.698 0.409 7.63 5.86 12.96
2/22/2021 7:00:00 AM 2.62 36.716 0.408 7.63 10.29 13.07
2/22/2021 7:15:00 AM 2.62 36.716 0.408 7.63 6.71 13.01
2/22/2021 7:30:00 AM 2.63 36.734 0.408 7.64 5.41 13.1
2/22/2021 7:45:00 AM 2.64 36.752 0.408 7.65 5.14 13.09
2/22/2021 8:00:00 AM 2.31 36.158 0.355 6.65 4.36 11.61
2/22/2021 8:15:00 AM 2.64 36.752 0.4 7.54 5.06 13.13
2/22/2021 8:30:00 AM 2.35 36.23 0.355 6.67 3.86 11.7
2/22/2021 8:45:00 AM 2.67 36.806 0.4 7.56 4.41 13.34
2/22/2021 9:00:00 AM 2.69 36.842 0.405 7.7 4.5 13.58
2/22/2021 9:15:00 AM 2.6 36.68 0.406 7.72 5.51 13.65
2/22/2021 9:30:00 AM 2.38 36.284 0.404 7.73 4.47 13.63
2/22/2021 9:45:00 AM 2.11 35.798 0.403 7.74 4.13 13.73
2/22/2021 10:00:00 AM 1.93 35.474 0.402 7.76 4.34 13.93
2/22/2021 10:15:00 AM 1.82 35.276 0.401 7.77 4.04 14.03
2/22/2021 10:30:00 AM 1.62 34.916 0.385 7.48 3.85 13.59
2/22/2021 10:45:00 AM 1.58 34.844 0.397 7.77 4.26 14.18
2/22/2021 11:00:00 AM 1.47 34.646 0.398 7.83 4.23 14.34
2/22/2021 11:15:00 AM 1.35 34.43 0.398 7.86 4.09 14.45
2/22/2021 11:30:00 AM 1.34 34.412 0.397 7.88 4.14 14.5
2/22/2021 11:45:00 AM 1.35 34.43 0.397 7.91 4.24 14.67
2/22/2021 12:00:00 PM 1.39 34.502 0.396 7.93 4.13 14.75
2/22/2021 12:15:00 PM 1.42 34.556 0.396 7.93 3.94 14.73
2/22/2021 12:30:00 PM 1.52 34.736 0.396 7.95 4.02 14.86
2/22/2021 12:45:00 PM 1.43 34.574 0.345 6.91 3.47 12.94
2/22/2021 1:00:00 PM 1.71 35.078 0.389 7.83 3.86 14.7
2/22/2021 1:15:00 PM 1.81 35.258 0.395 7.97 3.84 14.93
2/22/2021 1:30:00 PM 1.86 35.348 0.396 7.99 3.78 14.89
2/22/2021 1:45:00 PM 1.9 35.42 0.396 8 3.75 15.02
2/22/2021 2:00:00 PM 1.93 35.474 0.396 8 3.91 14.91
2/22/2021 2:15:00 PM 1.7 35.06 0.345 6.95 3.51 13.06
2/22/2021 2:30:00 PM 1.95 35.51 0.39 7.87 4.03 14.83
2/22/2021 2:45:00 PM 2.03 35.654 0.396 8 4.02 14.97
2/22/2021 3:00:00 PM 2.08 35.744 0.397 8.03 4.05 15.11
2/22/2021 3:15:00 PM 2.13 35.834 0.396 8.04 4.03 15.14
2/22/2021 3:30:00 PM 2.19 35.942 0.395 8.05 4 15.14
2/22/2021 3:45:00 PM 2.24 36.032 0.396 8.05 4 15.11
2/22/2021 4:00:00 PM 1.99 35.582 0.345 6.99 3.59 13.08
2/22/2021 4:15:00 PM 2.24 36.032 0.381 7.73 3.72 14.54
2/22/2021 4:30:00 PM 2.07 35.726 0.344 6.99 3.49 13.06
2/22/2021 4:45:00 PM 2.38 36.284 0.388 7.9 4.08 14.77
2/22/2021 5:00:00 PM 2.44 36.392 0.394 8.01 4.1 14.91
2/22/2021 5:15:00 PM 2.45 36.41 0.394 8.02 4.2 14.85
2/22/2021 5:30:00 PM 2.12 35.816 0.343 6.93 3.72 12.76
2/22/2021 5:45:00 PM 2.32 36.176 0.377 7.63 4.04 13.94
2/22/2021 6:00:00 PM 2.39 36.302 0.39 7.9 4.36 14.28
2/22/2021 6:15:00 PM 2.41 36.338 0.392 7.92 4.21 14.21
2/22/2021 6:30:00 PM 2.41 36.338 0.392 7.91 4.29 14.1
2/22/2021 6:45:00 PM 2.1 35.78 0.341 6.84 3.6 12.32
2/22/2021 7:00:00 PM 2.38 36.284 0.386 7.73 4.22 13.88
2/22/2021 7:15:00 PM 2.43 36.374 0.392 7.84 4.3 13.99
2/22/2021 7:30:00 PM 2.45 36.41 0.393 7.84 4.36 13.97
2/22/2021 7:45:00 PM 2.45 36.41 0.392 7.83 4.35 13.88
2/22/2021 8:00:00 PM 2.45 36.41 0.392 7.82 4.69 13.82
2/22/2021 8:15:00 PM 2.13 35.834 0.342 6.77 3.82 11.98
2/22/2021 8:30:00 PM 2.42 36.356 0.385 7.66 4.64 13.55
2/22/2021 8:45:00 PM 2.45 36.41 0.391 7.76 4.62 13.62
2/22/2021 9:00:00 PM 2.46 36.428 0.391 7.77 4.48 13.63
2/22/2021 9:15:00 PM 2.45 36.41 0.391 7.76 4.55 13.6
2/22/2021 9:30:00 PM 2.44 36.392 0.391 7.75 4.53 13.58
2/22/2021 9:45:00 PM 2.43 36.374 0.391 7.74 4.53 13.39
2/22/2021 10:00:00 PM 2.41 36.338 0.391 7.73 4.38 13.43
2/22/2021 10:15:00 PM 2.41 36.338 0.392 7.73 4.39 13.43
2/22/2021 10:30:00 PM 2.4 36.32 0.391 7.73 4.5 13.41
2/22/2021 10:45:00 PM 2.4 36.32 0.392 7.72 4.59 13.36
2/22/2021 11:00:00 PM 2.4 36.32 0.392 7.71 4.5 13.39
2/22/2021 11:15:00 PM 2.4 36.32 0.392 7.71 4.55 13.38
2/22/2021 11:30:00 PM 2.28 36.104 0.374 7.33 4.35 12.64
2/22/2021 11:45:00 PM 2.08 35.744 0.341 6.66 3.99 11.43
2/23/2021 12:00:00 AM 2.36 36.248 0.385 7.54 4.63 13
2/23/2021 12:15:00 AM 2.08 35.744 0.341 6.66 3.84 11.45
2/23/2021 12:30:00 AM 2.35 36.23 0.385 7.54 4.28 13.01
2/23/2021 12:45:00 AM 2.39 36.302 0.39 7.65 4.9 13.2
2/23/2021 1:00:00 AM 2.39 36.302 0.391 7.67 4.52 13.18
2/23/2021 1:15:00 AM 2.39 36.302 0.392 7.67 4.63 13.23
2/23/2021 1:30:00 AM 2.38 36.284 0.391 7.67 4.54 13.24
2/23/2021 1:45:00 AM 2.39 36.302 0.391 7.67 4.61 13.08
2/23/2021 2:00:00 AM 2.4 36.32 0.391 7.67 4.56 13.07
2/23/2021 2:15:00 AM 2.4 36.32 0.391 7.67 4.5 13.13
2/23/2021 2:30:00 AM 2.31 36.158 0.377 7.37 4.34 12.55
2/23/2021 2:45:00 AM 2.07 35.726 0.34 6.64 3.97 11.43
2/23/2021 3:00:00 AM 2.34 36.212 0.384 7.52 4.54 12.91
2/23/2021 3:15:00 AM 2.05 35.69 0.34 6.63 4.47 11.35
2/23/2021 3:30:00 AM 2.31 36.158 0.384 7.52 4.4 12.86
2/23/2021 3:45:00 AM 2.31 36.158 0.39 7.64 4.41 13.08
2/23/2021 4:00:00 AM 2.28 36.104 0.391 7.65 4.55 13.11
2/23/2021 4:15:00 AM 2.15 35.87 0.374 7.31 4.4 12.47
2/23/2021 4:30:00 AM 1.93 35.474 0.341 6.63 3.8 11.33
2/23/2021 4:45:00 AM 2.16 35.888 0.384 7.51 4.39 12.89
2/23/2021 5:00:00 AM 2.16 35.888 0.39 7.62 4.61 13.05
2/23/2021 5:15:00 AM 2.14 35.852 0.391 7.64 4.53 13.11
2/23/2021 5:30:00 AM 2.01 35.618 0.375 7.31 4.02 12.44
2/23/2021 5:45:00 AM 2.06 35.708 0.39 7.6 4.33 12.9
2/23/2021 6:00:00 AM 2.05 35.69 0.392 7.64 4.26 13.06
2/23/2021 6:15:00 AM 1.76 35.168 0.341 6.62 3.79 11.42
2/23/2021 6:30:00 AM 1.97 35.546 0.386 7.51 4.28 12.9
2/23/2021 6:45:00 AM 1.98 35.564 0.392 7.62 4.75 13.02
2/23/2021 7:00:00 AM 1.7 35.06 0.342 6.62 4.07 11.38
2/23/2021 7:15:00 AM 1.91 35.438 0.387 7.51 4.9 12.93
2/23/2021 7:30:00 AM 1.7 35.06 0.343 6.65 3.71 11.57
2/23/2021 7:45:00 AM 1.96 35.528 0.387 7.54 4.14 13.17
2/23/2021 8:00:00 AM 2.03 35.654 0.393 7.67 3.94 13.45
2/23/2021 8:15:00 AM 2.07 35.726 0.394 7.7 3.97 13.6
2/23/2021 8:30:00 AM 2.12 35.816 0.394 7.71 3.91 13.7
2/23/2021 8:45:00 AM 2.18 35.924 0.394 7.74 3.99 13.87
2/23/2021 9:00:00 AM 2.23 36.014 0.394 7.75 4.04 13.91
2/23/2021 9:15:00 AM 2.29 36.122 0.394 7.77 4.04 14.08
2/23/2021 9:30:00 AM 2.36 36.248 0.394 7.79 4.06 14.13
2/23/2021 9:45:00 AM 2.12 35.816 0.342 6.79 3.55 12.31
2/23/2021 10:00:00 AM 2.44 36.392 0.378 7.53 4.01 13.63
2/23/2021 10:15:00 AM 2.63 36.734 0.392 7.82 4.24 14.33
2/23/2021 10:30:00 AM 2.75 36.95 0.393 7.88 4.48 14.52
2/23/2021 10:45:00 AM 2.88 37.184 0.393 7.9 4.71 14.48
2/23/2021 11:00:00 AM 2.57 36.626 0.343 6.86 3.69 12.72
2/23/2021 11:15:00 AM 2.95 37.31 0.387 7.79 4.12 14.42
2/23/2021 11:30:00 AM 3.02 37.436 0.393 7.92 4.04 14.66
2/23/2021 11:45:00 AM 3.07 37.526 0.394 7.95 4.05 14.75
2/23/2021 12:00:00 PM 3.16 37.688 0.395 7.97 4.02 14.77
2/23/2021 12:15:00 PM 2.86 37.148 0.344 6.94 3.43 12.89
2/23/2021 12:30:00 PM 3.38 38.084 0.388 7.88 3.98 14.65
2/23/2021 12:45:00 PM 3.65 38.57 0.394 8.03 4.12 14.83
2/23/2021 1:00:00 PM 3.87 38.966 0.395 8.07 4.02 14.93
2/23/2021 1:15:00 PM 4.1 39.38 0.395 8.09 4.13 14.95
2/23/2021 1:30:00 PM 4.28 39.704 0.395 8.11 5.38 14.85
2/23/2021 1:45:00 PM 4.44 39.992 0.395 8.12 4.46 14.97
2/23/2021 2:00:00 PM 4.52 40.136 0.395 8.13 4.02 14.86
2/23/2021 2:15:00 PM 4.57 40.226 0.396 8.15 3.84 14.98
2/23/2021 2:30:00 PM 4.61 40.298 0.395 8.16 4.38 14.93
2/23/2021 2:45:00 PM 4.62 40.316 0.396 8.17 4.06 14.94
2/23/2021 3:00:00 PM 4.63 40.334 0.396 8.18 4.08 14.92
2/23/2021 3:15:00 PM 4.64 40.352 0.396 8.18 4.21 14.88
2/23/2021 3:30:00 PM 4.65 40.37 0.396 8.18 4.2 14.8
2/23/2021 3:45:00 PM 4.67 40.406 0.396 8.19 3.95 14.8
2/23/2021 4:00:00 PM 4.11 39.398 0.345 7.11 3.34 12.87
2/23/2021 4:15:00 PM 4.71 40.478 0.389 8.06 3.96 14.52
2/23/2021 4:30:00 PM 4.83 40.694 0.396 8.17 4.23 14.67
2/23/2021 4:45:00 PM 4.87 40.766 0.397 8.18 4.25 14.53
2/23/2021 5:00:00 PM 4.9 40.82 0.397 8.16 4.18 14.49
2/23/2021 5:15:00 PM 4.91 40.838 0.397 8.14 4.51 14.35
2/23/2021 5:30:00 PM 4.92 40.856 0.397 8.11 4.28 14.21
2/23/2021 5:45:00 PM 4.91 40.838 0.398 8.08 4.32 14.04
2/23/2021 6:00:00 PM 4.89 40.802 0.398 8.04 4.39 13.85
2/23/2021 6:15:00 PM 4.87 40.766 0.398 8.01 4.49 13.71
2/23/2021 6:30:00 PM 4.86 40.748 0.398 7.98 4.79 13.58
2/23/2021 6:45:00 PM 4.85 40.73 0.398 7.95 4.45 13.36
2/23/2021 7:00:00 PM 4.83 40.694 0.399 7.93 4.61 13.3
2/23/2021 7:15:00 PM 4.82 40.676 0.399 7.93 4.63 13.22
2/23/2021 7:30:00 PM 4.81 40.658 0.399 7.91 4.78 13.22
2/23/2021 7:45:00 PM 4.79 40.622 0.399 7.89 5.11 13.13
2/23/2021 8:00:00 PM 4.78 40.604 0.399 7.88 5.38 13.09
2/23/2021 8:15:00 PM 4.76 40.568 0.399 7.86 5.32 12.98
2/23/2021 8:30:00 PM 4.75 40.55 0.399 7.84 5.37 12.87
2/23/2021 8:45:00 PM 4.73 40.514 0.399 7.82 5.39 12.81
2/23/2021 9:00:00 PM 4.71 40.478 0.399 7.81 5.77 12.81
2/23/2021 9:15:00 PM 4.7 40.46 0.399 7.8 5.81 12.73
2/23/2021 9:30:00 PM 4.68 40.424 0.399 7.79 5.88 12.74
2/23/2021 9:45:00 PM 4.67 40.406 0.4 7.78 5.75 12.62
2/23/2021 10:00:00 PM 4.66 40.388 0.399 7.77 5.78 12.59
2/23/2021 10:15:00 PM 4.63 40.334 0.399 7.76 5.96 12.58
2/23/2021 10:30:00 PM 4.61 40.298 0.399 7.75 6.15 12.49
2/23/2021 10:45:00 PM 4.57 40.226 0.399 7.75 6.06 12.44
2/23/2021 11:00:00 PM 4.54 40.172 0.398 7.74 5.99 12.44
2/23/2021 11:15:00 PM 4.51 40.118 0.398 7.73 5.92 12.48
2/23/2021 11:30:00 PM 4.48 40.064 0.398 7.72 5.79 12.45
2/23/2021 11:45:00 PM 3.87 38.966 0.346 6.68 5.23 10.71
2/24/2021 12:00:00 AM 4.37 39.866 0.391 7.58 5.73 12.2
2/24/2021 12:15:00 AM 4.41 39.938 0.397 7.7 5.89 12.39
2/24/2021 12:30:00 AM 4.19 39.542 0.38 7.36 5.82 11.82
2/24/2021 12:45:00 AM 4.34 39.812 0.395 7.66 6.04 12.33
2/24/2021 1:00:00 AM 4.34 39.812 0.396 7.69 6.29 12.4
2/24/2021 1:15:00 AM 4.32 39.776 0.397 7.69 6.57 12.39
2/24/2021 1:30:00 AM 4.29 39.722 0.397 7.68 6.49 12.37
2/24/2021 1:45:00 AM 4.27 39.686 0.397 7.68 6.74 12.41
2/24/2021 2:00:00 AM 4.25 39.65 0.397 7.68 10.83 12.4
2/24/2021 2:15:00 AM 3.66 38.588 0.345 6.66 5.95 10.68
2/24/2021 2:30:00 AM 4.13 39.434 0.39 7.53 6.64 12.11
2/24/2021 2:45:00 AM 4.15 39.47 0.396 7.65 6.81 12.34
2/24/2021 3:00:00 AM 4.13 39.434 0.398 7.66 7.19 12.36
2/24/2021 3:15:00 AM 4.09 39.362 0.398 7.66 7.05 12.36
2/24/2021 3:30:00 AM 4.05 39.29 0.399 7.65 7.18 12.35
2/24/2021 3:45:00 AM 4.01 39.218 0.4 7.65 7.26 12.34
2/24/2021 4:00:00 AM 3.97 39.146 0.4 7.64 7.46 12.32
2/24/2021 4:15:00 AM 3.94 39.092 0.4 7.64 7.44 12.35
2/24/2021 4:30:00 AM 3.89 39.002 0.4 7.63 7.42 12.41
2/24/2021 4:45:00 AM 3.86 38.948 0.4 7.63 7.6 12.39
2/24/2021 5:00:00 AM 3.82 38.876 0.4 7.63 7.59 12.41
2/24/2021 5:15:00 AM 3.79 38.822 0.4 7.63 7.44 12.35
2/24/2021 5:30:00 AM 3.75 38.75 0.401 7.63 7.53 12.35
2/24/2021 5:45:00 AM 3.71 38.678 0.4 7.62 7.32 12.39
2/24/2021 6:00:00 AM 3.67 38.606 0.401 7.63 7.59 12.38
2/24/2021 6:15:00 AM 3.63 38.534 0.401 7.62 7.44 12.39
2/24/2021 6:30:00 AM 3.1 37.58 0.348 6.59 6.04 10.74
2/24/2021 6:45:00 AM 3.48 38.264 0.394 7.48 7.41 12.28
2/24/2021 7:00:00 AM 3.5 38.3 0.4 7.59 7.63 12.5
2/24/2021 7:15:00 AM 3.49 38.282 0.401 7.62 7.62 12.51
2/24/2021 7:30:00 AM 3.47 38.246 0.402 7.63 9.49 12.67
2/24/2021 7:45:00 AM 3.46 38.228 0.402 7.64 7.85 12.65
2/24/2021 8:00:00 AM 3.45 38.21 0.402 7.66 6.77 12.94
2/24/2021 8:15:00 AM 3.46 38.228 0.403 7.68 6.84 12.99
2/24/2021 8:30:00 AM 3.49 38.282 0.404 7.71 6.73 13.22
2/24/2021 8:45:00 AM 3.52 38.336 0.405 7.73 6.02 13.35
2/24/2021 9:00:00 AM 3.56 38.408 0.406 7.75 6.16 13.48
2/24/2021 9:15:00 AM 3.61 38.498 0.407 7.77 6.03 13.71
2/24/2021 9:30:00 AM 3.67 38.606 0.408 7.8 5.75 13.77
2/24/2021 9:45:00 AM 3.75 38.75 0.41 7.81 5.77 13.86
2/24/2021 10:00:00 AM 3.85 38.93 0.411 7.84 5.64 13.94
2/24/2021 10:15:00 AM 3.97 39.146 0.411 7.86 5.65 14.14
2/24/2021 10:30:00 AM 4.12 39.416 0.412 7.88 5.81 14.18
2/24/2021 10:45:00 AM 4.27 39.686 0.412 7.91 5.53 14.26
2/24/2021 11:00:00 AM 3.87 38.966 0.359 6.89 4.56 12.55
2/24/2021 11:15:00 AM 4.5 40.1 0.405 7.83 5.17 14.26
2/24/2021 11:30:00 AM 4.72 40.496 0.411 7.97 5.33 14.47
2/24/2021 11:45:00 AM 4.88 40.784 0.412 8.01 5.49 14.44
2/24/2021 12:00:00 PM 5.04 41.072 0.412 8.04 5.68 14.6
2/24/2021 12:15:00 PM 5.21 41.378 0.412 8.07 5.42 14.65
2/24/2021 12:30:00 PM 5.39 41.702 0.411 8.1 5.57 14.68
2/24/2021 12:45:00 PM 5.56 42.008 0.411 8.11 5.39 14.71
2/24/2021 1:00:00 PM 5.71 42.278 0.411 8.14 5.29 14.67
2/24/2021 1:15:00 PM 5.09 41.162 0.358 7.08 4.42 12.73
2/24/2021 1:30:00 PM 5.85 42.53 0.404 8.03 5.32 14.47
2/24/2021 1:45:00 PM 6.02 42.836 0.411 8.17 5.36 14.69
2/24/2021 2:00:00 PM 6.11 42.998 0.412 8.2 5.41 14.71
2/24/2021 2:15:00 PM 6.17 43.106 0.412 8.23 5.77 14.73
2/24/2021 2:30:00 PM 6.23 43.214 0.412 8.23 5.52 14.65
2/24/2021 2:45:00 PM 6.28 43.304 0.413 8.24 5.47 14.64
2/24/2021 3:00:00 PM 6.34 43.412 0.413 8.24 5.31 14.61
2/24/2021 3:15:00 PM 6.37 43.466 0.413 8.26 5.49 14.55
2/24/2021 3:30:00 PM 6.4 43.52 0.413 8.25 5.51 14.54
2/24/2021 3:45:00 PM 6.42 43.556 0.414 8.25 5.54 14.47
2/24/2021 4:00:00 PM 6.43 43.574 0.414 8.24 5.53 14.38
2/24/2021 4:15:00 PM 6.43 43.574 0.414 8.22 5.67 14.19
2/24/2021 4:30:00 PM 5.57 42.026 0.36 7.1 4.96 12.25
2/24/2021 4:45:00 PM 6.31 43.358 0.407 8.03 5.55 13.83
2/24/2021 5:00:00 PM 6.4 43.52 0.414 8.13 5.8 13.9
2/24/2021 5:15:00 PM 6.4 43.52 0.414 8.12 5.79 13.63
2/24/2021 5:30:00 PM 6.39 43.502 0.415 8.08 6.14 13.6
2/24/2021 5:45:00 PM 6.37 43.466 0.415 8.05 6.14 13.47
2/24/2021 6:00:00 PM 6.35 43.43 0.414 8.01 6.23 13.3
2/24/2021 6:15:00 PM 6.33 43.394 0.414 7.98 6.47 13.12
2/24/2021 6:30:00 PM 6.31 43.358 0.414 7.95 6.77 13
2/24/2021 6:45:00 PM 6.29 43.322 0.413 7.92 6.98 12.89
2/24/2021 7:00:00 PM 6.28 43.304 0.413 7.9 7.31 12.81
2/24/2021 7:15:00 PM 6.27 43.286 0.412 7.88 7.52 12.73
2/24/2021 7:30:00 PM 6.25 43.25 0.412 7.86 8.04 12.65
2/24/2021 7:45:00 PM 6.23 43.214 0.411 7.85 10.57 12.55
2/24/2021 8:00:00 PM 6.21 43.178 0.41 7.83 8.56 12.42
2/24/2021 8:15:00 PM 6.2 43.16 0.409 7.81 9.04 12.37
2/24/2021 8:30:00 PM 6.17 43.106 0.408 7.79 9.92 12.26
2/24/2021 8:45:00 PM 6.15 43.07 0.407 7.77 10.21 12.27
2/24/2021 9:00:00 PM 6.13 43.034 0.406 7.76 12.52 12.21
2/24/2021 9:15:00 PM 6.1 42.98 0.405 7.75 11.47 12.16
2/24/2021 9:30:00 PM 6.08 42.944 0.404 7.74 11.18 12.16
2/24/2021 9:45:00 PM 6.06 42.908 0.404 7.73 11.8 12.12
2/24/2021 10:00:00 PM 6.04 42.872 0.403 7.72 12.74 12.07
2/24/2021 10:15:00 PM 6.03 42.854 0.403 7.72 13.4 12.09
2/24/2021 10:30:00 PM 6.03 42.854 0.402 7.71 13.42 12.05
2/24/2021 10:45:00 PM 6.02 42.836 0.402 7.7 13.62 12.03
2/24/2021 11:00:00 PM 6.02 42.836 0.402 7.7 14.28 12.02
2/24/2021 11:15:00 PM 6.02 42.836 0.402 7.69 15.89 12
2/24/2021 11:30:00 PM 5.21 41.378 0.349 6.66 14.47 10.37
2/24/2021 11:45:00 PM 5.87 42.566 0.394 7.53 17.52 11.73
2/25/2021 12:00:00 AM 5.93 42.674 0.399 7.65 19.1 11.89
2/25/2021 12:15:00 AM 5.93 42.674 0.399 7.66 18.87 11.94
2/25/2021 12:30:00 AM 5.91 42.638 0.399 7.66 18.98 11.9
2/25/2021 12:45:00 AM 5.88 42.584 0.399 7.65 19.12 11.82
2/25/2021 1:00:00 AM 5.85 42.53 0.399 7.65 19.66 11.89
2/25/2021 1:15:00 AM 5.8 42.44 0.399 7.65 22.22 11.9
2/25/2021 1:30:00 AM 5.76 42.368 0.4 7.64 21.18 11.88
2/25/2021 1:45:00 AM 5.72 42.296 0.399 7.64 21.7 11.9
2/25/2021 2:00:00 AM 5.69 42.242 0.399 7.63 21.98 11.89
2/25/2021 2:15:00 AM 5.65 42.17 0.398 7.64 21.03 11.9
2/25/2021 2:30:00 AM 5.61 42.098 0.398 7.63 23.44 11.88
2/25/2021 2:45:00 AM 5.58 42.044 0.397 7.63 21.27 11.89
2/25/2021 3:00:00 AM 5.55 41.99 0.397 7.62 20.56 11.9
2/25/2021 3:15:00 AM 5.5 41.9 0.397 7.61 19.36 11.9
2/25/2021 3:30:00 AM 5.46 41.828 0.397 7.6 19.22 11.93
2/25/2021 3:45:00 AM 5.42 41.756 0.397 7.6 19.32 11.95
2/25/2021 4:00:00 AM 5.38 41.684 0.398 7.6 17.63 11.96
2/25/2021 4:15:00 AM 5.33 41.594 0.398 7.59 17.41 11.96
2/25/2021 4:30:00 AM 5.28 41.504 0.398 7.59 16.63 11.94
2/25/2021 4:45:00 AM 5.22 41.396 0.399 7.58 16.57 11.98
2/25/2021 5:00:00 AM 5.17 41.306 0.399 7.58 16.49 12
2/25/2021 5:15:00 AM 5.12 41.216 0.4 7.58 16 12.07
2/25/2021 5:30:00 AM 5.07 41.126 0.401 7.58 15.96 12.06
2/25/2021 5:45:00 AM 5.02 41.036 0.402 7.57 15.11 12.05
2/25/2021 6:00:00 AM 4.96 40.928 0.403 7.57 15.81 12.05
2/25/2021 6:15:00 AM 4.91 40.838 0.404 7.57 15.01 12.11
2/25/2021 6:30:00 AM 4.86 40.748 0.405 7.57 14.74 12.04
2/25/2021 6:45:00 AM 4.8 40.64 0.406 7.57 14.49 12.1
2/25/2021 7:00:00 AM 4.75 40.55 0.407 7.58 14.75 12.08
2/25/2021 7:15:00 AM 4.7 40.46 0.408 7.58 14.14 12.2
2/25/2021 7:30:00 AM 4.66 40.388 0.408 7.58 13.91 12.25
2/25/2021 7:45:00 AM 4.63 40.334 0.409 7.59 13.51 12.27
2/25/2021 8:00:00 AM 4.61 40.298 0.409 7.6 13.07 12.42
2/25/2021 8:15:00 AM 4.6 40.28 0.408 7.61 12.97 12.51
2/25/2021 8:30:00 AM 4.6 40.28 0.408 7.62 12.95 12.65
2/25/2021 8:45:00 AM 4.6 40.28 0.407 7.64 12.41 12.77
2/25/2021 9:00:00 AM 4.62 40.316 0.407 7.66 12.05 12.81
2/25/2021 9:15:00 AM 4.65 40.37 0.407 7.68 11.83 12.98
2/25/2021 9:30:00 AM 4.69 40.442 0.406 7.7 12.23 13.08
2/25/2021 9:45:00 AM 4.75 40.55 0.405 7.71 12 13.22
2/25/2021 10:00:00 AM 4.81 40.658 0.405 7.74 11.81 13.33
2/25/2021 10:15:00 AM 4.89 40.802 0.405 7.76 11.49 13.4
2/25/2021 10:30:00 AM 4.98 40.964 0.404 7.78 11.23 13.45
2/25/2021 10:45:00 AM 5.07 41.126 0.404 7.8 11.57 13.56
2/25/2021 11:00:00 AM 5.18 41.324 0.403 7.82 11.08 13.53
2/25/2021 11:15:00 AM 5.29 41.522 0.403 7.84 10.92 13.72
2/25/2021 11:30:00 AM 5.4 41.72 0.402 7.86 11.04 13.74
2/25/2021 11:45:00 AM 5.52 41.936 0.402 7.88 10.82 13.81
2/25/2021 12:00:00 PM 5.64 42.152 0.402 7.9 10.72 13.87
2/25/2021 12:15:00 PM 5.75 42.35 0.401 7.92 10.4 13.96
2/25/2021 12:30:00 PM 5.87 42.566 0.401 7.95 10.52 14.02
2/25/2021 12:45:00 PM 5.98 42.764 0.4 7.97 10.04 13.92
2/25/2021 1:00:00 PM 6.08 42.944 0.4 7.99 10.23 13.92
2/25/2021 1:15:00 PM 6.17 43.106 0.4 8.01 9.98 14.05
2/25/2021 1:30:00 PM 6.25 43.25 0.4 8.02 10.33 14.09
2/25/2021 1:45:00 PM 6.31 43.358 0.399 8.03 10.52 14.07
2/25/2021 2:00:00 PM 6.36 43.448 0.399 8.04 9.87 14.04
2/25/2021 2:15:00 PM 6.41 43.538 0.399 8.04 9.94 14.07
2/25/2021 2:30:00 PM 6.46 43.628 0.399 8.05 10.33 14
2/25/2021 2:45:00 PM 6.52 43.736 0.398 8.06 9.64 13.96
2/25/2021 3:00:00 PM 6.57 43.826 0.398 8.06 9.93 13.95
2/25/2021 3:15:00 PM 6.61 43.898 0.398 8.06 9.84 13.91
2/25/2021 3:30:00 PM 6.64 43.952 0.398 8.06 10.46 13.88
2/25/2021 3:45:00 PM 6.67 44.006 0.398 8.05 10.16 13.89
2/25/2021 4:00:00 PM 6.69 44.042 0.398 8.03 10.69 13.78
2/25/2021 4:15:00 PM 6.69 44.042 0.397 8.02 11.32 13.68
2/25/2021 4:30:00 PM 6.71 44.078 0.397 8 11.56 13.56
2/25/2021 4:45:00 PM 6.72 44.096 0.397 7.98 11.56 13.41
2/25/2021 5:00:00 PM 6.73 44.114 0.397 7.96 10.89 13.37
2/25/2021 5:15:00 PM 6.73 44.114 0.398 7.93 10.8 13.25
2/25/2021 5:30:00 PM 6.72 44.096 0.398 7.91 11.54 13.13
2/25/2021 5:45:00 PM 6.7 44.06 0.398 7.88 12.77 13.05
2/25/2021 6:00:00 PM 6.67 44.006 0.397 7.86 13.27 12.98
2/25/2021 6:15:00 PM 6.62 43.916 0.398 7.83 14.72 12.78
2/25/2021 6:30:00 PM 6.57 43.826 0.397 7.81 15.51 12.67
2/25/2021 6:45:00 PM 6.52 43.736 0.397 7.8 16.25 12.62
2/25/2021 7:00:00 PM 6.47 43.646 0.397 7.78 17.7 12.58
2/25/2021 7:15:00 PM 6.43 43.574 0.396 7.77 19.37 12.54
2/25/2021 7:30:00 PM 6.39 43.502 0.395 7.76 21.5 12.53
2/25/2021 7:45:00 PM 6.35 43.43 0.393 7.74 23.12 12.44
2/25/2021 8:00:00 PM 6.31 43.358 0.392 7.73 26.54 12.42
2/25/2021 8:15:00 PM 6.28 43.304 0.39 7.72 27.42 12.3
2/25/2021 8:30:00 PM 6.25 43.25 0.387 7.71 31.46 12.3
2/25/2021 8:45:00 PM 6.22 43.196 0.385 7.7 31.25 12.25
2/25/2021 9:00:00 PM 6.19 43.142 0.383 7.69 30.6 12.25
2/25/2021 9:15:00 PM 6.15 43.07 0.382 7.67 30.67 12.22
2/25/2021 9:30:00 PM 6.11 42.998 0.38 7.66 36.55 12.21
2/25/2021 9:45:00 PM 6.06 42.908 0.377 7.66 33.5 12.21
2/25/2021 10:00:00 PM 6 42.8 0.375 7.64 34.53 12.18
2/25/2021 10:15:00 PM 5.93 42.674 0.373 7.64 35.21 12.16
2/25/2021 10:30:00 PM 5.87 42.566 0.371 7.63 33.9 12.21
2/25/2021 10:45:00 PM 5.81 42.458 0.369 7.62 34 12.22
2/25/2021 11:00:00 PM 5.74 42.332 0.367 7.61 34.8 12.11
2/25/2021 11:15:00 PM 5.68 42.224 0.365 7.6 35.07 12.22
2/25/2021 11:30:00 PM 5.61 42.098 0.363 7.59 33.68 12.18
2/25/2021 11:45:00 PM 5.54 41.972 0.361 7.58 33.07 12.2
2/26/2021 12:00:00 AM 5.47 41.846 0.359 7.57 32.5 12.19
2/26/2021 12:15:00 AM 5.39 41.702 0.357 7.57 40.21 12.22
2/26/2021 12:30:00 AM 5.31 41.558 0.356 7.56 32.11 12.23
2/26/2021 12:45:00 AM 5.22 41.396 0.355 7.55 30.66 12.27
2/26/2021 1:00:00 AM 5.14 41.252 0.354 7.54 30.02 12.27
2/26/2021 1:15:00 AM 5.06 41.108 0.354 7.54 29.23 12.29
2/26/2021 1:30:00 AM 4.98 40.964 0.353 7.54 28.49 12.31
2/26/2021 1:45:00 AM 4.9 40.82 0.353 7.53 27.72 12.33
2/26/2021 2:00:00 AM 4.83 40.694 0.353 7.53 27.02 12.23
2/26/2021 2:15:00 AM 4.75 40.55 0.353 7.53 26.61 12.32
2/26/2021 2:30:00 AM 4.68 40.424 0.354 7.52 26.26 12.39
2/26/2021 2:45:00 AM 4.62 40.316 0.354 7.52 25.16 12.31
2/26/2021 3:00:00 AM 4.56 40.208 0.355 7.52 24.52 12.37
2/26/2021 3:15:00 AM 4.5 40.1 0.355 7.52 23.9 12.47
2/26/2021 3:30:00 AM 4.45 40.01 0.355 7.52 23.9 12.43
2/26/2021 3:45:00 AM 4.39 39.902 0.356 7.51 22.53 12.44
2/26/2021 4:00:00 AM 4.34 39.812 0.356 7.51 22.85 12.45
2/26/2021 4:15:00 AM 4.3 39.74 0.356 7.5 21.94 12.53
2/26/2021 4:30:00 AM 3.69 38.642 0.31 6.5 18.87 10.81
2/26/2021 4:45:00 AM 4.15 39.47 0.35 7.37 21.24 12.29
2/26/2021 5:00:00 AM 4.18 39.524 0.355 7.49 20.83 12.49
2/26/2021 5:15:00 AM 4.15 39.47 0.356 7.5 20.94 12.6
2/26/2021 5:30:00 AM 4.11 39.398 0.357 7.5 19.45 12.56
2/26/2021 5:45:00 AM 4.07 39.326 0.357 7.5 19.75 12.59
2/26/2021 6:00:00 AM 4.02 39.236 0.357 7.5 18.93 12.52
2/26/2021 6:15:00 AM 3.98 39.164 0.357 7.5 18.04 12.59
2/26/2021 6:30:00 AM 3.93 39.074 0.357 7.5 17.96 12.62
2/26/2021 6:45:00 AM 3.88 38.984 0.357 7.5 17.64 12.64
2/26/2021 7:00:00 AM 3.83 38.894 0.357 7.51 17.48 12.67
2/26/2021 7:15:00 AM 3.79 38.822 0.357 7.5 16.16 12.77
2/26/2021 7:30:00 AM 3.76 38.768 0.357 7.51 16.39 12.75
2/26/2021 7:45:00 AM 3.74 38.732 0.358 7.51 15.39 12.8
2/26/2021 8:00:00 AM 3.23 37.814 0.312 6.51 13.17 11.19
2/26/2021 8:15:00 AM 3.66 38.588 0.352 7.39 14.64 12.72
2/26/2021 8:30:00 AM 3.74 38.732 0.357 7.51 14.35 12.99
2/26/2021 8:45:00 AM 3.77 38.786 0.359 7.54 14 13.1
2/26/2021 9:00:00 AM 3.81 38.858 0.358 7.56 13.9 13.09
2/26/2021 9:15:00 AM 3.86 38.948 0.359 7.58 13.58 13.22
2/26/2021 9:30:00 AM 3.92 39.056 0.359 7.59 13.13 13.33
2/26/2021 9:45:00 AM 3.99 39.182 0.359 7.6 13.44 13.4
2/26/2021 10:00:00 AM 4.08 39.344 0.36 7.61 12.63 13.45
2/26/2021 10:15:00 AM 4.17 39.506 0.36 7.63 12.01 13.52
2/26/2021 10:30:00 AM 3.73 38.714 0.313 6.62 10.15 11.8
2/26/2021 10:45:00 AM 4.32 39.776 0.354 7.52 11.32 13.33
2/26/2021 11:00:00 AM 4.5 40.1 0.36 7.65 11.35 13.65
2/26/2021 11:15:00 AM 4.03 39.254 0.314 6.67 9.8 11.94
2/26/2021 11:30:00 AM 4.67 40.406 0.355 7.58 10.73 13.58
2/26/2021 11:45:00 AM 4.87 40.766 0.361 7.72 10.42 13.86
2/26/2021 12:00:00 PM 4.98 40.964 0.362 7.75 10.45 13.78
2/26/2021 12:15:00 PM 5.08 41.144 0.362 7.77 10.52 13.88
2/26/2021 12:30:00 PM 5.18 41.324 0.363 7.79 10.03 13.98
2/26/2021 12:45:00 PM 5.27 41.486 0.363 7.79 10.19 13.86
2/26/2021 1:00:00 PM 5.35 41.63 0.364 7.8 9.71 13.89
2/26/2021 1:15:00 PM 5.42 41.756 0.364 7.82 9.86 14.05
2/26/2021 1:30:00 PM 5.48 41.864 0.364 7.83 9.91 13.92
2/26/2021 1:45:00 PM 5.54 41.972 0.364 7.84 9.84 13.91
2/26/2021 2:00:00 PM 5.62 42.116 0.365 7.85 9.86 14.05
2/26/2021 2:15:00 PM 5.71 42.278 0.365 7.86 9.16 14.03
2/26/2021 2:30:00 PM 5.78 42.404 0.366 7.87 9.25 14.06
2/26/2021 2:45:00 PM 5.84 42.512 0.366 7.89 9.47 14.01
2/26/2021 3:00:00 PM 5.89 42.602 0.366 7.89 9.16 13.99
2/26/2021 3:15:00 PM 5.95 42.71 0.367 7.9 8.61 13.89
2/26/2021 3:30:00 PM 6 42.8 0.367 7.9 9.2 13.91
2/26/2021 3:45:00 PM 6.04 42.872 0.368 7.9 9.16 13.91
2/26/2021 4:00:00 PM 6.08 42.944 0.368 7.9 9.23 13.84
2/26/2021 4:15:00 PM 6.11 42.998 0.368 7.89 8.6 13.77
2/26/2021 4:30:00 PM 6.14 43.052 0.368 7.89 8.85 13.67
2/26/2021 4:45:00 PM 6.17 43.106 0.368 7.87 8.95 13.59
2/26/2021 5:00:00 PM 6.19 43.142 0.368 7.86 9.08 13.49
2/26/2021 5:15:00 PM 6.2 43.16 0.369 7.84 9.06 13.4
2/26/2021 5:30:00 PM 6.22 43.196 0.368 7.82 8.84 13.33
2/26/2021 5:45:00 PM 6.22 43.196 0.368 7.8 9.2 13.19
2/26/2021 6:00:00 PM 6.21 43.178 0.368 7.78 9.31 13.06
2/26/2021 6:15:00 PM 6.21 43.178 0.368 7.77 9.54 12.98
2/26/2021 6:30:00 PM 6.21 43.178 0.368 7.76 9.69 12.78
2/26/2021 6:45:00 PM 6.21 43.178 0.367 7.74 9.34 12.83
2/26/2021 7:00:00 PM 6.21 43.178 0.367 7.73 9.52 12.74
2/26/2021 7:15:00 PM 6.21 43.178 0.367 7.71 9.96 12.65
2/26/2021 7:30:00 PM 6.2 43.16 0.366 7.7 10.2 12.56
2/26/2021 7:45:00 PM 6.2 43.16 0.366 7.69 10.32 12.54
2/26/2021 8:00:00 PM 6.19 43.142 0.365 7.68 11.2 12.45
2/26/2021 8:15:00 PM 6.18 43.124 0.365 7.67 11.27 12.43
2/26/2021 8:30:00 PM 6.18 43.124 0.364 7.66 11 12.38
2/26/2021 8:45:00 PM 6.18 43.124 0.363 7.65 11.01 12.35
2/26/2021 9:00:00 PM 6.18 43.124 0.363 7.64 11.43 12.31
2/26/2021 9:15:00 PM 6.18 43.124 0.362 7.64 11.38 12.29
2/26/2021 9:30:00 PM 6.16 43.088 0.362 7.64 11.76 12.26
2/26/2021 9:45:00 PM 6.15 43.07 0.361 7.63 12.13 12.14
2/26/2021 10:00:00 PM 6.14 43.052 0.36 7.63 12.36 12.17
2/26/2021 10:15:00 PM 6.13 43.034 0.36 7.63 11.96 12.22
2/26/2021 10:30:00 PM 6.12 43.016 0.359 7.61 12.2 12.16
2/26/2021 10:45:00 PM 6.1 42.98 0.359 7.61 12.56 12.15
2/26/2021 11:00:00 PM 6.09 42.962 0.358 7.6 12.21 12.19
2/26/2021 11:15:00 PM 6.06 42.908 0.357 7.59 12.28 12.13
2/26/2021 11:30:00 PM 6.02 42.836 0.356 7.59 12.07 12.11
2/26/2021 11:45:00 PM 5.97 42.746 0.356 7.59 12.22 12.1
2/27/2021 12:00:00 AM 5.9 42.62 0.355 7.58 12.19 12.08
2/27/2021 12:15:00 AM 5.85 42.53 0.355 7.58 12.08 12.09
2/27/2021 12:30:00 AM 5.8 42.44 0.355 7.57 12.23 12.14
2/27/2021 12:45:00 AM 5.76 42.368 0.354 7.56 11.87 12.08
2/27/2021 1:00:00 AM 5.74 42.332 0.354 7.56 12.14 12.08
2/27/2021 1:15:00 AM 5.71 42.278 0.354 7.56 11.98 12.07
2/27/2021 1:30:00 AM 5.68 42.224 0.353 7.55 12.11 12.12
2/27/2021 1:45:00 AM 5.6 42.08 0.353 7.55 12.16 12.08
2/27/2021 2:00:00 AM 5.51 41.918 0.352 7.55 12.62 12.1
2/27/2021 2:15:00 AM 5.42 41.756 0.352 7.54 13.06 12.15
2/27/2021 2:30:00 AM 5.35 41.63 0.351 7.54 12.56 12.11
2/27/2021 2:45:00 AM 4.55 40.19 0.306 6.54 10.65 10.49
2/27/2021 3:00:00 AM 5.13 41.234 0.345 7.4 11.7 11.9
2/27/2021 3:15:00 AM 5.16 41.288 0.35 7.51 12.08 12.1
2/27/2021 3:30:00 AM 5.14 41.252 0.351 7.53 11.89 12.13
2/27/2021 3:45:00 AM 5.11 41.198 0.351 7.53 12.36 12.14
2/27/2021 4:00:00 AM 5.08 41.144 0.35 7.53 12.27 12.17
2/27/2021 4:15:00 AM 4.37 39.866 0.305 6.52 10.24 10.56
2/27/2021 4:30:00 AM 4.92 40.856 0.345 7.39 11.79 11.95
2/27/2021 4:45:00 AM 4.97 40.946 0.35 7.5 11.7 12.18
2/27/2021 5:00:00 AM 4.94 40.892 0.351 7.51 11.35 12.19
2/27/2021 5:15:00 AM 4.91 40.838 0.351 7.52 11.5 12.25
2/27/2021 5:30:00 AM 4.88 40.784 0.351 7.51 11.54 12.17
2/27/2021 5:45:00 AM 4.85 40.73 0.351 7.51 11.43 12.23
2/27/2021 6:00:00 AM 4.18 39.524 0.305 6.5 9.82 10.66
2/27/2021 6:15:00 AM 4.71 40.478 0.345 7.37 10.88 12.04
2/27/2021 6:30:00 AM 4.76 40.568 0.351 7.48 10.96 12.23
2/27/2021 6:45:00 AM 4.75 40.55 0.351 7.49 11.16 12.27
2/27/2021 7:00:00 AM 4.73 40.514 0.352 7.5 11.07 12.28
2/27/2021 7:15:00 AM 4.71 40.478 0.352 7.5 11.19 12.3
2/27/2021 7:30:00 AM 4.69 40.442 0.352 7.5 10.8 12.33
2/27/2021 7:45:00 AM 4.68 40.424 0.352 7.5 11.13 12.35
2/27/2021 8:00:00 AM 4.04 39.272 0.306 6.5 10.24 10.69
2/27/2021 8:15:00 AM 4.56 40.208 0.345 7.37 10.91 12.16
2/27/2021 8:30:00 AM 4.63 40.334 0.351 7.5 10.53 12.42
2/27/2021 8:45:00 AM 4.63 40.334 0.351 7.52 10.83 12.49
2/27/2021 9:00:00 AM 4.63 40.334 0.351 7.52 10.49 12.58
2/27/2021 9:15:00 AM 4.64 40.352 0.351 7.54 10.62 12.72
2/27/2021 9:30:00 AM 4.66 40.388 0.351 7.56 10.82 12.73
2/27/2021 9:45:00 AM 4.67 40.406 0.351 7.56 10.57 12.7
2/27/2021 10:00:00 AM 4.68 40.424 0.351 7.58 11.01 12.76
2/27/2021 10:15:00 AM 4.69 40.442 0.351 7.58 10.9 12.97
2/27/2021 10:30:00 AM 4.72 40.496 0.351 7.59 11.27 12.96
2/27/2021 10:45:00 AM 4.76 40.568 0.35 7.61 11.04 13.07
2/27/2021 11:00:00 AM 4.17 39.506 0.304 6.6 9.35 11.48
2/27/2021 11:15:00 AM 4.75 40.55 0.343 7.49 13.3 12.89
2/27/2021 11:30:00 AM 4.84 40.712 0.348 7.62 11.74 13.12
2/27/2021 11:45:00 AM 4.88 40.784 0.349 7.65 11.61 13.32
2/27/2021 12:00:00 PM 4.95 40.91 0.349 7.67 11.41 13.33
2/27/2021 12:15:00 PM 5.02 41.036 0.349 7.68 11.66 13.41
2/27/2021 12:30:00 PM 5.07 41.126 0.349 7.7 11.56 13.36
2/27/2021 12:45:00 PM 5.11 41.198 0.348 7.71 11.83 13.45
2/27/2021 1:00:00 PM 5.16 41.288 0.348 7.72 12.47 13.48
2/27/2021 1:15:00 PM 5.21 41.378 0.348 7.73 12.92 13.51
2/27/2021 1:30:00 PM 5.27 41.486 0.348 7.74 13.77 13.56
2/27/2021 1:45:00 PM 5.35 41.63 0.348 7.75 14.48 13.56
2/27/2021 2:00:00 PM 5.45 41.81 0.347 7.76 14.34 13.58
2/27/2021 2:15:00 PM 5.51 41.918 0.347 7.77 14.64 13.61
2/27/2021 2:30:00 PM 4.85 40.73 0.302 6.74 14.2 11.77
2/27/2021 2:45:00 PM 5.57 42.026 0.341 7.64 15.49 13.33
2/27/2021 3:00:00 PM 5.75 42.35 0.345 7.76 17.41 13.5
2/27/2021 3:15:00 PM 5.79 42.422 0.346 7.77 17.37 13.54
2/27/2021 3:30:00 PM 5.83 42.494 0.345 7.77 17.78 13.51
2/27/2021 3:45:00 PM 5.89 42.602 0.345 7.76 19.03 13.43
2/27/2021 4:00:00 PM 5.93 42.674 0.347 7.75 19.47 13.37
2/27/2021 4:15:00 PM 5.97 42.746 0.343 7.74 21.91 13.28
2/27/2021 4:30:00 PM 5.99 42.782 0.336 7.73 22.93 13.21
2/27/2021 4:45:00 PM 6 42.8 0.341 7.71 24.28 13.13
2/27/2021 5:00:00 PM 6.01 42.818 0.341 7.7 25.98 13.09
2/27/2021 5:15:00 PM 6.01 42.818 0.304 7.69 27.31 12.99
2/27/2021 5:30:00 PM 6.02 42.836 0.234 7.67 30.16 12.91
2/27/2021 5:45:00 PM 6.04 42.872 0.325 7.65 36.81 12.83
2/27/2021 6:00:00 PM 6.06 42.908 0.334 7.64 36.17 12.74
2/27/2021 6:15:00 PM 6.07 42.926 0.333 7.62 39.43 12.69
2/27/2021 6:30:00 PM 6.08 42.944 0.331 7.61 41.91 12.63
2/27/2021 6:45:00 PM 6.08 42.944 0.329 7.61 46.47 12.62
2/27/2021 7:00:00 PM 6.08 42.944 0.326 7.6 52.56 12.59
2/27/2021 7:15:00 PM 6.06 42.908 0.324 7.58 59.69 12.52
2/27/2021 7:30:00 PM 6.03 42.854 0.322 7.57 64.37 12.5
2/27/2021 7:45:00 PM 6.01 42.818 0.319 7.57 68.65 12.5
2/27/2021 8:00:00 PM 5.97 42.746 0.317 7.56 74.22 12.44
2/27/2021 8:15:00 PM 5.94 42.692 0.314 7.55 79.81 12.42
2/27/2021 8:30:00 PM 5.9 42.62 0.312 7.54 84.12 12.36
2/27/2021 8:45:00 PM 5.85 42.53 0.31 7.52 86.59 12.35
2/27/2021 9:00:00 PM 5.8 42.44 0.307 7.52 89.27 12.33
2/27/2021 9:15:00 PM 5.74 42.332 0.305 7.5 89.91 12.34
2/27/2021 9:30:00 PM 5.69 42.242 0.302 7.5 89.39 12.31
2/27/2021 9:45:00 PM 5.62 42.116 0.301 7.49 88.12 12.29
2/27/2021 10:00:00 PM 5.57 42.026 0.299 7.48 86.61 12.22
2/27/2021 10:15:00 PM 5.51 41.918 0.298 7.47 86.02 12.24
2/27/2021 10:30:00 PM 5.44 41.792 0.297 7.46 83.72 12.27
2/27/2021 10:45:00 PM 5.38 41.684 0.296 7.46 81.47 12.27
2/27/2021 11:00:00 PM 5.31 41.558 0.295 7.45 79.7 12.22
2/27/2021 11:15:00 PM 5.25 41.45 0.295 7.43 74.8 12.28
2/27/2021 11:30:00 PM 5.2 41.36 0.295 7.44 73.11 12.32
2/27/2021 11:45:00 PM 5.14 41.252 0.295 7.43 68.78 12.32
2/28/2021 12:00:00 AM 5.09 41.162 0.296 7.43 66.7 12.35
2/28/2021 12:15:00 AM 5.04 41.072 0.296 7.42 64.39 12.36
2/28/2021 12:30:00 AM 4.99 40.982 0.297 7.41 60.95 12.26
2/28/2021 12:45:00 AM 4.95 40.91 0.298 7.42 57.33 12.32
2/28/2021 1:00:00 AM 4.9 40.82 0.299 7.42 55.39 12.26
2/28/2021 1:15:00 AM 4.21 39.578 0.261 6.41 46.36 10.69
2/28/2021 1:30:00 AM 4.73 40.514 0.296 7.28 51.08 12.15
2/28/2021 1:45:00 AM 4.77 40.586 0.301 7.39 50.22 12.31
2/28/2021 2:00:00 AM 4.75 40.55 0.302 7.41 47.83 12.36
2/28/2021 2:15:00 AM 4.72 40.496 0.303 7.4 45.09 12.36
2/28/2021 2:30:00 AM 4.69 40.442 0.304 7.4 44.86 12.3
2/28/2021 2:45:00 AM 4.66 40.388 0.305 7.39 43.35 12.3
2/28/2021 3:00:00 AM 4.63 40.334 0.306 7.4 41.34 12.4
2/28/2021 3:15:00 AM 4.61 40.298 0.307 7.4 39.91 12.45
2/28/2021 3:30:00 AM 4.59 40.262 0.308 7.4 38.74 12.41
2/28/2021 3:45:00 AM 4.57 40.226 0.308 7.4 37.91 12.34
2/28/2021 4:00:00 AM 4.55 40.19 0.31 7.39 36.54 12.35
2/28/2021 4:15:00 AM 4.53 40.154 0.311 7.39 35.02 12.46
2/28/2021 4:30:00 AM 4.52 40.136 0.312 7.39 33.17 12.43
2/28/2021 4:45:00 AM 4.51 40.118 0.313 7.39 33.32 12.38
2/28/2021 5:00:00 AM 4.5 40.1 0.314 7.39 31.8 12.46
2/28/2021 5:15:00 AM 4.49 40.082 0.307 7.39 30.74 12.53
2/28/2021 5:30:00 AM 4.48 40.064 0.315 7.39 29.34 12.45
2/28/2021 5:45:00 AM 4.48 40.064 0.317 7.39 28 12.46
2/28/2021 6:00:00 AM 4.3 39.74 0.306 7.09 26.71 11.92
2/28/2021 6:15:00 AM 4.45 40.01 0.317 7.34 27.89 12.38
2/28/2021 6:30:00 AM 4.48 40.064 0.32 7.38 26.83 12.46
2/28/2021 6:45:00 AM 4.49 40.082 0.321 7.39 25.76 12.45
2/28/2021 7:00:00 AM 4.49 40.082 0.322 7.39 24.77 12.44
2/28/2021 7:15:00 AM 4.5 40.1 0.323 7.4 24.78 12.53
2/28/2021 7:30:00 AM 4.51 40.118 0.324 7.4 23.56 12.49
2/28/2021 7:45:00 AM 4.53 40.154 0.325 7.4 22.58 12.48
2/28/2021 8:00:00 AM 4.54 40.172 0.326 7.4 22.2 12.48
2/28/2021 8:15:00 AM 4.55 40.19 0.326 7.4 21.71 12.52
2/28/2021 8:30:00 AM 4.57 40.226 0.327 7.4 21.46 12.53
2/28/2021 8:45:00 AM 4.61 40.298 0.327 7.42 21.12 12.54
2/28/2021 9:00:00 AM 4.64 40.352 0.328 7.42 20.25 12.56
2/28/2021 9:15:00 AM 4.66 40.388 0.329 7.43 20.03